﻿<?xml version="1.0" encoding="UTF-8" standalone="no" ?>
<gpx xmlns="http://www.topografix.com/GPX/1/1" creator="CompeGPS" version="1.1" xmlns:xsi="http://www.w3.org/2001/XMLSchema-instance" xsi:schemaLocation="http://www.topografix.com/GPX/1/1 http://www.topografix.com/GPX/1/1/gpx.xsd http://www.garmin.com/xmlschemas/GpxExtensions/v3 http://www.garmin.com/xmlschemas/GpxExtensionsv3.xsd http://www.garmin.com/xmlschemas/TrackPointExtension/v1 http://www.garmin.com/xmlschemas/TrackPointExtensionv1.xsd" xmlns:gpxtpx="http://www.garmin.com/xmlschemas/TrackPointExtension/v1">
  <metadata>
    <link href="http://www.compegps.com">
      <text>CompeGPS TEAM, SL</text>
    </link>
    <time>2014-08-18T13:42:35Z</time>
    <bounds maxlat="42.713827" maxlon="-0.023711" minlat="42.684919" minlon="-0.064190"/>
  </metadata>
  <trk>
    <name>casque 2014</name>
    <trkseg>
      <trkpt lat="42.713789" lon="-0.051456">
        <ele>2210.5</ele>
        <time>2014-08-17T03:59:46Z</time>
      </trkpt>
      <trkpt lat="42.713735" lon="-0.051459">
        <ele>2211.2</ele>
        <time>2014-08-17T04:00:27Z</time>
      </trkpt>
      <trkpt lat="42.713674" lon="-0.051321">
        <ele>2211.3</ele>
        <time>2014-08-17T04:00:41Z</time>
      </trkpt>
      <trkpt lat="42.713599" lon="-0.051208">
        <ele>2211.7</ele>
        <time>2014-08-17T04:00:54Z</time>
      </trkpt>
      <trkpt lat="42.713527" lon="-0.051083">
        <ele>2211.8</ele>
        <time>2014-08-17T04:01:04Z</time>
      </trkpt>
      <trkpt lat="42.713437" lon="-0.051031">
        <ele>2211.6</ele>
        <time>2014-08-17T04:01:14Z</time>
      </trkpt>
      <trkpt lat="42.713339" lon="-0.051039">
        <ele>2210.9</ele>
        <time>2014-08-17T04:01:24Z</time>
      </trkpt>
      <trkpt lat="42.713263" lon="-0.051114">
        <ele>2211.4</ele>
        <time>2014-08-17T04:01:34Z</time>
      </trkpt>
      <trkpt lat="42.713206" lon="-0.051223">
        <ele>2211.3</ele>
        <time>2014-08-17T04:01:45Z</time>
      </trkpt>
      <trkpt lat="42.713149" lon="-0.051332">
        <ele>2211.3</ele>
        <time>2014-08-17T04:01:55Z</time>
      </trkpt>
      <trkpt lat="42.713106" lon="-0.051459">
        <ele>2211.6</ele>
        <time>2014-08-17T04:02:04Z</time>
      </trkpt>
      <trkpt lat="42.713056" lon="-0.051566">
        <ele>2212.0</ele>
        <time>2014-08-17T04:02:12Z</time>
      </trkpt>
      <trkpt lat="42.713010" lon="-0.051678">
        <ele>2212.1</ele>
        <time>2014-08-17T04:02:20Z</time>
      </trkpt>
      <trkpt lat="42.712968" lon="-0.051786">
        <ele>2211.8</ele>
        <time>2014-08-17T04:02:28Z</time>
      </trkpt>
      <trkpt lat="42.712930" lon="-0.051904">
        <ele>2211.7</ele>
        <time>2014-08-17T04:02:35Z</time>
      </trkpt>
      <trkpt lat="42.712895" lon="-0.052020">
        <ele>2211.9</ele>
        <time>2014-08-17T04:02:43Z</time>
      </trkpt>
      <trkpt lat="42.712863" lon="-0.052144">
        <ele>2212.1</ele>
        <time>2014-08-17T04:02:51Z</time>
      </trkpt>
      <trkpt lat="42.712841" lon="-0.052273">
        <ele>2213.2</ele>
        <time>2014-08-17T04:02:59Z</time>
      </trkpt>
      <trkpt lat="42.712819" lon="-0.052402">
        <ele>2211.4</ele>
        <time>2014-08-17T04:03:08Z</time>
      </trkpt>
      <trkpt lat="42.712793" lon="-0.052527">
        <ele>2211.7</ele>
        <time>2014-08-17T04:03:17Z</time>
      </trkpt>
      <trkpt lat="42.712775" lon="-0.052643">
        <ele>2211.9</ele>
        <time>2014-08-17T04:03:25Z</time>
      </trkpt>
      <trkpt lat="42.712754" lon="-0.052759">
        <ele>2211.4</ele>
        <time>2014-08-17T04:03:33Z</time>
      </trkpt>
      <trkpt lat="42.712732" lon="-0.052885">
        <ele>2211.1</ele>
        <time>2014-08-17T04:03:41Z</time>
      </trkpt>
      <trkpt lat="42.712712" lon="-0.053013">
        <ele>2210.9</ele>
        <time>2014-08-17T04:03:49Z</time>
      </trkpt>
      <trkpt lat="42.712684" lon="-0.053152">
        <ele>2210.8</ele>
        <time>2014-08-17T04:03:58Z</time>
      </trkpt>
      <trkpt lat="42.712649" lon="-0.053275">
        <ele>2211.0</ele>
        <time>2014-08-17T04:04:07Z</time>
      </trkpt>
      <trkpt lat="42.712611" lon="-0.053405">
        <ele>2211.1</ele>
        <time>2014-08-17T04:04:15Z</time>
      </trkpt>
      <trkpt lat="42.712566" lon="-0.053534">
        <ele>2211.0</ele>
        <time>2014-08-17T04:04:23Z</time>
      </trkpt>
      <trkpt lat="42.712522" lon="-0.053642">
        <ele>2210.7</ele>
        <time>2014-08-17T04:04:30Z</time>
      </trkpt>
      <trkpt lat="42.712487" lon="-0.053759">
        <ele>2210.5</ele>
        <time>2014-08-17T04:04:38Z</time>
      </trkpt>
      <trkpt lat="42.712449" lon="-0.053883">
        <ele>2210.2</ele>
        <time>2014-08-17T04:04:46Z</time>
      </trkpt>
      <trkpt lat="42.712409" lon="-0.054019">
        <ele>2210.7</ele>
        <time>2014-08-17T04:04:54Z</time>
      </trkpt>
      <trkpt lat="42.712366" lon="-0.054157">
        <ele>2210.4</ele>
        <time>2014-08-17T04:05:02Z</time>
      </trkpt>
      <trkpt lat="42.712332" lon="-0.054276">
        <ele>2209.7</ele>
        <time>2014-08-17T04:05:10Z</time>
      </trkpt>
      <trkpt lat="42.712298" lon="-0.054395">
        <ele>2209.6</ele>
        <time>2014-08-17T04:05:18Z</time>
      </trkpt>
      <trkpt lat="42.712269" lon="-0.054519">
        <ele>2209.8</ele>
        <time>2014-08-17T04:05:26Z</time>
      </trkpt>
      <trkpt lat="42.712242" lon="-0.054654">
        <ele>2209.7</ele>
        <time>2014-08-17T04:05:34Z</time>
      </trkpt>
      <trkpt lat="42.712228" lon="-0.054773">
        <ele>2209.7</ele>
        <time>2014-08-17T04:05:42Z</time>
      </trkpt>
      <trkpt lat="42.712205" lon="-0.054904">
        <ele>2209.5</ele>
        <time>2014-08-17T04:05:50Z</time>
      </trkpt>
      <trkpt lat="42.712181" lon="-0.055037">
        <ele>2208.8</ele>
        <time>2014-08-17T04:05:58Z</time>
      </trkpt>
      <trkpt lat="42.712153" lon="-0.055163">
        <ele>2208.8</ele>
        <time>2014-08-17T04:06:07Z</time>
      </trkpt>
      <trkpt lat="42.712132" lon="-0.055283">
        <ele>2208.9</ele>
        <time>2014-08-17T04:06:16Z</time>
      </trkpt>
      <trkpt lat="42.712105" lon="-0.055430">
        <ele>2209.5</ele>
        <time>2014-08-17T04:06:44Z</time>
      </trkpt>
      <trkpt lat="42.712077" lon="-0.055556">
        <ele>2210.5</ele>
        <time>2014-08-17T04:06:51Z</time>
      </trkpt>
      <trkpt lat="42.712036" lon="-0.055666">
        <ele>2210.2</ele>
        <time>2014-08-17T04:06:58Z</time>
      </trkpt>
      <trkpt lat="42.711997" lon="-0.055777">
        <ele>2210.2</ele>
        <time>2014-08-17T04:07:06Z</time>
      </trkpt>
      <trkpt lat="42.711941" lon="-0.055894">
        <ele>2210.1</ele>
        <time>2014-08-17T04:07:14Z</time>
      </trkpt>
      <trkpt lat="42.711867" lon="-0.055996">
        <ele>2209.7</ele>
        <time>2014-08-17T04:07:21Z</time>
      </trkpt>
      <trkpt lat="42.711803" lon="-0.056087">
        <ele>2209.7</ele>
        <time>2014-08-17T04:07:28Z</time>
      </trkpt>
      <trkpt lat="42.711752" lon="-0.056184">
        <ele>2210.2</ele>
        <time>2014-08-17T04:07:35Z</time>
      </trkpt>
      <trkpt lat="42.711686" lon="-0.056282">
        <ele>2209.9</ele>
        <time>2014-08-17T04:07:42Z</time>
      </trkpt>
      <trkpt lat="42.711621" lon="-0.056371">
        <ele>2210.3</ele>
        <time>2014-08-17T04:07:49Z</time>
      </trkpt>
      <trkpt lat="42.711553" lon="-0.056453">
        <ele>2210.5</ele>
        <time>2014-08-17T04:07:56Z</time>
      </trkpt>
      <trkpt lat="42.711470" lon="-0.056524">
        <ele>2210.6</ele>
        <time>2014-08-17T04:08:03Z</time>
      </trkpt>
      <trkpt lat="42.711384" lon="-0.056583">
        <ele>2210.5</ele>
        <time>2014-08-17T04:08:10Z</time>
      </trkpt>
      <trkpt lat="42.711284" lon="-0.056630">
        <ele>2210.4</ele>
        <time>2014-08-17T04:08:18Z</time>
      </trkpt>
      <trkpt lat="42.711197" lon="-0.056665">
        <ele>2210.7</ele>
        <time>2014-08-17T04:08:24Z</time>
      </trkpt>
      <trkpt lat="42.711121" lon="-0.056717">
        <ele>2210.9</ele>
        <time>2014-08-17T04:08:31Z</time>
      </trkpt>
      <trkpt lat="42.711043" lon="-0.056794">
        <ele>2210.8</ele>
        <time>2014-08-17T04:08:39Z</time>
      </trkpt>
      <trkpt lat="42.710972" lon="-0.056874">
        <ele>2211.1</ele>
        <time>2014-08-17T04:08:46Z</time>
      </trkpt>
      <trkpt lat="42.710895" lon="-0.056946">
        <ele>2211.0</ele>
        <time>2014-08-17T04:08:53Z</time>
      </trkpt>
      <trkpt lat="42.710821" lon="-0.057028">
        <ele>2210.6</ele>
        <time>2014-08-17T04:09:00Z</time>
      </trkpt>
      <trkpt lat="42.710751" lon="-0.057108">
        <ele>2210.9</ele>
        <time>2014-08-17T04:09:07Z</time>
      </trkpt>
      <trkpt lat="42.710683" lon="-0.057206">
        <ele>2210.9</ele>
        <time>2014-08-17T04:09:14Z</time>
      </trkpt>
      <trkpt lat="42.710607" lon="-0.057286">
        <ele>2211.0</ele>
        <time>2014-08-17T04:09:21Z</time>
      </trkpt>
      <trkpt lat="42.710548" lon="-0.057383">
        <ele>2211.1</ele>
        <time>2014-08-17T04:09:28Z</time>
      </trkpt>
      <trkpt lat="42.710480" lon="-0.057486">
        <ele>2210.9</ele>
        <time>2014-08-17T04:09:35Z</time>
      </trkpt>
      <trkpt lat="42.710417" lon="-0.057578">
        <ele>2210.6</ele>
        <time>2014-08-17T04:09:42Z</time>
      </trkpt>
      <trkpt lat="42.710359" lon="-0.057682">
        <ele>2210.9</ele>
        <time>2014-08-17T04:09:49Z</time>
      </trkpt>
      <trkpt lat="42.710315" lon="-0.057795">
        <ele>2210.5</ele>
        <time>2014-08-17T04:09:57Z</time>
      </trkpt>
      <trkpt lat="42.710256" lon="-0.057929">
        <ele>2210.4</ele>
        <time>2014-08-17T04:10:05Z</time>
      </trkpt>
      <trkpt lat="42.710202" lon="-0.058033">
        <ele>2210.6</ele>
        <time>2014-08-17T04:10:12Z</time>
      </trkpt>
      <trkpt lat="42.710144" lon="-0.058130">
        <ele>2210.4</ele>
        <time>2014-08-17T04:10:19Z</time>
      </trkpt>
      <trkpt lat="42.710085" lon="-0.058263">
        <ele>2210.6</ele>
        <time>2014-08-17T04:10:27Z</time>
      </trkpt>
      <trkpt lat="42.710035" lon="-0.058389">
        <ele>2210.4</ele>
        <time>2014-08-17T04:10:33Z</time>
      </trkpt>
      <trkpt lat="42.709974" lon="-0.058507">
        <ele>2210.4</ele>
        <time>2014-08-17T04:10:40Z</time>
      </trkpt>
      <trkpt lat="42.709917" lon="-0.058609">
        <ele>2210.5</ele>
        <time>2014-08-17T04:10:47Z</time>
      </trkpt>
      <trkpt lat="42.709835" lon="-0.058693">
        <ele>2210.2</ele>
        <time>2014-08-17T04:10:54Z</time>
      </trkpt>
      <trkpt lat="42.709752" lon="-0.058767">
        <ele>2209.9</ele>
        <time>2014-08-17T04:11:01Z</time>
      </trkpt>
      <trkpt lat="42.709679" lon="-0.058834">
        <ele>2210.2</ele>
        <time>2014-08-17T04:11:08Z</time>
      </trkpt>
      <trkpt lat="42.709601" lon="-0.058894">
        <ele>2210.6</ele>
        <time>2014-08-17T04:11:15Z</time>
      </trkpt>
      <trkpt lat="42.709518" lon="-0.058943">
        <ele>2210.4</ele>
        <time>2014-08-17T04:11:22Z</time>
      </trkpt>
      <trkpt lat="42.709440" lon="-0.059031">
        <ele>2210.5</ele>
        <time>2014-08-17T04:11:30Z</time>
      </trkpt>
      <trkpt lat="42.709356" lon="-0.059115">
        <ele>2210.6</ele>
        <time>2014-08-17T04:11:38Z</time>
      </trkpt>
      <trkpt lat="42.709257" lon="-0.059177">
        <ele>2211.0</ele>
        <time>2014-08-17T04:11:46Z</time>
      </trkpt>
      <trkpt lat="42.709172" lon="-0.059224">
        <ele>2211.0</ele>
        <time>2014-08-17T04:11:53Z</time>
      </trkpt>
      <trkpt lat="42.709076" lon="-0.059315">
        <ele>2211.3</ele>
        <time>2014-08-17T04:12:02Z</time>
      </trkpt>
      <trkpt lat="42.709050" lon="-0.059351">
        <ele>2211.8</ele>
        <time>2014-08-17T04:12:50Z</time>
      </trkpt>
      <trkpt lat="42.708961" lon="-0.059424">
        <ele>2212.7</ele>
        <time>2014-08-17T04:13:03Z</time>
      </trkpt>
      <trkpt lat="42.708878" lon="-0.059489">
        <ele>2212.7</ele>
        <time>2014-08-17T04:13:12Z</time>
      </trkpt>
      <trkpt lat="42.708797" lon="-0.059582">
        <ele>2213.4</ele>
        <time>2014-08-17T04:13:21Z</time>
      </trkpt>
      <trkpt lat="42.708724" lon="-0.059667">
        <ele>2214.3</ele>
        <time>2014-08-17T04:13:29Z</time>
      </trkpt>
      <trkpt lat="42.708640" lon="-0.059743">
        <ele>2214.6</ele>
        <time>2014-08-17T04:13:37Z</time>
      </trkpt>
      <trkpt lat="42.708556" lon="-0.059822">
        <ele>2215.7</ele>
        <time>2014-08-17T04:13:46Z</time>
      </trkpt>
      <trkpt lat="42.708477" lon="-0.059898">
        <ele>2216.9</ele>
        <time>2014-08-17T04:13:55Z</time>
      </trkpt>
      <trkpt lat="42.708392" lon="-0.059967">
        <ele>2217.8</ele>
        <time>2014-08-17T04:14:04Z</time>
      </trkpt>
      <trkpt lat="42.708302" lon="-0.060014">
        <ele>2218.8</ele>
        <time>2014-08-17T04:14:13Z</time>
      </trkpt>
      <trkpt lat="42.708233" lon="-0.060095">
        <ele>2220.4</ele>
        <time>2014-08-17T04:14:22Z</time>
      </trkpt>
      <trkpt lat="42.708142" lon="-0.060158">
        <ele>2221.5</ele>
        <time>2014-08-17T04:14:32Z</time>
      </trkpt>
      <trkpt lat="42.708070" lon="-0.060245">
        <ele>2222.2</ele>
        <time>2014-08-17T04:14:41Z</time>
      </trkpt>
      <trkpt lat="42.707995" lon="-0.060340">
        <ele>2222.9</ele>
        <time>2014-08-17T04:14:50Z</time>
      </trkpt>
      <trkpt lat="42.707908" lon="-0.060460">
        <ele>2224.1</ele>
        <time>2014-08-17T04:15:00Z</time>
      </trkpt>
      <trkpt lat="42.707848" lon="-0.060550">
        <ele>2224.2</ele>
        <time>2014-08-17T04:15:09Z</time>
      </trkpt>
      <trkpt lat="42.707772" lon="-0.060632">
        <ele>2225.1</ele>
        <time>2014-08-17T04:15:19Z</time>
      </trkpt>
      <trkpt lat="42.707698" lon="-0.060706">
        <ele>2226.5</ele>
        <time>2014-08-17T04:15:28Z</time>
      </trkpt>
      <trkpt lat="42.707621" lon="-0.060781">
        <ele>2227.2</ele>
        <time>2014-08-17T04:15:37Z</time>
      </trkpt>
      <trkpt lat="42.707548" lon="-0.060854">
        <ele>2228.6</ele>
        <time>2014-08-17T04:15:46Z</time>
      </trkpt>
      <trkpt lat="42.707486" lon="-0.060930">
        <ele>2229.9</ele>
        <time>2014-08-17T04:15:55Z</time>
      </trkpt>
      <trkpt lat="42.707414" lon="-0.061013">
        <ele>2231.2</ele>
        <time>2014-08-17T04:16:04Z</time>
      </trkpt>
      <trkpt lat="42.707345" lon="-0.061109">
        <ele>2233.1</ele>
        <time>2014-08-17T04:16:13Z</time>
      </trkpt>
      <trkpt lat="42.707302" lon="-0.061210">
        <ele>2233.5</ele>
        <time>2014-08-17T04:16:22Z</time>
      </trkpt>
      <trkpt lat="42.707222" lon="-0.061318">
        <ele>2233.9</ele>
        <time>2014-08-17T04:16:31Z</time>
      </trkpt>
      <trkpt lat="42.707187" lon="-0.061443">
        <ele>2233.9</ele>
        <time>2014-08-17T04:16:40Z</time>
      </trkpt>
      <trkpt lat="42.707153" lon="-0.061572">
        <ele>2233.7</ele>
        <time>2014-08-17T04:16:50Z</time>
      </trkpt>
      <trkpt lat="42.707115" lon="-0.061698">
        <ele>2233.9</ele>
        <time>2014-08-17T04:16:59Z</time>
      </trkpt>
      <trkpt lat="42.707080" lon="-0.061846">
        <ele>2234.4</ele>
        <time>2014-08-17T04:17:08Z</time>
      </trkpt>
      <trkpt lat="42.707030" lon="-0.061947">
        <ele>2235.6</ele>
        <time>2014-08-17T04:17:18Z</time>
      </trkpt>
      <trkpt lat="42.706944" lon="-0.062022">
        <ele>2235.9</ele>
        <time>2014-08-17T04:17:27Z</time>
      </trkpt>
      <trkpt lat="42.706854" lon="-0.062119">
        <ele>2237.1</ele>
        <time>2014-08-17T04:17:37Z</time>
      </trkpt>
      <trkpt lat="42.706774" lon="-0.062169">
        <ele>2238.0</ele>
        <time>2014-08-17T04:17:46Z</time>
      </trkpt>
      <trkpt lat="42.706685" lon="-0.062240">
        <ele>2238.9</ele>
        <time>2014-08-17T04:17:57Z</time>
      </trkpt>
      <trkpt lat="42.706606" lon="-0.062315">
        <ele>2239.9</ele>
        <time>2014-08-17T04:18:06Z</time>
      </trkpt>
      <trkpt lat="42.706522" lon="-0.062404">
        <ele>2240.6</ele>
        <time>2014-08-17T04:18:17Z</time>
      </trkpt>
      <trkpt lat="42.706430" lon="-0.062473">
        <ele>2241.3</ele>
        <time>2014-08-17T04:18:26Z</time>
      </trkpt>
      <trkpt lat="42.706339" lon="-0.062543">
        <ele>2242.1</ele>
        <time>2014-08-17T04:18:36Z</time>
      </trkpt>
      <trkpt lat="42.706331" lon="-0.062588">
        <ele>2243.2</ele>
        <time>2014-08-17T04:19:28Z</time>
      </trkpt>
      <trkpt lat="42.706274" lon="-0.062649">
        <ele>2242.8</ele>
        <time>2014-08-17T04:19:47Z</time>
      </trkpt>
      <trkpt lat="42.706179" lon="-0.062714">
        <ele>2244.0</ele>
        <time>2014-08-17T04:20:02Z</time>
      </trkpt>
      <trkpt lat="42.706099" lon="-0.062780">
        <ele>2245.9</ele>
        <time>2014-08-17T04:20:13Z</time>
      </trkpt>
      <trkpt lat="42.706003" lon="-0.062857">
        <ele>2247.4</ele>
        <time>2014-08-17T04:20:24Z</time>
      </trkpt>
      <trkpt lat="42.705914" lon="-0.062927">
        <ele>2248.1</ele>
        <time>2014-08-17T04:20:34Z</time>
      </trkpt>
      <trkpt lat="42.705825" lon="-0.062980">
        <ele>2249.1</ele>
        <time>2014-08-17T04:20:44Z</time>
      </trkpt>
      <trkpt lat="42.705730" lon="-0.063041">
        <ele>2250.1</ele>
        <time>2014-08-17T04:20:55Z</time>
      </trkpt>
      <trkpt lat="42.705654" lon="-0.063106">
        <ele>2251.3</ele>
        <time>2014-08-17T04:21:05Z</time>
      </trkpt>
      <trkpt lat="42.705564" lon="-0.063141">
        <ele>2251.9</ele>
        <time>2014-08-17T04:21:15Z</time>
      </trkpt>
      <trkpt lat="42.705463" lon="-0.063180">
        <ele>2253.4</ele>
        <time>2014-08-17T04:21:26Z</time>
      </trkpt>
      <trkpt lat="42.705358" lon="-0.063220">
        <ele>2254.1</ele>
        <time>2014-08-17T04:21:36Z</time>
      </trkpt>
      <trkpt lat="42.705260" lon="-0.063266">
        <ele>2255.1</ele>
        <time>2014-08-17T04:21:47Z</time>
      </trkpt>
      <trkpt lat="42.705165" lon="-0.063307">
        <ele>2256.0</ele>
        <time>2014-08-17T04:21:57Z</time>
      </trkpt>
      <trkpt lat="42.705066" lon="-0.063313">
        <ele>2257.2</ele>
        <time>2014-08-17T04:22:08Z</time>
      </trkpt>
      <trkpt lat="42.704963" lon="-0.063375">
        <ele>2258.2</ele>
        <time>2014-08-17T04:22:18Z</time>
      </trkpt>
      <trkpt lat="42.704868" lon="-0.063432">
        <ele>2258.9</ele>
        <time>2014-08-17T04:22:28Z</time>
      </trkpt>
      <trkpt lat="42.704774" lon="-0.063454">
        <ele>2260.3</ele>
        <time>2014-08-17T04:22:38Z</time>
      </trkpt>
      <trkpt lat="42.704675" lon="-0.063467">
        <ele>2261.7</ele>
        <time>2014-08-17T04:22:50Z</time>
      </trkpt>
      <trkpt lat="42.704582" lon="-0.063501">
        <ele>2262.6</ele>
        <time>2014-08-17T04:23:00Z</time>
      </trkpt>
      <trkpt lat="42.704482" lon="-0.063524">
        <ele>2263.4</ele>
        <time>2014-08-17T04:23:10Z</time>
      </trkpt>
      <trkpt lat="42.704389" lon="-0.063532">
        <ele>2264.1</ele>
        <time>2014-08-17T04:23:20Z</time>
      </trkpt>
      <trkpt lat="42.704296" lon="-0.063545">
        <ele>2265.1</ele>
        <time>2014-08-17T04:23:30Z</time>
      </trkpt>
      <trkpt lat="42.704195" lon="-0.063570">
        <ele>2266.3</ele>
        <time>2014-08-17T04:23:40Z</time>
      </trkpt>
      <trkpt lat="42.704110" lon="-0.063642">
        <ele>2267.7</ele>
        <time>2014-08-17T04:23:52Z</time>
      </trkpt>
      <trkpt lat="42.704026" lon="-0.063728">
        <ele>2267.9</ele>
        <time>2014-08-17T04:24:01Z</time>
      </trkpt>
      <trkpt lat="42.703975" lon="-0.063855">
        <ele>2268.3</ele>
        <time>2014-08-17T04:24:12Z</time>
      </trkpt>
      <trkpt lat="42.703967" lon="-0.063987">
        <ele>2268.4</ele>
        <time>2014-08-17T04:24:22Z</time>
      </trkpt>
      <trkpt lat="42.703951" lon="-0.064103">
        <ele>2269.1</ele>
        <time>2014-08-17T04:24:32Z</time>
      </trkpt>
      <trkpt lat="42.703868" lon="-0.064190">
        <ele>2272.1</ele>
        <time>2014-08-17T04:28:32Z</time>
      </trkpt>
      <trkpt lat="42.703781" lon="-0.064186">
        <ele>2272.6</ele>
        <time>2014-08-17T04:28:48Z</time>
      </trkpt>
      <trkpt lat="42.703693" lon="-0.064131">
        <ele>2275.4</ele>
        <time>2014-08-17T04:29:18Z</time>
      </trkpt>
      <trkpt lat="42.703667" lon="-0.064002">
        <ele>2276.3</ele>
        <time>2014-08-17T04:29:31Z</time>
      </trkpt>
      <trkpt lat="42.703652" lon="-0.063877">
        <ele>2278.5</ele>
        <time>2014-08-17T04:29:43Z</time>
      </trkpt>
      <trkpt lat="42.703630" lon="-0.063731">
        <ele>2279.6</ele>
        <time>2014-08-17T04:29:55Z</time>
      </trkpt>
      <trkpt lat="42.703611" lon="-0.063603">
        <ele>2282.1</ele>
        <time>2014-08-17T04:30:07Z</time>
      </trkpt>
      <trkpt lat="42.703574" lon="-0.063475">
        <ele>2283.8</ele>
        <time>2014-08-17T04:30:19Z</time>
      </trkpt>
      <trkpt lat="42.703554" lon="-0.063355">
        <ele>2285.8</ele>
        <time>2014-08-17T04:30:32Z</time>
      </trkpt>
      <trkpt lat="42.703542" lon="-0.063230">
        <ele>2287.6</ele>
        <time>2014-08-17T04:30:45Z</time>
      </trkpt>
      <trkpt lat="42.703525" lon="-0.063101">
        <ele>2289.5</ele>
        <time>2014-08-17T04:30:58Z</time>
      </trkpt>
      <trkpt lat="42.703536" lon="-0.062984">
        <ele>2290.8</ele>
        <time>2014-08-17T04:31:09Z</time>
      </trkpt>
      <trkpt lat="42.703552" lon="-0.062862">
        <ele>2292.8</ele>
        <time>2014-08-17T04:31:22Z</time>
      </trkpt>
      <trkpt lat="42.703545" lon="-0.062733">
        <ele>2294.8</ele>
        <time>2014-08-17T04:31:38Z</time>
      </trkpt>
      <trkpt lat="42.703546" lon="-0.062599">
        <ele>2296.6</ele>
        <time>2014-08-17T04:31:52Z</time>
      </trkpt>
      <trkpt lat="42.703528" lon="-0.062469">
        <ele>2299.0</ele>
        <time>2014-08-17T04:32:06Z</time>
      </trkpt>
      <trkpt lat="42.703523" lon="-0.062338">
        <ele>2300.8</ele>
        <time>2014-08-17T04:32:20Z</time>
      </trkpt>
      <trkpt lat="42.703502" lon="-0.062227">
        <ele>2302.6</ele>
        <time>2014-08-17T04:32:32Z</time>
      </trkpt>
      <trkpt lat="42.703493" lon="-0.062106">
        <ele>2304.2</ele>
        <time>2014-08-17T04:32:45Z</time>
      </trkpt>
      <trkpt lat="42.703459" lon="-0.061985">
        <ele>2305.2</ele>
        <time>2014-08-17T04:32:56Z</time>
      </trkpt>
      <trkpt lat="42.703397" lon="-0.061894">
        <ele>2306.5</ele>
        <time>2014-08-17T04:33:09Z</time>
      </trkpt>
      <trkpt lat="42.703330" lon="-0.061820">
        <ele>2307.9</ele>
        <time>2014-08-17T04:33:22Z</time>
      </trkpt>
      <trkpt lat="42.703314" lon="-0.061702">
        <ele>2309.1</ele>
        <time>2014-08-17T04:33:33Z</time>
      </trkpt>
      <trkpt lat="42.703314" lon="-0.061574">
        <ele>2311.2</ele>
        <time>2014-08-17T04:33:44Z</time>
      </trkpt>
      <trkpt lat="42.703284" lon="-0.061455">
        <ele>2312.3</ele>
        <time>2014-08-17T04:33:56Z</time>
      </trkpt>
      <trkpt lat="42.703268" lon="-0.061328">
        <ele>2314.0</ele>
        <time>2014-08-17T04:34:10Z</time>
      </trkpt>
      <trkpt lat="42.703239" lon="-0.061183">
        <ele>2315.6</ele>
        <time>2014-08-17T04:34:23Z</time>
      </trkpt>
      <trkpt lat="42.703247" lon="-0.061059">
        <ele>2316.6</ele>
        <time>2014-08-17T04:34:34Z</time>
      </trkpt>
      <trkpt lat="42.703263" lon="-0.060935">
        <ele>2317.8</ele>
        <time>2014-08-17T04:34:45Z</time>
      </trkpt>
      <trkpt lat="42.703230" lon="-0.060821">
        <ele>2318.4</ele>
        <time>2014-08-17T04:35:01Z</time>
      </trkpt>
      <trkpt lat="42.703208" lon="-0.060702">
        <ele>2319.7</ele>
        <time>2014-08-17T04:35:11Z</time>
      </trkpt>
      <trkpt lat="42.703189" lon="-0.060574">
        <ele>2319.9</ele>
        <time>2014-08-17T04:35:20Z</time>
      </trkpt>
      <trkpt lat="42.703162" lon="-0.060439">
        <ele>2320.0</ele>
        <time>2014-08-17T04:35:30Z</time>
      </trkpt>
      <trkpt lat="42.703179" lon="-0.060304">
        <ele>2320.8</ele>
        <time>2014-08-17T04:35:40Z</time>
      </trkpt>
      <trkpt lat="42.703182" lon="-0.060157">
        <ele>2322.8</ele>
        <time>2014-08-17T04:35:50Z</time>
      </trkpt>
      <trkpt lat="42.703163" lon="-0.060028">
        <ele>2323.7</ele>
        <time>2014-08-17T04:35:59Z</time>
      </trkpt>
      <trkpt lat="42.703136" lon="-0.059909">
        <ele>2323.8</ele>
        <time>2014-08-17T04:36:07Z</time>
      </trkpt>
      <trkpt lat="42.703096" lon="-0.059787">
        <ele>2323.5</ele>
        <time>2014-08-17T04:36:15Z</time>
      </trkpt>
      <trkpt lat="42.703066" lon="-0.059653">
        <ele>2323.6</ele>
        <time>2014-08-17T04:36:24Z</time>
      </trkpt>
      <trkpt lat="42.703040" lon="-0.059527">
        <ele>2323.7</ele>
        <time>2014-08-17T04:36:33Z</time>
      </trkpt>
      <trkpt lat="42.703021" lon="-0.059406">
        <ele>2323.3</ele>
        <time>2014-08-17T04:36:42Z</time>
      </trkpt>
      <trkpt lat="42.702983" lon="-0.059289">
        <ele>2322.4</ele>
        <time>2014-08-17T04:36:51Z</time>
      </trkpt>
      <trkpt lat="42.702956" lon="-0.059162">
        <ele>2321.7</ele>
        <time>2014-08-17T04:37:00Z</time>
      </trkpt>
      <trkpt lat="42.702936" lon="-0.059034">
        <ele>2321.6</ele>
        <time>2014-08-17T04:37:09Z</time>
      </trkpt>
      <trkpt lat="42.702841" lon="-0.058956">
        <ele>2321.5</ele>
        <time>2014-08-17T04:37:18Z</time>
      </trkpt>
      <trkpt lat="42.702789" lon="-0.058859">
        <ele>2320.5</ele>
        <time>2014-08-17T04:37:27Z</time>
      </trkpt>
      <trkpt lat="42.702791" lon="-0.058715">
        <ele>2319.9</ele>
        <time>2014-08-17T04:37:37Z</time>
      </trkpt>
      <trkpt lat="42.702781" lon="-0.058582">
        <ele>2319.6</ele>
        <time>2014-08-17T04:37:46Z</time>
      </trkpt>
      <trkpt lat="42.702781" lon="-0.058450">
        <ele>2319.7</ele>
        <time>2014-08-17T04:37:55Z</time>
      </trkpt>
      <trkpt lat="42.702784" lon="-0.058320">
        <ele>2319.6</ele>
        <time>2014-08-17T04:38:04Z</time>
      </trkpt>
      <trkpt lat="42.702750" lon="-0.058199">
        <ele>2319.5</ele>
        <time>2014-08-17T04:38:14Z</time>
      </trkpt>
      <trkpt lat="42.702755" lon="-0.058052">
        <ele>2319.4</ele>
        <time>2014-08-17T04:38:23Z</time>
      </trkpt>
      <trkpt lat="42.702753" lon="-0.057914">
        <ele>2319.3</ele>
        <time>2014-08-17T04:38:32Z</time>
      </trkpt>
      <trkpt lat="42.702721" lon="-0.057790">
        <ele>2318.5</ele>
        <time>2014-08-17T04:38:41Z</time>
      </trkpt>
      <trkpt lat="42.702692" lon="-0.057675">
        <ele>2317.2</ele>
        <time>2014-08-17T04:38:50Z</time>
      </trkpt>
      <trkpt lat="42.702670" lon="-0.057567">
        <ele>2316.4</ele>
        <time>2014-08-17T04:38:59Z</time>
      </trkpt>
      <trkpt lat="42.702651" lon="-0.057425">
        <ele>2315.5</ele>
        <time>2014-08-17T04:39:09Z</time>
      </trkpt>
      <trkpt lat="42.702620" lon="-0.057305">
        <ele>2315.0</ele>
        <time>2014-08-17T04:39:19Z</time>
      </trkpt>
      <trkpt lat="42.702615" lon="-0.057171">
        <ele>2314.9</ele>
        <time>2014-08-17T04:39:30Z</time>
      </trkpt>
      <trkpt lat="42.702630" lon="-0.057033">
        <ele>2315.2</ele>
        <time>2014-08-17T04:39:43Z</time>
      </trkpt>
      <trkpt lat="42.702571" lon="-0.056911">
        <ele>2316.4</ele>
        <time>2014-08-17T04:39:55Z</time>
      </trkpt>
      <trkpt lat="42.702540" lon="-0.056752">
        <ele>2315.2</ele>
        <time>2014-08-17T04:40:08Z</time>
      </trkpt>
      <trkpt lat="42.702507" lon="-0.056629">
        <ele>2314.1</ele>
        <time>2014-08-17T04:40:21Z</time>
      </trkpt>
      <trkpt lat="42.702522" lon="-0.056487">
        <ele>2314.4</ele>
        <time>2014-08-17T04:40:31Z</time>
      </trkpt>
      <trkpt lat="42.702520" lon="-0.056364">
        <ele>2314.3</ele>
        <time>2014-08-17T04:40:40Z</time>
      </trkpt>
      <trkpt lat="42.702507" lon="-0.056243">
        <ele>2313.2</ele>
        <time>2014-08-17T04:40:49Z</time>
      </trkpt>
      <trkpt lat="42.702444" lon="-0.056148">
        <ele>2313.1</ele>
        <time>2014-08-17T04:40:58Z</time>
      </trkpt>
      <trkpt lat="42.702366" lon="-0.056068">
        <ele>2312.8</ele>
        <time>2014-08-17T04:41:07Z</time>
      </trkpt>
      <trkpt lat="42.702299" lon="-0.055951">
        <ele>2312.8</ele>
        <time>2014-08-17T04:41:16Z</time>
      </trkpt>
      <trkpt lat="42.702243" lon="-0.055852">
        <ele>2313.3</ele>
        <time>2014-08-17T04:41:24Z</time>
      </trkpt>
      <trkpt lat="42.702202" lon="-0.055733">
        <ele>2313.7</ele>
        <time>2014-08-17T04:41:33Z</time>
      </trkpt>
      <trkpt lat="42.702177" lon="-0.055612">
        <ele>2313.6</ele>
        <time>2014-08-17T04:41:42Z</time>
      </trkpt>
      <trkpt lat="42.702196" lon="-0.055496">
        <ele>2313.1</ele>
        <time>2014-08-17T04:41:51Z</time>
      </trkpt>
      <trkpt lat="42.702218" lon="-0.055374">
        <ele>2312.8</ele>
        <time>2014-08-17T04:42:01Z</time>
      </trkpt>
      <trkpt lat="42.702221" lon="-0.055244">
        <ele>2312.2</ele>
        <time>2014-08-17T04:42:10Z</time>
      </trkpt>
      <trkpt lat="42.702231" lon="-0.055114">
        <ele>2311.7</ele>
        <time>2014-08-17T04:42:20Z</time>
      </trkpt>
      <trkpt lat="42.702221" lon="-0.054985">
        <ele>2311.3</ele>
        <time>2014-08-17T04:42:29Z</time>
      </trkpt>
      <trkpt lat="42.702201" lon="-0.054863">
        <ele>2311.5</ele>
        <time>2014-08-17T04:42:40Z</time>
      </trkpt>
      <trkpt lat="42.702168" lon="-0.054746">
        <ele>2312.0</ele>
        <time>2014-08-17T04:42:51Z</time>
      </trkpt>
      <trkpt lat="42.702150" lon="-0.054608">
        <ele>2311.9</ele>
        <time>2014-08-17T04:43:03Z</time>
      </trkpt>
      <trkpt lat="42.702224" lon="-0.054494">
        <ele>2311.5</ele>
        <time>2014-08-17T04:43:14Z</time>
      </trkpt>
      <trkpt lat="42.702259" lon="-0.054376">
        <ele>2311.5</ele>
        <time>2014-08-17T04:43:24Z</time>
      </trkpt>
      <trkpt lat="42.702294" lon="-0.054243">
        <ele>2311.9</ele>
        <time>2014-08-17T04:43:34Z</time>
      </trkpt>
      <trkpt lat="42.702337" lon="-0.054125">
        <ele>2312.2</ele>
        <time>2014-08-17T04:43:44Z</time>
      </trkpt>
      <trkpt lat="42.702361" lon="-0.053987">
        <ele>2312.4</ele>
        <time>2014-08-17T04:43:54Z</time>
      </trkpt>
      <trkpt lat="42.702367" lon="-0.053860">
        <ele>2312.8</ele>
        <time>2014-08-17T04:44:03Z</time>
      </trkpt>
      <trkpt lat="42.702364" lon="-0.053725">
        <ele>2313.3</ele>
        <time>2014-08-17T04:44:13Z</time>
      </trkpt>
      <trkpt lat="42.702373" lon="-0.053603">
        <ele>2313.4</ele>
        <time>2014-08-17T04:44:23Z</time>
      </trkpt>
      <trkpt lat="42.702406" lon="-0.053476">
        <ele>2313.8</ele>
        <time>2014-08-17T04:44:33Z</time>
      </trkpt>
      <trkpt lat="42.702392" lon="-0.053356">
        <ele>2312.9</ele>
        <time>2014-08-17T04:44:43Z</time>
      </trkpt>
      <trkpt lat="42.702374" lon="-0.053222">
        <ele>2312.4</ele>
        <time>2014-08-17T04:44:53Z</time>
      </trkpt>
      <trkpt lat="42.702370" lon="-0.053074">
        <ele>2311.8</ele>
        <time>2014-08-17T04:45:03Z</time>
      </trkpt>
      <trkpt lat="42.702385" lon="-0.052944">
        <ele>2311.6</ele>
        <time>2014-08-17T04:45:12Z</time>
      </trkpt>
      <trkpt lat="42.702410" lon="-0.052823">
        <ele>2311.0</ele>
        <time>2014-08-17T04:45:21Z</time>
      </trkpt>
      <trkpt lat="42.702410" lon="-0.052697">
        <ele>2310.4</ele>
        <time>2014-08-17T04:45:30Z</time>
      </trkpt>
      <trkpt lat="42.702424" lon="-0.052566">
        <ele>2310.2</ele>
        <time>2014-08-17T04:45:39Z</time>
      </trkpt>
      <trkpt lat="42.702437" lon="-0.052441">
        <ele>2309.9</ele>
        <time>2014-08-17T04:45:48Z</time>
      </trkpt>
      <trkpt lat="42.702426" lon="-0.052309">
        <ele>2310.0</ele>
        <time>2014-08-17T04:45:58Z</time>
      </trkpt>
      <trkpt lat="42.702433" lon="-0.052158">
        <ele>2310.2</ele>
        <time>2014-08-17T04:46:08Z</time>
      </trkpt>
      <trkpt lat="42.702448" lon="-0.052033">
        <ele>2310.9</ele>
        <time>2014-08-17T04:46:18Z</time>
      </trkpt>
      <trkpt lat="42.702440" lon="-0.051892">
        <ele>2312.0</ele>
        <time>2014-08-17T04:46:28Z</time>
      </trkpt>
      <trkpt lat="42.702439" lon="-0.051757">
        <ele>2312.4</ele>
        <time>2014-08-17T04:46:37Z</time>
      </trkpt>
      <trkpt lat="42.702381" lon="-0.051645">
        <ele>2312.7</ele>
        <time>2014-08-17T04:46:47Z</time>
      </trkpt>
      <trkpt lat="42.702310" lon="-0.051547">
        <ele>2314.3</ele>
        <time>2014-08-17T04:47:01Z</time>
      </trkpt>
      <trkpt lat="42.702269" lon="-0.051428">
        <ele>2315.5</ele>
        <time>2014-08-17T04:47:15Z</time>
      </trkpt>
      <trkpt lat="42.702265" lon="-0.051282">
        <ele>2316.8</ele>
        <time>2014-08-17T04:47:29Z</time>
      </trkpt>
      <trkpt lat="42.702247" lon="-0.051138">
        <ele>2318.5</ele>
        <time>2014-08-17T04:47:43Z</time>
      </trkpt>
      <trkpt lat="42.702216" lon="-0.051020">
        <ele>2319.6</ele>
        <time>2014-08-17T04:47:54Z</time>
      </trkpt>
      <trkpt lat="42.702234" lon="-0.050902">
        <ele>2319.9</ele>
        <time>2014-08-17T04:48:04Z</time>
      </trkpt>
      <trkpt lat="42.702285" lon="-0.050788">
        <ele>2319.2</ele>
        <time>2014-08-17T04:48:15Z</time>
      </trkpt>
      <trkpt lat="42.702250" lon="-0.050672">
        <ele>2319.8</ele>
        <time>2014-08-17T04:48:45Z</time>
      </trkpt>
      <trkpt lat="42.702266" lon="-0.050677">
        <ele>2320.0</ele>
        <time>2014-08-17T04:51:54Z</time>
      </trkpt>
      <trkpt lat="42.702224" lon="-0.050628">
        <ele>2319.6</ele>
        <time>2014-08-17T04:53:37Z</time>
      </trkpt>
      <trkpt lat="42.702187" lon="-0.050511">
        <ele>2320.6</ele>
        <time>2014-08-17T04:53:54Z</time>
      </trkpt>
      <trkpt lat="42.702147" lon="-0.050389">
        <ele>2322.5</ele>
        <time>2014-08-17T04:54:08Z</time>
      </trkpt>
      <trkpt lat="42.702102" lon="-0.050246">
        <ele>2323.7</ele>
        <time>2014-08-17T04:54:22Z</time>
      </trkpt>
      <trkpt lat="42.702031" lon="-0.050137">
        <ele>2326.9</ele>
        <time>2014-08-17T04:54:38Z</time>
      </trkpt>
      <trkpt lat="42.702029" lon="-0.050008">
        <ele>2328.1</ele>
        <time>2014-08-17T04:54:51Z</time>
      </trkpt>
      <trkpt lat="42.702023" lon="-0.049885">
        <ele>2330.7</ele>
        <time>2014-08-17T04:55:07Z</time>
      </trkpt>
      <trkpt lat="42.702080" lon="-0.049774">
        <ele>2331.5</ele>
        <time>2014-08-17T04:55:20Z</time>
      </trkpt>
      <trkpt lat="42.702106" lon="-0.049648">
        <ele>2331.9</ele>
        <time>2014-08-17T04:55:33Z</time>
      </trkpt>
      <trkpt lat="42.702079" lon="-0.049520">
        <ele>2332.9</ele>
        <time>2014-08-17T04:55:45Z</time>
      </trkpt>
      <trkpt lat="42.702029" lon="-0.049415">
        <ele>2335.5</ele>
        <time>2014-08-17T04:56:02Z</time>
      </trkpt>
      <trkpt lat="42.702013" lon="-0.049297">
        <ele>2337.9</ele>
        <time>2014-08-17T04:56:20Z</time>
      </trkpt>
      <trkpt lat="42.702053" lon="-0.049157">
        <ele>2340.2</ele>
        <time>2014-08-17T04:56:36Z</time>
      </trkpt>
      <trkpt lat="42.702049" lon="-0.049013">
        <ele>2342.6</ele>
        <time>2014-08-17T04:56:51Z</time>
      </trkpt>
      <trkpt lat="42.702057" lon="-0.048888">
        <ele>2343.9</ele>
        <time>2014-08-17T04:57:06Z</time>
      </trkpt>
      <trkpt lat="42.702094" lon="-0.048805">
        <ele>2343.8</ele>
        <time>2014-08-17T04:57:18Z</time>
      </trkpt>
      <trkpt lat="42.702087" lon="-0.048659">
        <ele>2346.3</ele>
        <time>2014-08-17T04:57:36Z</time>
      </trkpt>
      <trkpt lat="42.702019" lon="-0.048566">
        <ele>2347.4</ele>
        <time>2014-08-17T04:57:49Z</time>
      </trkpt>
      <trkpt lat="42.701946" lon="-0.048471">
        <ele>2347.0</ele>
        <time>2014-08-17T04:58:01Z</time>
      </trkpt>
      <trkpt lat="42.701997" lon="-0.048362">
        <ele>2346.9</ele>
        <time>2014-08-17T04:58:10Z</time>
      </trkpt>
      <trkpt lat="42.702047" lon="-0.048240">
        <ele>2346.7</ele>
        <time>2014-08-17T04:58:20Z</time>
      </trkpt>
      <trkpt lat="42.702065" lon="-0.048106">
        <ele>2347.0</ele>
        <time>2014-08-17T04:58:30Z</time>
      </trkpt>
      <trkpt lat="42.702076" lon="-0.047978">
        <ele>2347.3</ele>
        <time>2014-08-17T04:58:40Z</time>
      </trkpt>
      <trkpt lat="42.702065" lon="-0.047836">
        <ele>2348.6</ele>
        <time>2014-08-17T04:58:54Z</time>
      </trkpt>
      <trkpt lat="42.702090" lon="-0.047705">
        <ele>2349.4</ele>
        <time>2014-08-17T04:59:05Z</time>
      </trkpt>
      <trkpt lat="42.701998" lon="-0.047647">
        <ele>2350.3</ele>
        <time>2014-08-17T04:59:18Z</time>
      </trkpt>
      <trkpt lat="42.701908" lon="-0.047606">
        <ele>2351.5</ele>
        <time>2014-08-17T04:59:29Z</time>
      </trkpt>
      <trkpt lat="42.701839" lon="-0.047548">
        <ele>2352.3</ele>
        <time>2014-08-17T04:59:41Z</time>
      </trkpt>
      <trkpt lat="42.701797" lon="-0.047428">
        <ele>2353.7</ele>
        <time>2014-08-17T04:59:53Z</time>
      </trkpt>
      <trkpt lat="42.701746" lon="-0.047303">
        <ele>2353.9</ele>
        <time>2014-08-17T05:00:04Z</time>
      </trkpt>
      <trkpt lat="42.701690" lon="-0.047203">
        <ele>2354.9</ele>
        <time>2014-08-17T05:00:16Z</time>
      </trkpt>
      <trkpt lat="42.701633" lon="-0.047107">
        <ele>2357.8</ele>
        <time>2014-08-17T05:00:31Z</time>
      </trkpt>
      <trkpt lat="42.701600" lon="-0.046978">
        <ele>2358.9</ele>
        <time>2014-08-17T05:00:44Z</time>
      </trkpt>
      <trkpt lat="42.701584" lon="-0.046855">
        <ele>2358.9</ele>
        <time>2014-08-17T05:00:56Z</time>
      </trkpt>
      <trkpt lat="42.701538" lon="-0.046737">
        <ele>2360.4</ele>
        <time>2014-08-17T05:01:13Z</time>
      </trkpt>
      <trkpt lat="42.701496" lon="-0.046615">
        <ele>2361.8</ele>
        <time>2014-08-17T05:01:26Z</time>
      </trkpt>
      <trkpt lat="42.701457" lon="-0.046492">
        <ele>2363.7</ele>
        <time>2014-08-17T05:01:43Z</time>
      </trkpt>
      <trkpt lat="42.701439" lon="-0.046352">
        <ele>2365.7</ele>
        <time>2014-08-17T05:01:58Z</time>
      </trkpt>
      <trkpt lat="42.701417" lon="-0.046235">
        <ele>2367.0</ele>
        <time>2014-08-17T05:02:12Z</time>
      </trkpt>
      <trkpt lat="42.701430" lon="-0.046104">
        <ele>2367.9</ele>
        <time>2014-08-17T05:02:25Z</time>
      </trkpt>
      <trkpt lat="42.701458" lon="-0.045972">
        <ele>2368.6</ele>
        <time>2014-08-17T05:02:39Z</time>
      </trkpt>
      <trkpt lat="42.701474" lon="-0.045825">
        <ele>2369.1</ele>
        <time>2014-08-17T05:02:52Z</time>
      </trkpt>
      <trkpt lat="42.701471" lon="-0.045699">
        <ele>2369.5</ele>
        <time>2014-08-17T05:03:04Z</time>
      </trkpt>
      <trkpt lat="42.701427" lon="-0.045604">
        <ele>2369.9</ele>
        <time>2014-08-17T05:03:24Z</time>
      </trkpt>
      <trkpt lat="42.701371" lon="-0.045501">
        <ele>2370.2</ele>
        <time>2014-08-17T05:03:44Z</time>
      </trkpt>
      <trkpt lat="42.701360" lon="-0.045370">
        <ele>2370.7</ele>
        <time>2014-08-17T05:03:56Z</time>
      </trkpt>
      <trkpt lat="42.701331" lon="-0.045231">
        <ele>2371.9</ele>
        <time>2014-08-17T05:04:10Z</time>
      </trkpt>
      <trkpt lat="42.701309" lon="-0.045091">
        <ele>2373.2</ele>
        <time>2014-08-17T05:04:23Z</time>
      </trkpt>
      <trkpt lat="42.701302" lon="-0.044934">
        <ele>2374.2</ele>
        <time>2014-08-17T05:04:36Z</time>
      </trkpt>
      <trkpt lat="42.701330" lon="-0.044772">
        <ele>2375.3</ele>
        <time>2014-08-17T05:04:50Z</time>
      </trkpt>
      <trkpt lat="42.701337" lon="-0.044635">
        <ele>2375.9</ele>
        <time>2014-08-17T05:05:01Z</time>
      </trkpt>
      <trkpt lat="42.701316" lon="-0.044494">
        <ele>2377.0</ele>
        <time>2014-08-17T05:05:13Z</time>
      </trkpt>
      <trkpt lat="42.701284" lon="-0.044374">
        <ele>2377.7</ele>
        <time>2014-08-17T05:05:25Z</time>
      </trkpt>
      <trkpt lat="42.701274" lon="-0.044232">
        <ele>2377.8</ele>
        <time>2014-08-17T05:05:35Z</time>
      </trkpt>
      <trkpt lat="42.701239" lon="-0.044120">
        <ele>2378.0</ele>
        <time>2014-08-17T05:05:45Z</time>
      </trkpt>
      <trkpt lat="42.701213" lon="-0.044009">
        <ele>2378.0</ele>
        <time>2014-08-17T05:05:54Z</time>
      </trkpt>
      <trkpt lat="42.701170" lon="-0.043895">
        <ele>2378.1</ele>
        <time>2014-08-17T05:06:04Z</time>
      </trkpt>
      <trkpt lat="42.701114" lon="-0.043800">
        <ele>2378.3</ele>
        <time>2014-08-17T05:06:19Z</time>
      </trkpt>
      <trkpt lat="42.701065" lon="-0.043668">
        <ele>2378.8</ele>
        <time>2014-08-17T05:06:31Z</time>
      </trkpt>
      <trkpt lat="42.701055" lon="-0.043512">
        <ele>2378.8</ele>
        <time>2014-08-17T05:06:44Z</time>
      </trkpt>
      <trkpt lat="42.701059" lon="-0.043368">
        <ele>2378.4</ele>
        <time>2014-08-17T05:06:56Z</time>
      </trkpt>
      <trkpt lat="42.701033" lon="-0.043232">
        <ele>2377.7</ele>
        <time>2014-08-17T05:07:08Z</time>
      </trkpt>
      <trkpt lat="42.700996" lon="-0.043101">
        <ele>2378.0</ele>
        <time>2014-08-17T05:07:20Z</time>
      </trkpt>
      <trkpt lat="42.700948" lon="-0.042974">
        <ele>2378.1</ele>
        <time>2014-08-17T05:07:31Z</time>
      </trkpt>
      <trkpt lat="42.700931" lon="-0.042851">
        <ele>2378.5</ele>
        <time>2014-08-17T05:07:40Z</time>
      </trkpt>
      <trkpt lat="42.700897" lon="-0.042744">
        <ele>2377.9</ele>
        <time>2014-08-17T05:07:50Z</time>
      </trkpt>
      <trkpt lat="42.700832" lon="-0.042628">
        <ele>2377.0</ele>
        <time>2014-08-17T05:08:01Z</time>
      </trkpt>
      <trkpt lat="42.700764" lon="-0.042509">
        <ele>2376.4</ele>
        <time>2014-08-17T05:08:12Z</time>
      </trkpt>
      <trkpt lat="42.700743" lon="-0.042381">
        <ele>2376.2</ele>
        <time>2014-08-17T05:08:23Z</time>
      </trkpt>
      <trkpt lat="42.700719" lon="-0.042244">
        <ele>2375.4</ele>
        <time>2014-08-17T05:08:34Z</time>
      </trkpt>
      <trkpt lat="42.700725" lon="-0.042115">
        <ele>2375.5</ele>
        <time>2014-08-17T05:08:45Z</time>
      </trkpt>
      <trkpt lat="42.700719" lon="-0.041976">
        <ele>2375.9</ele>
        <time>2014-08-17T05:08:58Z</time>
      </trkpt>
      <trkpt lat="42.700693" lon="-0.041844">
        <ele>2375.8</ele>
        <time>2014-08-17T05:09:10Z</time>
      </trkpt>
      <trkpt lat="42.700670" lon="-0.041706">
        <ele>2375.8</ele>
        <time>2014-08-17T05:09:23Z</time>
      </trkpt>
      <trkpt lat="42.700706" lon="-0.041577">
        <ele>2375.4</ele>
        <time>2014-08-17T05:09:36Z</time>
      </trkpt>
      <trkpt lat="42.700737" lon="-0.041460">
        <ele>2375.0</ele>
        <time>2014-08-17T05:09:47Z</time>
      </trkpt>
      <trkpt lat="42.700748" lon="-0.041330">
        <ele>2375.6</ele>
        <time>2014-08-17T05:09:58Z</time>
      </trkpt>
      <trkpt lat="42.700775" lon="-0.041206">
        <ele>2375.9</ele>
        <time>2014-08-17T05:10:10Z</time>
      </trkpt>
      <trkpt lat="42.700800" lon="-0.041085">
        <ele>2375.9</ele>
        <time>2014-08-17T05:10:23Z</time>
      </trkpt>
      <trkpt lat="42.700811" lon="-0.040953">
        <ele>2375.4</ele>
        <time>2014-08-17T05:10:37Z</time>
      </trkpt>
      <trkpt lat="42.700812" lon="-0.040797">
        <ele>2375.2</ele>
        <time>2014-08-17T05:10:51Z</time>
      </trkpt>
      <trkpt lat="42.700824" lon="-0.040658">
        <ele>2375.7</ele>
        <time>2014-08-17T05:11:04Z</time>
      </trkpt>
      <trkpt lat="42.700833" lon="-0.040529">
        <ele>2375.6</ele>
        <time>2014-08-17T05:11:18Z</time>
      </trkpt>
      <trkpt lat="42.700823" lon="-0.040393">
        <ele>2375.6</ele>
        <time>2014-08-17T05:11:32Z</time>
      </trkpt>
      <trkpt lat="42.700795" lon="-0.040246">
        <ele>2377.0</ele>
        <time>2014-08-17T05:11:50Z</time>
      </trkpt>
      <trkpt lat="42.700747" lon="-0.040114">
        <ele>2378.6</ele>
        <time>2014-08-17T05:12:06Z</time>
      </trkpt>
      <trkpt lat="42.700730" lon="-0.039980">
        <ele>2378.9</ele>
        <time>2014-08-17T05:12:21Z</time>
      </trkpt>
      <trkpt lat="42.700685" lon="-0.039865">
        <ele>2378.8</ele>
        <time>2014-08-17T05:12:35Z</time>
      </trkpt>
      <trkpt lat="42.700660" lon="-0.039748">
        <ele>2379.4</ele>
        <time>2014-08-17T05:12:47Z</time>
      </trkpt>
      <trkpt lat="42.700634" lon="-0.039620">
        <ele>2379.2</ele>
        <time>2014-08-17T05:12:59Z</time>
      </trkpt>
      <trkpt lat="42.700624" lon="-0.039485">
        <ele>2379.7</ele>
        <time>2014-08-17T05:13:11Z</time>
      </trkpt>
      <trkpt lat="42.700591" lon="-0.039337">
        <ele>2380.5</ele>
        <time>2014-08-17T05:13:26Z</time>
      </trkpt>
      <trkpt lat="42.700581" lon="-0.039194">
        <ele>2380.3</ele>
        <time>2014-08-17T05:13:39Z</time>
      </trkpt>
      <trkpt lat="42.700535" lon="-0.039058">
        <ele>2380.5</ele>
        <time>2014-08-17T05:13:53Z</time>
      </trkpt>
      <trkpt lat="42.700534" lon="-0.039046">
        <ele>2381.8</ele>
        <time>2014-08-17T05:15:52Z</time>
      </trkpt>
      <trkpt lat="42.700529" lon="-0.039018">
        <ele>2382.3</ele>
        <time>2014-08-17T05:18:28Z</time>
      </trkpt>
      <trkpt lat="42.700556" lon="-0.038890">
        <ele>2384.6</ele>
        <time>2014-08-17T05:18:45Z</time>
      </trkpt>
      <trkpt lat="42.700554" lon="-0.038761">
        <ele>2387.8</ele>
        <time>2014-08-17T05:19:05Z</time>
      </trkpt>
      <trkpt lat="42.700544" lon="-0.038629">
        <ele>2390.6</ele>
        <time>2014-08-17T05:19:22Z</time>
      </trkpt>
      <trkpt lat="42.700546" lon="-0.038511">
        <ele>2393.8</ele>
        <time>2014-08-17T05:19:39Z</time>
      </trkpt>
      <trkpt lat="42.700535" lon="-0.038410">
        <ele>2396.4</ele>
        <time>2014-08-17T05:21:54Z</time>
      </trkpt>
      <trkpt lat="42.700511" lon="-0.038282">
        <ele>2399.6</ele>
        <time>2014-08-17T05:22:11Z</time>
      </trkpt>
      <trkpt lat="42.700497" lon="-0.038153">
        <ele>2402.2</ele>
        <time>2014-08-17T05:22:28Z</time>
      </trkpt>
      <trkpt lat="42.700436" lon="-0.038101">
        <ele>2404.7</ele>
        <time>2014-08-17T05:22:44Z</time>
      </trkpt>
      <trkpt lat="42.700336" lon="-0.038118">
        <ele>2408.1</ele>
        <time>2014-08-17T05:23:07Z</time>
      </trkpt>
      <trkpt lat="42.700228" lon="-0.038070">
        <ele>2411.1</ele>
        <time>2014-08-17T05:23:24Z</time>
      </trkpt>
      <trkpt lat="42.700161" lon="-0.037968">
        <ele>2413.0</ele>
        <time>2014-08-17T05:23:39Z</time>
      </trkpt>
      <trkpt lat="42.700075" lon="-0.037913">
        <ele>2414.4</ele>
        <time>2014-08-17T05:23:53Z</time>
      </trkpt>
      <trkpt lat="42.699986" lon="-0.037868">
        <ele>2416.4</ele>
        <time>2014-08-17T05:24:11Z</time>
      </trkpt>
      <trkpt lat="42.699903" lon="-0.037812">
        <ele>2418.8</ele>
        <time>2014-08-17T05:24:48Z</time>
      </trkpt>
      <trkpt lat="42.699807" lon="-0.037843">
        <ele>2421.9</ele>
        <time>2014-08-17T05:25:07Z</time>
      </trkpt>
      <trkpt lat="42.699731" lon="-0.037831">
        <ele>2423.8</ele>
        <time>2014-08-17T05:25:25Z</time>
      </trkpt>
      <trkpt lat="42.699698" lon="-0.037874">
        <ele>2427.1</ele>
        <time>2014-08-17T05:25:47Z</time>
      </trkpt>
      <trkpt lat="42.699604" lon="-0.037869">
        <ele>2431.1</ele>
        <time>2014-08-17T05:26:09Z</time>
      </trkpt>
      <trkpt lat="42.699523" lon="-0.037843">
        <ele>2434.0</ele>
        <time>2014-08-17T05:26:28Z</time>
      </trkpt>
      <trkpt lat="42.699450" lon="-0.037776">
        <ele>2436.0</ele>
        <time>2014-08-17T05:26:42Z</time>
      </trkpt>
      <trkpt lat="42.699406" lon="-0.037667">
        <ele>2437.9</ele>
        <time>2014-08-17T05:26:58Z</time>
      </trkpt>
      <trkpt lat="42.699372" lon="-0.037551">
        <ele>2440.1</ele>
        <time>2014-08-17T05:27:17Z</time>
      </trkpt>
      <trkpt lat="42.699356" lon="-0.037418">
        <ele>2442.4</ele>
        <time>2014-08-17T05:27:45Z</time>
      </trkpt>
      <trkpt lat="42.699290" lon="-0.037358">
        <ele>2446.8</ele>
        <time>2014-08-17T05:28:15Z</time>
      </trkpt>
      <trkpt lat="42.699246" lon="-0.037278">
        <ele>2449.5</ele>
        <time>2014-08-17T05:28:37Z</time>
      </trkpt>
      <trkpt lat="42.699266" lon="-0.037236">
        <ele>2450.8</ele>
        <time>2014-08-17T05:29:33Z</time>
      </trkpt>
      <trkpt lat="42.699272" lon="-0.037227">
        <ele>2449.9</ele>
        <time>2014-08-17T05:30:43Z</time>
      </trkpt>
      <trkpt lat="42.699232" lon="-0.037159">
        <ele>2453.5</ele>
        <time>2014-08-17T05:32:14Z</time>
      </trkpt>
      <trkpt lat="42.699250" lon="-0.037106">
        <ele>2455.7</ele>
        <time>2014-08-17T05:38:46Z</time>
      </trkpt>
      <trkpt lat="42.699199" lon="-0.036995">
        <ele>2457.4</ele>
        <time>2014-08-17T05:39:20Z</time>
      </trkpt>
      <trkpt lat="42.699192" lon="-0.036917">
        <ele>2457.9</ele>
        <time>2014-08-17T05:39:54Z</time>
      </trkpt>
      <trkpt lat="42.699169" lon="-0.036797">
        <ele>2460.5</ele>
        <time>2014-08-17T05:40:31Z</time>
      </trkpt>
      <trkpt lat="42.699186" lon="-0.036665">
        <ele>2462.3</ele>
        <time>2014-08-17T05:41:00Z</time>
      </trkpt>
      <trkpt lat="42.699103" lon="-0.036568">
        <ele>2467.2</ele>
        <time>2014-08-17T05:41:46Z</time>
      </trkpt>
      <trkpt lat="42.699089" lon="-0.036490">
        <ele>2470.9</ele>
        <time>2014-08-17T05:42:08Z</time>
      </trkpt>
      <trkpt lat="42.698998" lon="-0.036558">
        <ele>2473.9</ele>
        <time>2014-08-17T05:42:27Z</time>
      </trkpt>
      <trkpt lat="42.698978" lon="-0.036443">
        <ele>2476.8</ele>
        <time>2014-08-17T05:42:49Z</time>
      </trkpt>
      <trkpt lat="42.698977" lon="-0.036333">
        <ele>2481.0</ele>
        <time>2014-08-17T05:43:12Z</time>
      </trkpt>
      <trkpt lat="42.698955" lon="-0.036227">
        <ele>2484.1</ele>
        <time>2014-08-17T05:43:33Z</time>
      </trkpt>
      <trkpt lat="42.698939" lon="-0.036112">
        <ele>2487.5</ele>
        <time>2014-08-17T05:43:53Z</time>
      </trkpt>
      <trkpt lat="42.698873" lon="-0.036073">
        <ele>2494.3</ele>
        <time>2014-08-17T05:46:00Z</time>
      </trkpt>
      <trkpt lat="42.698846" lon="-0.035970">
        <ele>2498.3</ele>
        <time>2014-08-17T05:46:19Z</time>
      </trkpt>
      <trkpt lat="42.698739" lon="-0.036034">
        <ele>2501.3</ele>
        <time>2014-08-17T05:46:37Z</time>
      </trkpt>
      <trkpt lat="42.698712" lon="-0.036017">
        <ele>2503.9</ele>
        <time>2014-08-17T05:46:57Z</time>
      </trkpt>
      <trkpt lat="42.698667" lon="-0.035930">
        <ele>2508.1</ele>
        <time>2014-08-17T05:47:27Z</time>
      </trkpt>
      <trkpt lat="42.698581" lon="-0.035899">
        <ele>2511.2</ele>
        <time>2014-08-17T05:47:46Z</time>
      </trkpt>
      <trkpt lat="42.698496" lon="-0.035806">
        <ele>2520.4</ele>
        <time>2014-08-17T05:48:56Z</time>
      </trkpt>
      <trkpt lat="42.698381" lon="-0.035795">
        <ele>2523.1</ele>
        <time>2014-08-17T05:49:18Z</time>
      </trkpt>
      <trkpt lat="42.698275" lon="-0.035808">
        <ele>2524.5</ele>
        <time>2014-08-17T05:49:33Z</time>
      </trkpt>
      <trkpt lat="42.698184" lon="-0.035804">
        <ele>2525.6</ele>
        <time>2014-08-17T05:49:54Z</time>
      </trkpt>
      <trkpt lat="42.698087" lon="-0.035826">
        <ele>2526.5</ele>
        <time>2014-08-17T05:50:16Z</time>
      </trkpt>
      <trkpt lat="42.697975" lon="-0.035842">
        <ele>2528.1</ele>
        <time>2014-08-17T05:50:34Z</time>
      </trkpt>
      <trkpt lat="42.697917" lon="-0.035929">
        <ele>2529.2</ele>
        <time>2014-08-17T05:50:53Z</time>
      </trkpt>
      <trkpt lat="42.697846" lon="-0.035945">
        <ele>2530.1</ele>
        <time>2014-08-17T05:51:09Z</time>
      </trkpt>
      <trkpt lat="42.697819" lon="-0.035828">
        <ele>2532.5</ele>
        <time>2014-08-17T05:51:28Z</time>
      </trkpt>
      <trkpt lat="42.697722" lon="-0.035907">
        <ele>2535.0</ele>
        <time>2014-08-17T05:51:46Z</time>
      </trkpt>
      <trkpt lat="42.697679" lon="-0.035808">
        <ele>2537.0</ele>
        <time>2014-08-17T05:52:03Z</time>
      </trkpt>
      <trkpt lat="42.697649" lon="-0.035680">
        <ele>2539.1</ele>
        <time>2014-08-17T05:52:21Z</time>
      </trkpt>
      <trkpt lat="42.697559" lon="-0.035636">
        <ele>2541.9</ele>
        <time>2014-08-17T05:52:39Z</time>
      </trkpt>
      <trkpt lat="42.697472" lon="-0.035545">
        <ele>2546.1</ele>
        <time>2014-08-17T05:53:00Z</time>
      </trkpt>
      <trkpt lat="42.697498" lon="-0.035475">
        <ele>2549.6</ele>
        <time>2014-08-17T05:53:19Z</time>
      </trkpt>
      <trkpt lat="42.697531" lon="-0.035355">
        <ele>2553.1</ele>
        <time>2014-08-17T05:53:41Z</time>
      </trkpt>
      <trkpt lat="42.697541" lon="-0.035269">
        <ele>2557.8</ele>
        <time>2014-08-17T05:54:08Z</time>
      </trkpt>
      <trkpt lat="42.697596" lon="-0.035172">
        <ele>2560.5</ele>
        <time>2014-08-17T05:54:26Z</time>
      </trkpt>
      <trkpt lat="42.697586" lon="-0.035069">
        <ele>2561.7</ele>
        <time>2014-08-17T05:54:59Z</time>
      </trkpt>
      <trkpt lat="42.697511" lon="-0.034976">
        <ele>2565.6</ele>
        <time>2014-08-17T05:55:24Z</time>
      </trkpt>
      <trkpt lat="42.697416" lon="-0.034952">
        <ele>2567.9</ele>
        <time>2014-08-17T05:55:46Z</time>
      </trkpt>
      <trkpt lat="42.697317" lon="-0.034830">
        <ele>2574.6</ele>
        <time>2014-08-17T06:05:01Z</time>
      </trkpt>
      <trkpt lat="42.697314" lon="-0.034834">
        <ele>2574.8</ele>
        <time>2014-08-17T06:05:55Z</time>
      </trkpt>
      <trkpt lat="42.697210" lon="-0.034803">
        <ele>2574.8</ele>
        <time>2014-08-17T06:06:12Z</time>
      </trkpt>
      <trkpt lat="42.697106" lon="-0.034761">
        <ele>2575.0</ele>
        <time>2014-08-17T06:06:26Z</time>
      </trkpt>
      <trkpt lat="42.696993" lon="-0.034716">
        <ele>2575.3</ele>
        <time>2014-08-17T06:06:38Z</time>
      </trkpt>
      <trkpt lat="42.696893" lon="-0.034703">
        <ele>2576.1</ele>
        <time>2014-08-17T06:06:50Z</time>
      </trkpt>
      <trkpt lat="42.696833" lon="-0.034607">
        <ele>2575.4</ele>
        <time>2014-08-17T06:07:00Z</time>
      </trkpt>
      <trkpt lat="42.696815" lon="-0.034469">
        <ele>2574.2</ele>
        <time>2014-08-17T06:07:11Z</time>
      </trkpt>
      <trkpt lat="42.696794" lon="-0.034337">
        <ele>2572.0</ele>
        <time>2014-08-17T06:07:26Z</time>
      </trkpt>
      <trkpt lat="42.696754" lon="-0.034232">
        <ele>2568.0</ele>
        <time>2014-08-17T06:07:51Z</time>
      </trkpt>
      <trkpt lat="42.696719" lon="-0.034107">
        <ele>2565.5</ele>
        <time>2014-08-17T06:08:04Z</time>
      </trkpt>
      <trkpt lat="42.696703" lon="-0.033979">
        <ele>2563.7</ele>
        <time>2014-08-17T06:08:16Z</time>
      </trkpt>
      <trkpt lat="42.696648" lon="-0.033869">
        <ele>2562.2</ele>
        <time>2014-08-17T06:08:26Z</time>
      </trkpt>
      <trkpt lat="42.696547" lon="-0.033828">
        <ele>2562.6</ele>
        <time>2014-08-17T06:08:40Z</time>
      </trkpt>
      <trkpt lat="42.696465" lon="-0.033762">
        <ele>2563.4</ele>
        <time>2014-08-17T06:08:53Z</time>
      </trkpt>
      <trkpt lat="42.696367" lon="-0.033676">
        <ele>2564.9</ele>
        <time>2014-08-17T06:09:08Z</time>
      </trkpt>
      <trkpt lat="42.696256" lon="-0.033627">
        <ele>2566.4</ele>
        <time>2014-08-17T06:09:24Z</time>
      </trkpt>
      <trkpt lat="42.696163" lon="-0.033572">
        <ele>2567.0</ele>
        <time>2014-08-17T06:09:36Z</time>
      </trkpt>
      <trkpt lat="42.696075" lon="-0.033511">
        <ele>2567.2</ele>
        <time>2014-08-17T06:09:48Z</time>
      </trkpt>
      <trkpt lat="42.695980" lon="-0.033477">
        <ele>2568.9</ele>
        <time>2014-08-17T06:10:07Z</time>
      </trkpt>
      <trkpt lat="42.695891" lon="-0.033422">
        <ele>2570.4</ele>
        <time>2014-08-17T06:10:21Z</time>
      </trkpt>
      <trkpt lat="42.695860" lon="-0.033424">
        <ele>2571.3</ele>
        <time>2014-08-17T06:19:17Z</time>
      </trkpt>
      <trkpt lat="42.695767" lon="-0.033456">
        <ele>2570.2</ele>
        <time>2014-08-17T06:19:31Z</time>
      </trkpt>
      <trkpt lat="42.695674" lon="-0.033503">
        <ele>2570.3</ele>
        <time>2014-08-17T06:19:42Z</time>
      </trkpt>
      <trkpt lat="42.695583" lon="-0.033548">
        <ele>2571.3</ele>
        <time>2014-08-17T06:19:57Z</time>
      </trkpt>
      <trkpt lat="42.695487" lon="-0.033536">
        <ele>2574.3</ele>
        <time>2014-08-17T06:20:15Z</time>
      </trkpt>
      <trkpt lat="42.695399" lon="-0.033544">
        <ele>2576.4</ele>
        <time>2014-08-17T06:20:32Z</time>
      </trkpt>
      <trkpt lat="42.695313" lon="-0.033487">
        <ele>2578.2</ele>
        <time>2014-08-17T06:20:46Z</time>
      </trkpt>
      <trkpt lat="42.695211" lon="-0.033464">
        <ele>2580.4</ele>
        <time>2014-08-17T06:21:03Z</time>
      </trkpt>
      <trkpt lat="42.695088" lon="-0.033481">
        <ele>2583.4</ele>
        <time>2014-08-17T06:21:22Z</time>
      </trkpt>
      <trkpt lat="42.695001" lon="-0.033509">
        <ele>2585.8</ele>
        <time>2014-08-17T06:21:37Z</time>
      </trkpt>
      <trkpt lat="42.694936" lon="-0.033539">
        <ele>2589.4</ele>
        <time>2014-08-17T06:21:58Z</time>
      </trkpt>
      <trkpt lat="42.694868" lon="-0.033615">
        <ele>2592.7</ele>
        <time>2014-08-17T06:22:21Z</time>
      </trkpt>
      <trkpt lat="42.694800" lon="-0.033661">
        <ele>2597.7</ele>
        <time>2014-08-17T06:22:47Z</time>
      </trkpt>
      <trkpt lat="42.694752" lon="-0.033724">
        <ele>2601.4</ele>
        <time>2014-08-17T06:23:12Z</time>
      </trkpt>
      <trkpt lat="42.694675" lon="-0.033774">
        <ele>2604.7</ele>
        <time>2014-08-17T06:23:35Z</time>
      </trkpt>
      <trkpt lat="42.694602" lon="-0.033800">
        <ele>2608.4</ele>
        <time>2014-08-17T06:24:00Z</time>
      </trkpt>
      <trkpt lat="42.694536" lon="-0.033834">
        <ele>2611.9</ele>
        <time>2014-08-17T06:24:23Z</time>
      </trkpt>
      <trkpt lat="42.694482" lon="-0.033831">
        <ele>2613.6</ele>
        <time>2014-08-17T06:24:47Z</time>
      </trkpt>
      <trkpt lat="42.694392" lon="-0.033869">
        <ele>2616.0</ele>
        <time>2014-08-17T06:25:06Z</time>
      </trkpt>
      <trkpt lat="42.694318" lon="-0.033927">
        <ele>2619.7</ele>
        <time>2014-08-17T06:25:29Z</time>
      </trkpt>
      <trkpt lat="42.694241" lon="-0.034001">
        <ele>2622.2</ele>
        <time>2014-08-17T06:25:47Z</time>
      </trkpt>
      <trkpt lat="42.694159" lon="-0.034059">
        <ele>2626.2</ele>
        <time>2014-08-17T06:26:05Z</time>
      </trkpt>
      <trkpt lat="42.694084" lon="-0.034067">
        <ele>2630.4</ele>
        <time>2014-08-17T06:26:27Z</time>
      </trkpt>
      <trkpt lat="42.694020" lon="-0.034049">
        <ele>2635.0</ele>
        <time>2014-08-17T06:26:57Z</time>
      </trkpt>
      <trkpt lat="42.693957" lon="-0.034025">
        <ele>2638.8</ele>
        <time>2014-08-17T06:27:23Z</time>
      </trkpt>
      <trkpt lat="42.693912" lon="-0.034124">
        <ele>2643.3</ele>
        <time>2014-08-17T06:27:53Z</time>
      </trkpt>
      <trkpt lat="42.693862" lon="-0.034200">
        <ele>2647.1</ele>
        <time>2014-08-17T06:28:24Z</time>
      </trkpt>
      <trkpt lat="42.693788" lon="-0.034219">
        <ele>2651.6</ele>
        <time>2014-08-17T06:29:00Z</time>
      </trkpt>
      <trkpt lat="42.693723" lon="-0.034287">
        <ele>2655.9</ele>
        <time>2014-08-17T06:29:31Z</time>
      </trkpt>
      <trkpt lat="42.693662" lon="-0.034375">
        <ele>2659.0</ele>
        <time>2014-08-17T06:30:00Z</time>
      </trkpt>
      <trkpt lat="42.693627" lon="-0.034459">
        <ele>2663.6</ele>
        <time>2014-08-17T06:30:29Z</time>
      </trkpt>
      <trkpt lat="42.693551" lon="-0.034528">
        <ele>2668.3</ele>
        <time>2014-08-17T06:30:58Z</time>
      </trkpt>
      <trkpt lat="42.693480" lon="-0.034586">
        <ele>2673.5</ele>
        <time>2014-08-17T06:31:27Z</time>
      </trkpt>
      <trkpt lat="42.693446" lon="-0.034608">
        <ele>2677.2</ele>
        <time>2014-08-17T06:31:49Z</time>
      </trkpt>
      <trkpt lat="42.693417" lon="-0.034516">
        <ele>2680.6</ele>
        <time>2014-08-17T06:32:09Z</time>
      </trkpt>
      <trkpt lat="42.693364" lon="-0.034447">
        <ele>2684.6</ele>
        <time>2014-08-17T06:32:32Z</time>
      </trkpt>
      <trkpt lat="42.693316" lon="-0.034359">
        <ele>2687.6</ele>
        <time>2014-08-17T06:32:51Z</time>
      </trkpt>
      <trkpt lat="42.693246" lon="-0.034293">
        <ele>2691.2</ele>
        <time>2014-08-17T06:33:15Z</time>
      </trkpt>
      <trkpt lat="42.693186" lon="-0.034198">
        <ele>2694.1</ele>
        <time>2014-08-17T06:33:36Z</time>
      </trkpt>
      <trkpt lat="42.693113" lon="-0.034141">
        <ele>2697.2</ele>
        <time>2014-08-17T06:33:56Z</time>
      </trkpt>
      <trkpt lat="42.693016" lon="-0.034157">
        <ele>2699.9</ele>
        <time>2014-08-17T06:34:15Z</time>
      </trkpt>
      <trkpt lat="42.692930" lon="-0.034233">
        <ele>2705.6</ele>
        <time>2014-08-17T06:34:57Z</time>
      </trkpt>
      <trkpt lat="42.692890" lon="-0.034247">
        <ele>2705.6</ele>
        <time>2014-08-17T06:46:42Z</time>
      </trkpt>
      <trkpt lat="42.692796" lon="-0.034309">
        <ele>2707.4</ele>
        <time>2014-08-17T06:46:56Z</time>
      </trkpt>
      <trkpt lat="42.692693" lon="-0.034395">
        <ele>2709.1</ele>
        <time>2014-08-17T06:47:10Z</time>
      </trkpt>
      <trkpt lat="42.692644" lon="-0.034539">
        <ele>2710.2</ele>
        <time>2014-08-17T06:47:24Z</time>
      </trkpt>
      <trkpt lat="42.692650" lon="-0.034693">
        <ele>2711.0</ele>
        <time>2014-08-17T06:47:40Z</time>
      </trkpt>
      <trkpt lat="42.692599" lon="-0.034851">
        <ele>2712.4</ele>
        <time>2014-08-17T06:47:57Z</time>
      </trkpt>
      <trkpt lat="42.692529" lon="-0.035034">
        <ele>2712.8</ele>
        <time>2014-08-17T06:48:10Z</time>
      </trkpt>
      <trkpt lat="42.692447" lon="-0.035179">
        <ele>2713.0</ele>
        <time>2014-08-17T06:48:24Z</time>
      </trkpt>
      <trkpt lat="42.692408" lon="-0.035182">
        <ele>2714.4</ele>
        <time>2014-08-17T06:48:41Z</time>
      </trkpt>
      <trkpt lat="42.692353" lon="-0.035245">
        <ele>2715.4</ele>
        <time>2014-08-17T06:49:04Z</time>
      </trkpt>
      <trkpt lat="42.692242" lon="-0.035282">
        <ele>2717.7</ele>
        <time>2014-08-17T06:49:23Z</time>
      </trkpt>
      <trkpt lat="42.692146" lon="-0.035309">
        <ele>2720.8</ele>
        <time>2014-08-17T06:49:46Z</time>
      </trkpt>
      <trkpt lat="42.692068" lon="-0.035260">
        <ele>2723.6</ele>
        <time>2014-08-17T06:50:06Z</time>
      </trkpt>
      <trkpt lat="42.691996" lon="-0.035191">
        <ele>2726.0</ele>
        <time>2014-08-17T06:50:25Z</time>
      </trkpt>
      <trkpt lat="42.691923" lon="-0.035126">
        <ele>2728.6</ele>
        <time>2014-08-17T06:50:46Z</time>
      </trkpt>
      <trkpt lat="42.691816" lon="-0.035064">
        <ele>2731.8</ele>
        <time>2014-08-17T06:51:08Z</time>
      </trkpt>
      <trkpt lat="42.691725" lon="-0.034962">
        <ele>2735.3</ele>
        <time>2014-08-17T06:51:30Z</time>
      </trkpt>
      <trkpt lat="42.691655" lon="-0.034873">
        <ele>2738.6</ele>
        <time>2014-08-17T06:51:54Z</time>
      </trkpt>
      <trkpt lat="42.691578" lon="-0.034788">
        <ele>2742.4</ele>
        <time>2014-08-17T06:52:18Z</time>
      </trkpt>
      <trkpt lat="42.691522" lon="-0.034678">
        <ele>2745.2</ele>
        <time>2014-08-17T06:52:40Z</time>
      </trkpt>
      <trkpt lat="42.691479" lon="-0.034578">
        <ele>2748.2</ele>
        <time>2014-08-17T06:53:00Z</time>
      </trkpt>
      <trkpt lat="42.691425" lon="-0.034464">
        <ele>2751.4</ele>
        <time>2014-08-17T06:53:22Z</time>
      </trkpt>
      <trkpt lat="42.691370" lon="-0.034367">
        <ele>2754.1</ele>
        <time>2014-08-17T06:53:41Z</time>
      </trkpt>
      <trkpt lat="42.691305" lon="-0.034258">
        <ele>2757.6</ele>
        <time>2014-08-17T06:54:07Z</time>
      </trkpt>
      <trkpt lat="42.691275" lon="-0.034222">
        <ele>2757.4</ele>
        <time>2014-08-17T06:56:00Z</time>
      </trkpt>
      <trkpt lat="42.691219" lon="-0.034111">
        <ele>2757.2</ele>
        <time>2014-08-17T06:56:16Z</time>
      </trkpt>
      <trkpt lat="42.691175" lon="-0.034008">
        <ele>2758.5</ele>
        <time>2014-08-17T06:56:43Z</time>
      </trkpt>
      <trkpt lat="42.691113" lon="-0.033984">
        <ele>2759.1</ele>
        <time>2014-08-17T06:57:36Z</time>
      </trkpt>
      <trkpt lat="42.691048" lon="-0.033993">
        <ele>2766.1</ele>
        <time>2014-08-17T06:58:25Z</time>
      </trkpt>
      <trkpt lat="42.690984" lon="-0.033859">
        <ele>2774.8</ele>
        <time>2014-08-17T07:05:49Z</time>
      </trkpt>
      <trkpt lat="42.690930" lon="-0.033773">
        <ele>2771.5</ele>
        <time>2014-08-17T07:06:20Z</time>
      </trkpt>
      <trkpt lat="42.690876" lon="-0.033684">
        <ele>2770.0</ele>
        <time>2014-08-17T07:06:39Z</time>
      </trkpt>
      <trkpt lat="42.690848" lon="-0.033600">
        <ele>2768.2</ele>
        <time>2014-08-17T07:07:09Z</time>
      </trkpt>
      <trkpt lat="42.690845" lon="-0.033501">
        <ele>2767.3</ele>
        <time>2014-08-17T07:08:10Z</time>
      </trkpt>
      <trkpt lat="42.690810" lon="-0.033383">
        <ele>2765.2</ele>
        <time>2014-08-17T07:08:27Z</time>
      </trkpt>
      <trkpt lat="42.690725" lon="-0.033312">
        <ele>2762.0</ele>
        <time>2014-08-17T07:08:42Z</time>
      </trkpt>
      <trkpt lat="42.690669" lon="-0.033239">
        <ele>2758.2</ele>
        <time>2014-08-17T07:08:57Z</time>
      </trkpt>
      <trkpt lat="42.690611" lon="-0.033129">
        <ele>2754.7</ele>
        <time>2014-08-17T07:09:17Z</time>
      </trkpt>
      <trkpt lat="42.690557" lon="-0.033052">
        <ele>2752.1</ele>
        <time>2014-08-17T07:09:46Z</time>
      </trkpt>
      <trkpt lat="42.690492" lon="-0.033024">
        <ele>2749.1</ele>
        <time>2014-08-17T07:10:02Z</time>
      </trkpt>
      <trkpt lat="42.690426" lon="-0.032974">
        <ele>2746.4</ele>
        <time>2014-08-17T07:10:19Z</time>
      </trkpt>
      <trkpt lat="42.690386" lon="-0.032873">
        <ele>2742.9</ele>
        <time>2014-08-17T07:10:42Z</time>
      </trkpt>
      <trkpt lat="42.690305" lon="-0.032788">
        <ele>2739.3</ele>
        <time>2014-08-17T07:10:59Z</time>
      </trkpt>
      <trkpt lat="42.690199" lon="-0.032714">
        <ele>2736.9</ele>
        <time>2014-08-17T07:11:14Z</time>
      </trkpt>
      <trkpt lat="42.690135" lon="-0.032610">
        <ele>2733.8</ele>
        <time>2014-08-17T07:11:28Z</time>
      </trkpt>
      <trkpt lat="42.690053" lon="-0.032521">
        <ele>2731.6</ele>
        <time>2014-08-17T07:11:41Z</time>
      </trkpt>
      <trkpt lat="42.689998" lon="-0.032416">
        <ele>2729.1</ele>
        <time>2014-08-17T07:11:55Z</time>
      </trkpt>
      <trkpt lat="42.689931" lon="-0.032287">
        <ele>2727.7</ele>
        <time>2014-08-17T07:12:09Z</time>
      </trkpt>
      <trkpt lat="42.689827" lon="-0.032195">
        <ele>2725.8</ele>
        <time>2014-08-17T07:12:23Z</time>
      </trkpt>
      <trkpt lat="42.689757" lon="-0.032103">
        <ele>2723.9</ele>
        <time>2014-08-17T07:12:34Z</time>
      </trkpt>
      <trkpt lat="42.689712" lon="-0.032022">
        <ele>2721.9</ele>
        <time>2014-08-17T07:12:49Z</time>
      </trkpt>
      <trkpt lat="42.689736" lon="-0.031944">
        <ele>2720.8</ele>
        <time>2014-08-17T07:13:15Z</time>
      </trkpt>
      <trkpt lat="42.689762" lon="-0.031871">
        <ele>2720.0</ele>
        <time>2014-08-17T07:13:47Z</time>
      </trkpt>
      <trkpt lat="42.689790" lon="-0.031823">
        <ele>2719.6</ele>
        <time>2014-08-17T07:14:29Z</time>
      </trkpt>
      <trkpt lat="42.689771" lon="-0.031754">
        <ele>2718.6</ele>
        <time>2014-08-17T07:14:55Z</time>
      </trkpt>
      <trkpt lat="42.689745" lon="-0.031640">
        <ele>2717.3</ele>
        <time>2014-08-17T07:15:12Z</time>
      </trkpt>
      <trkpt lat="42.689703" lon="-0.031565">
        <ele>2715.5</ele>
        <time>2014-08-17T07:15:36Z</time>
      </trkpt>
      <trkpt lat="42.689681" lon="-0.031426">
        <ele>2715.4</ele>
        <time>2014-08-17T07:17:22Z</time>
      </trkpt>
      <trkpt lat="42.689506" lon="-0.031291">
        <ele>2717.4</ele>
        <time>2014-08-17T07:27:23Z</time>
      </trkpt>
      <trkpt lat="42.689456" lon="-0.031322">
        <ele>2713.6</ele>
        <time>2014-08-17T07:27:49Z</time>
      </trkpt>
      <trkpt lat="42.689383" lon="-0.031332">
        <ele>2709.0</ele>
        <time>2014-08-17T07:28:24Z</time>
      </trkpt>
      <trkpt lat="42.689297" lon="-0.031280">
        <ele>2706.9</ele>
        <time>2014-08-17T07:28:38Z</time>
      </trkpt>
      <trkpt lat="42.689197" lon="-0.031263">
        <ele>2704.9</ele>
        <time>2014-08-17T07:28:54Z</time>
      </trkpt>
      <trkpt lat="42.689185" lon="-0.031126">
        <ele>2706.5</ele>
        <time>2014-08-17T07:31:09Z</time>
      </trkpt>
      <trkpt lat="42.689175" lon="-0.031004">
        <ele>2709.8</ele>
        <time>2014-08-17T07:31:35Z</time>
      </trkpt>
      <trkpt lat="42.689109" lon="-0.030943">
        <ele>2709.6</ele>
        <time>2014-08-17T07:31:52Z</time>
      </trkpt>
      <trkpt lat="42.689066" lon="-0.030873">
        <ele>2712.4</ele>
        <time>2014-08-17T07:32:19Z</time>
      </trkpt>
      <trkpt lat="42.689000" lon="-0.030797">
        <ele>2712.2</ele>
        <time>2014-08-17T07:32:41Z</time>
      </trkpt>
      <trkpt lat="42.688953" lon="-0.030695">
        <ele>2716.8</ele>
        <time>2014-08-17T07:33:08Z</time>
      </trkpt>
      <trkpt lat="42.688505" lon="-0.030402">
        <ele>2760.3</ele>
        <time>2014-08-17T08:57:15Z</time>
      </trkpt>
      <trkpt lat="42.688487" lon="-0.030393">
        <ele>2762.3</ele>
        <time>2014-08-17T09:00:56Z</time>
      </trkpt>
      <trkpt lat="42.688455" lon="-0.030419">
        <ele>2763.7</ele>
        <time>2014-08-17T09:05:29Z</time>
      </trkpt>
      <trkpt lat="42.688402" lon="-0.030413">
        <ele>2766.2</ele>
        <time>2014-08-17T09:05:56Z</time>
      </trkpt>
      <trkpt lat="42.688385" lon="-0.030374">
        <ele>2766.5</ele>
        <time>2014-08-17T09:06:51Z</time>
      </trkpt>
      <trkpt lat="42.688311" lon="-0.030391">
        <ele>2766.8</ele>
        <time>2014-08-17T09:07:25Z</time>
      </trkpt>
      <trkpt lat="42.688214" lon="-0.030379">
        <ele>2767.2</ele>
        <time>2014-08-17T09:07:41Z</time>
      </trkpt>
      <trkpt lat="42.688128" lon="-0.030322">
        <ele>2769.6</ele>
        <time>2014-08-17T09:07:59Z</time>
      </trkpt>
      <trkpt lat="42.688055" lon="-0.030253">
        <ele>2771.4</ele>
        <time>2014-08-17T09:08:25Z</time>
      </trkpt>
      <trkpt lat="42.687939" lon="-0.030238">
        <ele>2773.6</ele>
        <time>2014-08-17T09:08:42Z</time>
      </trkpt>
      <trkpt lat="42.687865" lon="-0.030137">
        <ele>2774.8</ele>
        <time>2014-08-17T09:08:56Z</time>
      </trkpt>
      <trkpt lat="42.687775" lon="-0.030073">
        <ele>2776.2</ele>
        <time>2014-08-17T09:09:09Z</time>
      </trkpt>
      <trkpt lat="42.687702" lon="-0.030029">
        <ele>2778.2</ele>
        <time>2014-08-17T09:09:25Z</time>
      </trkpt>
      <trkpt lat="42.687674" lon="-0.029904">
        <ele>2777.8</ele>
        <time>2014-08-17T09:09:38Z</time>
      </trkpt>
      <trkpt lat="42.687628" lon="-0.029814">
        <ele>2779.5</ele>
        <time>2014-08-17T09:09:57Z</time>
      </trkpt>
      <trkpt lat="42.687687" lon="-0.029692">
        <ele>2780.9</ele>
        <time>2014-08-17T09:10:12Z</time>
      </trkpt>
      <trkpt lat="42.687634" lon="-0.029590">
        <ele>2782.4</ele>
        <time>2014-08-17T09:10:27Z</time>
      </trkpt>
      <trkpt lat="42.687617" lon="-0.029600">
        <ele>2782.1</ele>
        <time>2014-08-17T09:11:38Z</time>
      </trkpt>
      <trkpt lat="42.687571" lon="-0.029547">
        <ele>2783.9</ele>
        <time>2014-08-17T09:12:57Z</time>
      </trkpt>
      <trkpt lat="42.687561" lon="-0.029431">
        <ele>2784.6</ele>
        <time>2014-08-17T09:13:16Z</time>
      </trkpt>
      <trkpt lat="42.687520" lon="-0.029312">
        <ele>2785.4</ele>
        <time>2014-08-17T09:13:34Z</time>
      </trkpt>
      <trkpt lat="42.687407" lon="-0.029250">
        <ele>2787.3</ele>
        <time>2014-08-17T09:13:49Z</time>
      </trkpt>
      <trkpt lat="42.687359" lon="-0.029136">
        <ele>2788.9</ele>
        <time>2014-08-17T09:14:08Z</time>
      </trkpt>
      <trkpt lat="42.687276" lon="-0.029050">
        <ele>2792.6</ele>
        <time>2014-08-17T09:14:25Z</time>
      </trkpt>
      <trkpt lat="42.687246" lon="-0.028957">
        <ele>2795.4</ele>
        <time>2014-08-17T09:14:49Z</time>
      </trkpt>
      <trkpt lat="42.687216" lon="-0.028845">
        <ele>2799.4</ele>
        <time>2014-08-17T09:15:14Z</time>
      </trkpt>
      <trkpt lat="42.687178" lon="-0.028738">
        <ele>2802.6</ele>
        <time>2014-08-17T09:15:40Z</time>
      </trkpt>
      <trkpt lat="42.687112" lon="-0.028665">
        <ele>2806.7</ele>
        <time>2014-08-17T09:15:59Z</time>
      </trkpt>
      <trkpt lat="42.687091" lon="-0.028559">
        <ele>2810.4</ele>
        <time>2014-08-17T09:16:28Z</time>
      </trkpt>
      <trkpt lat="42.687059" lon="-0.028553">
        <ele>2813.6</ele>
        <time>2014-08-17T09:16:50Z</time>
      </trkpt>
      <trkpt lat="42.687034" lon="-0.028538">
        <ele>2814.8</ele>
        <time>2014-08-17T09:17:12Z</time>
      </trkpt>
      <trkpt lat="42.686963" lon="-0.028571">
        <ele>2818.3</ele>
        <time>2014-08-17T09:17:30Z</time>
      </trkpt>
      <trkpt lat="42.686951" lon="-0.028507">
        <ele>2821.1</ele>
        <time>2014-08-17T09:18:02Z</time>
      </trkpt>
      <trkpt lat="42.686955" lon="-0.028493">
        <ele>2821.0</ele>
        <time>2014-08-17T09:19:03Z</time>
      </trkpt>
      <trkpt lat="42.686949" lon="-0.028329">
        <ele>2822.5</ele>
        <time>2014-08-17T09:19:23Z</time>
      </trkpt>
      <trkpt lat="42.686920" lon="-0.028151">
        <ele>2826.8</ele>
        <time>2014-08-17T09:19:39Z</time>
      </trkpt>
      <trkpt lat="42.686891" lon="-0.028077">
        <ele>2831.4</ele>
        <time>2014-08-17T09:20:08Z</time>
      </trkpt>
      <trkpt lat="42.686880" lon="-0.028042">
        <ele>2832.7</ele>
        <time>2014-08-17T09:20:48Z</time>
      </trkpt>
      <trkpt lat="42.686852" lon="-0.027947">
        <ele>2837.3</ele>
        <time>2014-08-17T09:22:08Z</time>
      </trkpt>
      <trkpt lat="42.686798" lon="-0.027916">
        <ele>2840.3</ele>
        <time>2014-08-17T09:22:48Z</time>
      </trkpt>
      <trkpt lat="42.686769" lon="-0.027890">
        <ele>2845.6</ele>
        <time>2014-08-17T09:26:27Z</time>
      </trkpt>
      <trkpt lat="42.686696" lon="-0.027638">
        <ele>2887.9</ele>
        <time>2014-08-17T09:34:00Z</time>
      </trkpt>
      <trkpt lat="42.686692" lon="-0.027466">
        <ele>2900.8</ele>
        <time>2014-08-17T09:39:17Z</time>
      </trkpt>
      <trkpt lat="42.686730" lon="-0.027359">
        <ele>2904.6</ele>
        <time>2014-08-17T09:42:55Z</time>
      </trkpt>
      <trkpt lat="42.686769" lon="-0.027175">
        <ele>2910.1</ele>
        <time>2014-08-17T09:48:22Z</time>
      </trkpt>
      <trkpt lat="42.686834" lon="-0.027087">
        <ele>2911.4</ele>
        <time>2014-08-17T09:51:48Z</time>
      </trkpt>
      <trkpt lat="42.686881" lon="-0.026938">
        <ele>2922.4</ele>
        <time>2014-08-17T09:55:45Z</time>
      </trkpt>
      <trkpt lat="42.686937" lon="-0.026882">
        <ele>2924.6</ele>
        <time>2014-08-17T09:56:03Z</time>
      </trkpt>
      <trkpt lat="42.687005" lon="-0.026875">
        <ele>2926.3</ele>
        <time>2014-08-17T09:56:38Z</time>
      </trkpt>
      <trkpt lat="42.687090" lon="-0.026870">
        <ele>2930.4</ele>
        <time>2014-08-17T09:57:04Z</time>
      </trkpt>
      <trkpt lat="42.687184" lon="-0.026847">
        <ele>2933.0</ele>
        <time>2014-08-17T09:57:27Z</time>
      </trkpt>
      <trkpt lat="42.687269" lon="-0.026790">
        <ele>2936.6</ele>
        <time>2014-08-17T09:57:58Z</time>
      </trkpt>
      <trkpt lat="42.687320" lon="-0.026868">
        <ele>2940.4</ele>
        <time>2014-08-17T09:58:28Z</time>
      </trkpt>
      <trkpt lat="42.687356" lon="-0.026875">
        <ele>2945.1</ele>
        <time>2014-08-17T10:02:00Z</time>
      </trkpt>
      <trkpt lat="42.687419" lon="-0.026867">
        <ele>2947.3</ele>
        <time>2014-08-17T10:02:31Z</time>
      </trkpt>
      <trkpt lat="42.687477" lon="-0.026814">
        <ele>2952.8</ele>
        <time>2014-08-17T10:03:17Z</time>
      </trkpt>
      <trkpt lat="42.687492" lon="-0.026806">
        <ele>2956.2</ele>
        <time>2014-08-17T10:04:36Z</time>
      </trkpt>
      <trkpt lat="42.687533" lon="-0.026749">
        <ele>2959.8</ele>
        <time>2014-08-17T10:05:25Z</time>
      </trkpt>
      <trkpt lat="42.687563" lon="-0.026647">
        <ele>2963.4</ele>
        <time>2014-08-17T10:05:55Z</time>
      </trkpt>
      <trkpt lat="42.687643" lon="-0.026664">
        <ele>2966.5</ele>
        <time>2014-08-17T10:06:19Z</time>
      </trkpt>
      <trkpt lat="42.687656" lon="-0.026749">
        <ele>2969.2</ele>
        <time>2014-08-17T10:07:36Z</time>
      </trkpt>
      <trkpt lat="42.687750" lon="-0.026748">
        <ele>2969.7</ele>
        <time>2014-08-17T10:07:51Z</time>
      </trkpt>
      <trkpt lat="42.687751" lon="-0.026752">
        <ele>2969.7</ele>
        <time>2014-08-17T10:16:57Z</time>
      </trkpt>
      <trkpt lat="42.687759" lon="-0.026654">
        <ele>2969.9</ele>
        <time>2014-08-17T10:17:25Z</time>
      </trkpt>
      <trkpt lat="42.687758" lon="-0.026554">
        <ele>2967.9</ele>
        <time>2014-08-17T10:17:42Z</time>
      </trkpt>
      <trkpt lat="42.687793" lon="-0.026432">
        <ele>2965.3</ele>
        <time>2014-08-17T10:18:30Z</time>
      </trkpt>
      <trkpt lat="42.687838" lon="-0.026355">
        <ele>2963.1</ele>
        <time>2014-08-17T10:19:45Z</time>
      </trkpt>
      <trkpt lat="42.687846" lon="-0.026227">
        <ele>2959.9</ele>
        <time>2014-08-17T11:14:53Z</time>
      </trkpt>
      <trkpt lat="42.687850" lon="-0.026100">
        <ele>2956.1</ele>
        <time>2014-08-17T11:15:35Z</time>
      </trkpt>
      <trkpt lat="42.687914" lon="-0.026002">
        <ele>2955.4</ele>
        <time>2014-08-17T11:15:53Z</time>
      </trkpt>
      <trkpt lat="42.687945" lon="-0.025950">
        <ele>2954.6</ele>
        <time>2014-08-17T11:16:20Z</time>
      </trkpt>
      <trkpt lat="42.687924" lon="-0.025875">
        <ele>2951.2</ele>
        <time>2014-08-17T11:16:43Z</time>
      </trkpt>
      <trkpt lat="42.687920" lon="-0.025806">
        <ele>2948.0</ele>
        <time>2014-08-17T11:17:19Z</time>
      </trkpt>
      <trkpt lat="42.687939" lon="-0.025742">
        <ele>2944.2</ele>
        <time>2014-08-17T11:18:11Z</time>
      </trkpt>
      <trkpt lat="42.687948" lon="-0.025644">
        <ele>2940.9</ele>
        <time>2014-08-17T11:19:04Z</time>
      </trkpt>
      <trkpt lat="42.687967" lon="-0.025538">
        <ele>2924.3</ele>
        <time>2014-08-17T11:30:37Z</time>
      </trkpt>
      <trkpt lat="42.687968" lon="-0.025500">
        <ele>2923.8</ele>
        <time>2014-08-17T11:31:35Z</time>
      </trkpt>
      <trkpt lat="42.687943" lon="-0.025438">
        <ele>2923.5</ele>
        <time>2014-08-17T11:32:29Z</time>
      </trkpt>
      <trkpt lat="42.687933" lon="-0.025408">
        <ele>2920.4</ele>
        <time>2014-08-17T11:33:02Z</time>
      </trkpt>
      <trkpt lat="42.687926" lon="-0.025383">
        <ele>2920.6</ele>
        <time>2014-08-17T11:34:03Z</time>
      </trkpt>
      <trkpt lat="42.687929" lon="-0.025380">
        <ele>2918.7</ele>
        <time>2014-08-17T11:36:28Z</time>
      </trkpt>
      <trkpt lat="42.687934" lon="-0.025347">
        <ele>2916.9</ele>
        <time>2014-08-17T11:37:14Z</time>
      </trkpt>
      <trkpt lat="42.687922" lon="-0.025241">
        <ele>2914.1</ele>
        <time>2014-08-17T11:37:44Z</time>
      </trkpt>
      <trkpt lat="42.687905" lon="-0.025179">
        <ele>2912.7</ele>
        <time>2014-08-17T11:38:27Z</time>
      </trkpt>
      <trkpt lat="42.687859" lon="-0.025285">
        <ele>2909.4</ele>
        <time>2014-08-17T11:39:26Z</time>
      </trkpt>
      <trkpt lat="42.687844" lon="-0.025264">
        <ele>2906.9</ele>
        <time>2014-08-17T11:40:52Z</time>
      </trkpt>
      <trkpt lat="42.687802" lon="-0.025203">
        <ele>2903.3</ele>
        <time>2014-08-17T11:42:01Z</time>
      </trkpt>
      <trkpt lat="42.687770" lon="-0.025135">
        <ele>2898.6</ele>
        <time>2014-08-17T11:42:43Z</time>
      </trkpt>
      <trkpt lat="42.687747" lon="-0.025129">
        <ele>2898.0</ele>
        <time>2014-08-17T11:43:14Z</time>
      </trkpt>
      <trkpt lat="42.687701" lon="-0.025218">
        <ele>2896.1</ele>
        <time>2014-08-17T11:43:44Z</time>
      </trkpt>
      <trkpt lat="42.687672" lon="-0.025164">
        <ele>2890.2</ele>
        <time>2014-08-17T11:45:16Z</time>
      </trkpt>
      <trkpt lat="42.687619" lon="-0.025063">
        <ele>2889.1</ele>
        <time>2014-08-17T11:46:03Z</time>
      </trkpt>
      <trkpt lat="42.687588" lon="-0.025024">
        <ele>2884.9</ele>
        <time>2014-08-17T11:46:36Z</time>
      </trkpt>
      <trkpt lat="42.687516" lon="-0.025046">
        <ele>2881.7</ele>
        <time>2014-08-17T11:47:07Z</time>
      </trkpt>
      <trkpt lat="42.687473" lon="-0.025097">
        <ele>2879.9</ele>
        <time>2014-08-17T11:47:48Z</time>
      </trkpt>
      <trkpt lat="42.687371" lon="-0.025097">
        <ele>2874.2</ele>
        <time>2014-08-17T11:48:16Z</time>
      </trkpt>
      <trkpt lat="42.687336" lon="-0.025085">
        <ele>2870.2</ele>
        <time>2014-08-17T11:49:34Z</time>
      </trkpt>
      <trkpt lat="42.687265" lon="-0.025012">
        <ele>2865.5</ele>
        <time>2014-08-17T11:49:58Z</time>
      </trkpt>
      <trkpt lat="42.687197" lon="-0.024998">
        <ele>2860.6</ele>
        <time>2014-08-17T11:50:53Z</time>
      </trkpt>
      <trkpt lat="42.687102" lon="-0.024996">
        <ele>2856.4</ele>
        <time>2014-08-17T11:51:27Z</time>
      </trkpt>
      <trkpt lat="42.687031" lon="-0.024953">
        <ele>2849.6</ele>
        <time>2014-08-17T11:52:33Z</time>
      </trkpt>
      <trkpt lat="42.687003" lon="-0.024918">
        <ele>2845.4</ele>
        <time>2014-08-17T11:52:54Z</time>
      </trkpt>
      <trkpt lat="42.686887" lon="-0.024848">
        <ele>2837.9</ele>
        <time>2014-08-17T11:54:46Z</time>
      </trkpt>
      <trkpt lat="42.686857" lon="-0.024712">
        <ele>2835.9</ele>
        <time>2014-08-17T11:55:01Z</time>
      </trkpt>
      <trkpt lat="42.686898" lon="-0.024627">
        <ele>2832.0</ele>
        <time>2014-08-17T11:55:23Z</time>
      </trkpt>
      <trkpt lat="42.686952" lon="-0.024548">
        <ele>2828.5</ele>
        <time>2014-08-17T11:55:45Z</time>
      </trkpt>
      <trkpt lat="42.686971" lon="-0.024404">
        <ele>2824.6</ele>
        <time>2014-08-17T11:56:01Z</time>
      </trkpt>
      <trkpt lat="42.686983" lon="-0.024295">
        <ele>2821.5</ele>
        <time>2014-08-17T11:56:26Z</time>
      </trkpt>
      <trkpt lat="42.687000" lon="-0.024178">
        <ele>2819.1</ele>
        <time>2014-08-17T11:56:41Z</time>
      </trkpt>
      <trkpt lat="42.687026" lon="-0.024027">
        <ele>2815.6</ele>
        <time>2014-08-17T11:56:59Z</time>
      </trkpt>
      <trkpt lat="42.686999" lon="-0.023933">
        <ele>2811.7</ele>
        <time>2014-08-17T11:57:23Z</time>
      </trkpt>
      <trkpt lat="42.687025" lon="-0.023934">
        <ele>2810.1</ele>
        <time>2014-08-17T11:58:01Z</time>
      </trkpt>
      <trkpt lat="42.686952" lon="-0.023858">
        <ele>2809.1</ele>
        <time>2014-08-17T11:58:54Z</time>
      </trkpt>
      <trkpt lat="42.686859" lon="-0.023803">
        <ele>2804.7</ele>
        <time>2014-08-17T11:59:19Z</time>
      </trkpt>
      <trkpt lat="42.686780" lon="-0.023761">
        <ele>2801.8</ele>
        <time>2014-08-17T11:59:43Z</time>
      </trkpt>
      <trkpt lat="42.686722" lon="-0.023711">
        <ele>2799.9</ele>
        <time>2014-08-17T11:59:59Z</time>
      </trkpt>
      <trkpt lat="42.686635" lon="-0.023732">
        <ele>2796.3</ele>
        <time>2014-08-17T12:00:25Z</time>
      </trkpt>
      <trkpt lat="42.686550" lon="-0.023720">
        <ele>2792.8</ele>
        <time>2014-08-17T12:00:48Z</time>
      </trkpt>
      <trkpt lat="42.686473" lon="-0.023744">
        <ele>2789.1</ele>
        <time>2014-08-17T12:01:11Z</time>
      </trkpt>
      <trkpt lat="42.686407" lon="-0.023839">
        <ele>2787.9</ele>
        <time>2014-08-17T12:01:26Z</time>
      </trkpt>
      <trkpt lat="42.686329" lon="-0.023925">
        <ele>2786.4</ele>
        <time>2014-08-17T12:01:41Z</time>
      </trkpt>
      <trkpt lat="42.686294" lon="-0.024001">
        <ele>2784.7</ele>
        <time>2014-08-17T12:02:17Z</time>
      </trkpt>
      <trkpt lat="42.686210" lon="-0.024023">
        <ele>2783.8</ele>
        <time>2014-08-17T12:02:50Z</time>
      </trkpt>
      <trkpt lat="42.686155" lon="-0.024119">
        <ele>2781.8</ele>
        <time>2014-08-17T12:03:08Z</time>
      </trkpt>
      <trkpt lat="42.686100" lon="-0.024106">
        <ele>2780.3</ele>
        <time>2014-08-17T12:03:46Z</time>
      </trkpt>
      <trkpt lat="42.686059" lon="-0.024149">
        <ele>2778.2</ele>
        <time>2014-08-17T12:04:31Z</time>
      </trkpt>
      <trkpt lat="42.686030" lon="-0.024209">
        <ele>2778.4</ele>
        <time>2014-08-17T12:05:04Z</time>
      </trkpt>
      <trkpt lat="42.685967" lon="-0.024308">
        <ele>2778.8</ele>
        <time>2014-08-17T12:07:21Z</time>
      </trkpt>
      <trkpt lat="42.685945" lon="-0.024409">
        <ele>2776.3</ele>
        <time>2014-08-17T12:07:41Z</time>
      </trkpt>
      <trkpt lat="42.685977" lon="-0.024520">
        <ele>2774.6</ele>
        <time>2014-08-17T12:07:59Z</time>
      </trkpt>
      <trkpt lat="42.685963" lon="-0.024620">
        <ele>2772.8</ele>
        <time>2014-08-17T12:08:12Z</time>
      </trkpt>
      <trkpt lat="42.685963" lon="-0.024743">
        <ele>2771.4</ele>
        <time>2014-08-17T12:08:24Z</time>
      </trkpt>
      <trkpt lat="42.685953" lon="-0.024840">
        <ele>2768.8</ele>
        <time>2014-08-17T12:08:39Z</time>
      </trkpt>
      <trkpt lat="42.685890" lon="-0.024998">
        <ele>2761.3</ele>
        <time>2014-08-17T12:10:21Z</time>
      </trkpt>
      <trkpt lat="42.685901" lon="-0.025098">
        <ele>2760.9</ele>
        <time>2014-08-17T12:10:54Z</time>
      </trkpt>
      <trkpt lat="42.685853" lon="-0.025156">
        <ele>2758.8</ele>
        <time>2014-08-17T12:11:32Z</time>
      </trkpt>
      <trkpt lat="42.685810" lon="-0.025252">
        <ele>2757.4</ele>
        <time>2014-08-17T12:11:48Z</time>
      </trkpt>
      <trkpt lat="42.685787" lon="-0.025343">
        <ele>2758.0</ele>
        <time>2014-08-17T12:12:23Z</time>
      </trkpt>
      <trkpt lat="42.685722" lon="-0.025372">
        <ele>2755.6</ele>
        <time>2014-08-17T12:12:54Z</time>
      </trkpt>
      <trkpt lat="42.685644" lon="-0.025458">
        <ele>2752.1</ele>
        <time>2014-08-17T12:13:23Z</time>
      </trkpt>
      <trkpt lat="42.685592" lon="-0.025576">
        <ele>2751.4</ele>
        <time>2014-08-17T12:13:39Z</time>
      </trkpt>
      <trkpt lat="42.685542" lon="-0.025652">
        <ele>2747.6</ele>
        <time>2014-08-17T12:14:14Z</time>
      </trkpt>
      <trkpt lat="42.685510" lon="-0.025769">
        <ele>2744.4</ele>
        <time>2014-08-17T12:14:35Z</time>
      </trkpt>
      <trkpt lat="42.685445" lon="-0.025858">
        <ele>2740.5</ele>
        <time>2014-08-17T12:14:56Z</time>
      </trkpt>
      <trkpt lat="42.685361" lon="-0.025941">
        <ele>2737.4</ele>
        <time>2014-08-17T12:15:20Z</time>
      </trkpt>
      <trkpt lat="42.685298" lon="-0.026037">
        <ele>2735.4</ele>
        <time>2014-08-17T12:15:38Z</time>
      </trkpt>
      <trkpt lat="42.685266" lon="-0.026095">
        <ele>2732.6</ele>
        <time>2014-08-17T12:16:11Z</time>
      </trkpt>
      <trkpt lat="42.685214" lon="-0.026195">
        <ele>2731.1</ele>
        <time>2014-08-17T12:16:25Z</time>
      </trkpt>
      <trkpt lat="42.685189" lon="-0.026192">
        <ele>2728.0</ele>
        <time>2014-08-17T12:16:56Z</time>
      </trkpt>
      <trkpt lat="42.685146" lon="-0.026283">
        <ele>2726.9</ele>
        <time>2014-08-17T12:17:12Z</time>
      </trkpt>
      <trkpt lat="42.685094" lon="-0.026374">
        <ele>2724.3</ele>
        <time>2014-08-17T12:17:36Z</time>
      </trkpt>
      <trkpt lat="42.685058" lon="-0.026471">
        <ele>2721.5</ele>
        <time>2014-08-17T12:18:06Z</time>
      </trkpt>
      <trkpt lat="42.684995" lon="-0.026572">
        <ele>2720.9</ele>
        <time>2014-08-17T12:18:16Z</time>
      </trkpt>
      <trkpt lat="42.684945" lon="-0.026669">
        <ele>2720.4</ele>
        <time>2014-08-17T12:18:41Z</time>
      </trkpt>
      <trkpt lat="42.684918" lon="-0.026824">
        <ele>2721.0</ele>
        <time>2014-08-17T12:19:28Z</time>
      </trkpt>
      <trkpt lat="42.684953" lon="-0.026853">
        <ele>2721.8</ele>
        <time>2014-08-17T12:20:06Z</time>
      </trkpt>
      <trkpt lat="42.684997" lon="-0.026975">
        <ele>2721.1</ele>
        <time>2014-08-17T12:20:18Z</time>
      </trkpt>
      <trkpt lat="42.684985" lon="-0.027051">
        <ele>2720.7</ele>
        <time>2014-08-17T12:21:34Z</time>
      </trkpt>
      <trkpt lat="42.685063" lon="-0.027107">
        <ele>2720.3</ele>
        <time>2014-08-17T12:22:34Z</time>
      </trkpt>
      <trkpt lat="42.685148" lon="-0.027185">
        <ele>2719.6</ele>
        <time>2014-08-17T12:22:52Z</time>
      </trkpt>
      <trkpt lat="42.685221" lon="-0.027279">
        <ele>2719.0</ele>
        <time>2014-08-17T12:23:07Z</time>
      </trkpt>
      <trkpt lat="42.685292" lon="-0.027352">
        <ele>2718.7</ele>
        <time>2014-08-17T12:23:22Z</time>
      </trkpt>
      <trkpt lat="42.685345" lon="-0.027450">
        <ele>2718.6</ele>
        <time>2014-08-17T12:23:37Z</time>
      </trkpt>
      <trkpt lat="42.685416" lon="-0.027525">
        <ele>2719.0</ele>
        <time>2014-08-17T12:23:51Z</time>
      </trkpt>
      <trkpt lat="42.685481" lon="-0.027626">
        <ele>2718.3</ele>
        <time>2014-08-17T12:24:03Z</time>
      </trkpt>
      <trkpt lat="42.685497" lon="-0.027691">
        <ele>2716.7</ele>
        <time>2014-08-17T12:24:42Z</time>
      </trkpt>
      <trkpt lat="42.685485" lon="-0.027725">
        <ele>2716.6</ele>
        <time>2014-08-17T12:25:30Z</time>
      </trkpt>
      <trkpt lat="42.685539" lon="-0.027845">
        <ele>2715.2</ele>
        <time>2014-08-17T12:25:54Z</time>
      </trkpt>
      <trkpt lat="42.685595" lon="-0.027937">
        <ele>2713.4</ele>
        <time>2014-08-17T12:26:05Z</time>
      </trkpt>
      <trkpt lat="42.685656" lon="-0.028033">
        <ele>2711.7</ele>
        <time>2014-08-17T12:26:18Z</time>
      </trkpt>
      <trkpt lat="42.685734" lon="-0.028150">
        <ele>2710.6</ele>
        <time>2014-08-17T12:26:31Z</time>
      </trkpt>
      <trkpt lat="42.685808" lon="-0.028253">
        <ele>2709.9</ele>
        <time>2014-08-17T12:26:42Z</time>
      </trkpt>
      <trkpt lat="42.685857" lon="-0.028363">
        <ele>2708.6</ele>
        <time>2014-08-17T12:26:54Z</time>
      </trkpt>
      <trkpt lat="42.685934" lon="-0.028452">
        <ele>2706.7</ele>
        <time>2014-08-17T12:27:08Z</time>
      </trkpt>
      <trkpt lat="42.686024" lon="-0.028440">
        <ele>2707.2</ele>
        <time>2014-08-17T12:27:20Z</time>
      </trkpt>
      <trkpt lat="42.686110" lon="-0.028518">
        <ele>2708.2</ele>
        <time>2014-08-17T12:27:33Z</time>
      </trkpt>
      <trkpt lat="42.686159" lon="-0.028617">
        <ele>2707.8</ele>
        <time>2014-08-17T12:27:46Z</time>
      </trkpt>
      <trkpt lat="42.686262" lon="-0.028668">
        <ele>2708.4</ele>
        <time>2014-08-17T12:28:04Z</time>
      </trkpt>
      <trkpt lat="42.686333" lon="-0.028777">
        <ele>2710.7</ele>
        <time>2014-08-17T12:28:20Z</time>
      </trkpt>
      <trkpt lat="42.686408" lon="-0.028831">
        <ele>2713.7</ele>
        <time>2014-08-17T12:28:37Z</time>
      </trkpt>
      <trkpt lat="42.686480" lon="-0.028922">
        <ele>2714.5</ele>
        <time>2014-08-17T12:28:51Z</time>
      </trkpt>
      <trkpt lat="42.686574" lon="-0.028985">
        <ele>2714.8</ele>
        <time>2014-08-17T12:29:03Z</time>
      </trkpt>
      <trkpt lat="42.686611" lon="-0.029057">
        <ele>2713.8</ele>
        <time>2014-08-17T12:29:49Z</time>
      </trkpt>
      <trkpt lat="42.686656" lon="-0.029006">
        <ele>2713.9</ele>
        <time>2014-08-17T12:30:11Z</time>
      </trkpt>
      <trkpt lat="42.686731" lon="-0.029059">
        <ele>2714.1</ele>
        <time>2014-08-17T12:30:25Z</time>
      </trkpt>
      <trkpt lat="42.686774" lon="-0.029198">
        <ele>2714.6</ele>
        <time>2014-08-17T12:30:48Z</time>
      </trkpt>
      <trkpt lat="42.686854" lon="-0.029255">
        <ele>2714.4</ele>
        <time>2014-08-17T12:30:59Z</time>
      </trkpt>
      <trkpt lat="42.686899" lon="-0.029366">
        <ele>2714.8</ele>
        <time>2014-08-17T12:31:12Z</time>
      </trkpt>
      <trkpt lat="42.686937" lon="-0.029473">
        <ele>2715.1</ele>
        <time>2014-08-17T12:31:27Z</time>
      </trkpt>
      <trkpt lat="42.687003" lon="-0.029539">
        <ele>2713.9</ele>
        <time>2014-08-17T12:32:09Z</time>
      </trkpt>
      <trkpt lat="42.687075" lon="-0.029590">
        <ele>2713.3</ele>
        <time>2014-08-17T12:32:33Z</time>
      </trkpt>
      <trkpt lat="42.687159" lon="-0.029596">
        <ele>2715.1</ele>
        <time>2014-08-17T12:33:04Z</time>
      </trkpt>
      <trkpt lat="42.687258" lon="-0.029592">
        <ele>2715.0</ele>
        <time>2014-08-17T12:33:20Z</time>
      </trkpt>
      <trkpt lat="42.687356" lon="-0.029629">
        <ele>2717.8</ele>
        <time>2014-08-17T12:33:37Z</time>
      </trkpt>
      <trkpt lat="42.687388" lon="-0.029726">
        <ele>2718.7</ele>
        <time>2014-08-17T12:33:49Z</time>
      </trkpt>
      <trkpt lat="42.687445" lon="-0.029763">
        <ele>2718.5</ele>
        <time>2014-08-17T12:34:06Z</time>
      </trkpt>
      <trkpt lat="42.687504" lon="-0.029842">
        <ele>2719.9</ele>
        <time>2014-08-17T12:34:26Z</time>
      </trkpt>
      <trkpt lat="42.687516" lon="-0.029920">
        <ele>2718.8</ele>
        <time>2014-08-17T12:34:46Z</time>
      </trkpt>
      <trkpt lat="42.687595" lon="-0.030033">
        <ele>2717.9</ele>
        <time>2014-08-17T12:35:00Z</time>
      </trkpt>
      <trkpt lat="42.687655" lon="-0.030128">
        <ele>2716.1</ele>
        <time>2014-08-17T12:35:09Z</time>
      </trkpt>
      <trkpt lat="42.687711" lon="-0.030170">
        <ele>2715.0</ele>
        <time>2014-08-17T12:35:31Z</time>
      </trkpt>
      <trkpt lat="42.687753" lon="-0.030215">
        <ele>2713.6</ele>
        <time>2014-08-17T12:36:07Z</time>
      </trkpt>
      <trkpt lat="42.687785" lon="-0.030320">
        <ele>2711.1</ele>
        <time>2014-08-17T12:36:22Z</time>
      </trkpt>
      <trkpt lat="42.687892" lon="-0.030414">
        <ele>2705.5</ele>
        <time>2014-08-17T12:40:13Z</time>
      </trkpt>
      <trkpt lat="42.687987" lon="-0.030453">
        <ele>2703.3</ele>
        <time>2014-08-17T12:41:41Z</time>
      </trkpt>
      <trkpt lat="42.688056" lon="-0.030544">
        <ele>2700.5</ele>
        <time>2014-08-17T12:42:03Z</time>
      </trkpt>
      <trkpt lat="42.688162" lon="-0.030568">
        <ele>2697.7</ele>
        <time>2014-08-17T12:42:21Z</time>
      </trkpt>
      <trkpt lat="42.688211" lon="-0.030533">
        <ele>2695.9</ele>
        <time>2014-08-17T12:42:38Z</time>
      </trkpt>
      <trkpt lat="42.688240" lon="-0.030558">
        <ele>2695.6</ele>
        <time>2014-08-17T12:43:06Z</time>
      </trkpt>
      <trkpt lat="42.688330" lon="-0.030591">
        <ele>2693.8</ele>
        <time>2014-08-17T12:43:26Z</time>
      </trkpt>
      <trkpt lat="42.688421" lon="-0.030627">
        <ele>2692.4</ele>
        <time>2014-08-17T12:48:17Z</time>
      </trkpt>
      <trkpt lat="42.688503" lon="-0.030657">
        <ele>2692.1</ele>
        <time>2014-08-17T12:48:41Z</time>
      </trkpt>
      <trkpt lat="42.688585" lon="-0.030669">
        <ele>2692.9</ele>
        <time>2014-08-17T12:48:54Z</time>
      </trkpt>
      <trkpt lat="42.688647" lon="-0.030697">
        <ele>2692.9</ele>
        <time>2014-08-17T12:49:10Z</time>
      </trkpt>
      <trkpt lat="42.688700" lon="-0.030724">
        <ele>2691.6</ele>
        <time>2014-08-17T12:49:23Z</time>
      </trkpt>
      <trkpt lat="42.688776" lon="-0.030769">
        <ele>2691.0</ele>
        <time>2014-08-17T12:49:40Z</time>
      </trkpt>
      <trkpt lat="42.688846" lon="-0.030846">
        <ele>2691.2</ele>
        <time>2014-08-17T12:49:57Z</time>
      </trkpt>
      <trkpt lat="42.688915" lon="-0.030922">
        <ele>2692.3</ele>
        <time>2014-08-17T12:50:13Z</time>
      </trkpt>
      <trkpt lat="42.689008" lon="-0.030979">
        <ele>2693.6</ele>
        <time>2014-08-17T12:50:34Z</time>
      </trkpt>
      <trkpt lat="42.689076" lon="-0.031050">
        <ele>2694.1</ele>
        <time>2014-08-17T12:50:50Z</time>
      </trkpt>
      <trkpt lat="42.689166" lon="-0.031084">
        <ele>2695.8</ele>
        <time>2014-08-17T12:51:05Z</time>
      </trkpt>
      <trkpt lat="42.689258" lon="-0.031108">
        <ele>2698.2</ele>
        <time>2014-08-17T12:51:37Z</time>
      </trkpt>
      <trkpt lat="42.689357" lon="-0.031156">
        <ele>2701.0</ele>
        <time>2014-08-17T12:51:56Z</time>
      </trkpt>
      <trkpt lat="42.689439" lon="-0.031240">
        <ele>2702.7</ele>
        <time>2014-08-17T12:52:13Z</time>
      </trkpt>
      <trkpt lat="42.689507" lon="-0.031326">
        <ele>2704.2</ele>
        <time>2014-08-17T12:52:35Z</time>
      </trkpt>
      <trkpt lat="42.689589" lon="-0.031395">
        <ele>2707.6</ele>
        <time>2014-08-17T12:53:21Z</time>
      </trkpt>
      <trkpt lat="42.689642" lon="-0.031374">
        <ele>2708.7</ele>
        <time>2014-08-17T12:53:38Z</time>
      </trkpt>
      <trkpt lat="42.689734" lon="-0.031390">
        <ele>2710.7</ele>
        <time>2014-08-17T12:53:55Z</time>
      </trkpt>
      <trkpt lat="42.689796" lon="-0.031471">
        <ele>2711.7</ele>
        <time>2014-08-17T12:54:13Z</time>
      </trkpt>
      <trkpt lat="42.689876" lon="-0.031564">
        <ele>2713.1</ele>
        <time>2014-08-17T12:54:28Z</time>
      </trkpt>
      <trkpt lat="42.689921" lon="-0.031683">
        <ele>2714.1</ele>
        <time>2014-08-17T12:54:41Z</time>
      </trkpt>
      <trkpt lat="42.689999" lon="-0.031702">
        <ele>2716.4</ele>
        <time>2014-08-17T12:54:59Z</time>
      </trkpt>
      <trkpt lat="42.689988" lon="-0.031781">
        <ele>2717.1</ele>
        <time>2014-08-17T12:55:20Z</time>
      </trkpt>
      <trkpt lat="42.689981" lon="-0.031847">
        <ele>2717.3</ele>
        <time>2014-08-17T12:55:44Z</time>
      </trkpt>
      <trkpt lat="42.690000" lon="-0.031881">
        <ele>2717.2</ele>
        <time>2014-08-17T12:55:57Z</time>
      </trkpt>
      <trkpt lat="42.690067" lon="-0.031941">
        <ele>2718.8</ele>
        <time>2014-08-17T12:56:10Z</time>
      </trkpt>
      <trkpt lat="42.690138" lon="-0.032018">
        <ele>2720.8</ele>
        <time>2014-08-17T12:56:27Z</time>
      </trkpt>
      <trkpt lat="42.690219" lon="-0.032116">
        <ele>2722.3</ele>
        <time>2014-08-17T12:56:41Z</time>
      </trkpt>
      <trkpt lat="42.690193" lon="-0.032208">
        <ele>2724.2</ele>
        <time>2014-08-17T12:57:01Z</time>
      </trkpt>
      <trkpt lat="42.690231" lon="-0.032266">
        <ele>2724.3</ele>
        <time>2014-08-17T12:57:15Z</time>
      </trkpt>
      <trkpt lat="42.690294" lon="-0.032373">
        <ele>2726.1</ele>
        <time>2014-08-17T12:57:29Z</time>
      </trkpt>
      <trkpt lat="42.690347" lon="-0.032503">
        <ele>2728.5</ele>
        <time>2014-08-17T12:57:44Z</time>
      </trkpt>
      <trkpt lat="42.690404" lon="-0.032611">
        <ele>2731.5</ele>
        <time>2014-08-17T12:58:00Z</time>
      </trkpt>
      <trkpt lat="42.690479" lon="-0.032714">
        <ele>2734.0</ele>
        <time>2014-08-17T12:58:18Z</time>
      </trkpt>
      <trkpt lat="42.690513" lon="-0.032839">
        <ele>2737.7</ele>
        <time>2014-08-17T12:58:39Z</time>
      </trkpt>
      <trkpt lat="42.690537" lon="-0.032965">
        <ele>2741.6</ele>
        <time>2014-08-17T12:59:34Z</time>
      </trkpt>
      <trkpt lat="42.690560" lon="-0.033071">
        <ele>2744.9</ele>
        <time>2014-08-17T12:59:56Z</time>
      </trkpt>
      <trkpt lat="42.690653" lon="-0.033109">
        <ele>2749.2</ele>
        <time>2014-08-17T13:00:20Z</time>
      </trkpt>
      <trkpt lat="42.690706" lon="-0.033212">
        <ele>2751.0</ele>
        <time>2014-08-17T13:01:17Z</time>
      </trkpt>
      <trkpt lat="42.690761" lon="-0.033289">
        <ele>2754.2</ele>
        <time>2014-08-17T13:01:36Z</time>
      </trkpt>
      <trkpt lat="42.690817" lon="-0.033373">
        <ele>2758.2</ele>
        <time>2014-08-17T13:01:59Z</time>
      </trkpt>
      <trkpt lat="42.690877" lon="-0.033488">
        <ele>2761.4</ele>
        <time>2014-08-17T13:02:21Z</time>
      </trkpt>
      <trkpt lat="42.690898" lon="-0.033605">
        <ele>2762.8</ele>
        <time>2014-08-17T13:02:39Z</time>
      </trkpt>
      <trkpt lat="42.690939" lon="-0.033596">
        <ele>2764.8</ele>
        <time>2014-08-17T13:03:16Z</time>
      </trkpt>
      <trkpt lat="42.690975" lon="-0.033666">
        <ele>2765.6</ele>
        <time>2014-08-17T13:03:38Z</time>
      </trkpt>
      <trkpt lat="42.690990" lon="-0.033790">
        <ele>2767.7</ele>
        <time>2014-08-17T13:03:58Z</time>
      </trkpt>
      <trkpt lat="42.691008" lon="-0.033850">
        <ele>2769.5</ele>
        <time>2014-08-17T13:06:30Z</time>
      </trkpt>
      <trkpt lat="42.691035" lon="-0.033949">
        <ele>2773.3</ele>
        <time>2014-08-17T13:13:21Z</time>
      </trkpt>
      <trkpt lat="42.691102" lon="-0.033949">
        <ele>2767.6</ele>
        <time>2014-08-17T13:15:11Z</time>
      </trkpt>
      <trkpt lat="42.691167" lon="-0.033959">
        <ele>2762.9</ele>
        <time>2014-08-17T13:15:54Z</time>
      </trkpt>
      <trkpt lat="42.691190" lon="-0.033997">
        <ele>2758.4</ele>
        <time>2014-08-17T13:16:38Z</time>
      </trkpt>
      <trkpt lat="42.691245" lon="-0.034170">
        <ele>2753.4</ele>
        <time>2014-08-17T13:24:59Z</time>
      </trkpt>
      <trkpt lat="42.691329" lon="-0.034305">
        <ele>2753.3</ele>
        <time>2014-08-17T13:25:19Z</time>
      </trkpt>
      <trkpt lat="42.691408" lon="-0.034385">
        <ele>2750.6</ele>
        <time>2014-08-17T13:25:35Z</time>
      </trkpt>
      <trkpt lat="42.691468" lon="-0.034494">
        <ele>2748.8</ele>
        <time>2014-08-17T13:26:01Z</time>
      </trkpt>
      <trkpt lat="42.691493" lon="-0.034596">
        <ele>2746.1</ele>
        <time>2014-08-17T13:26:21Z</time>
      </trkpt>
      <trkpt lat="42.691556" lon="-0.034713">
        <ele>2742.9</ele>
        <time>2014-08-17T13:26:35Z</time>
      </trkpt>
      <trkpt lat="42.691635" lon="-0.034805">
        <ele>2739.2</ele>
        <time>2014-08-17T13:26:50Z</time>
      </trkpt>
      <trkpt lat="42.691732" lon="-0.034892">
        <ele>2735.2</ele>
        <time>2014-08-17T13:27:04Z</time>
      </trkpt>
      <trkpt lat="42.691824" lon="-0.034961">
        <ele>2732.3</ele>
        <time>2014-08-17T13:27:19Z</time>
      </trkpt>
      <trkpt lat="42.691903" lon="-0.035037">
        <ele>2729.2</ele>
        <time>2014-08-17T13:27:29Z</time>
      </trkpt>
      <trkpt lat="42.691987" lon="-0.035113">
        <ele>2726.1</ele>
        <time>2014-08-17T13:27:40Z</time>
      </trkpt>
      <trkpt lat="42.692079" lon="-0.035186">
        <ele>2723.4</ele>
        <time>2014-08-17T13:27:50Z</time>
      </trkpt>
      <trkpt lat="42.692161" lon="-0.035235">
        <ele>2721.4</ele>
        <time>2014-08-17T13:28:00Z</time>
      </trkpt>
      <trkpt lat="42.692238" lon="-0.035267">
        <ele>2719.4</ele>
        <time>2014-08-17T13:28:10Z</time>
      </trkpt>
      <trkpt lat="42.692313" lon="-0.035224">
        <ele>2716.0</ele>
        <time>2014-08-17T13:28:22Z</time>
      </trkpt>
      <trkpt lat="42.692393" lon="-0.035153">
        <ele>2711.8</ele>
        <time>2014-08-17T13:28:38Z</time>
      </trkpt>
      <trkpt lat="42.692473" lon="-0.035079">
        <ele>2710.4</ele>
        <time>2014-08-17T13:28:48Z</time>
      </trkpt>
      <trkpt lat="42.692551" lon="-0.034974">
        <ele>2709.4</ele>
        <time>2014-08-17T13:28:59Z</time>
      </trkpt>
      <trkpt lat="42.692605" lon="-0.034857">
        <ele>2708.5</ele>
        <time>2014-08-17T13:29:09Z</time>
      </trkpt>
      <trkpt lat="42.692655" lon="-0.034744">
        <ele>2708.0</ele>
        <time>2014-08-17T13:29:19Z</time>
      </trkpt>
      <trkpt lat="42.692693" lon="-0.034626">
        <ele>2707.2</ele>
        <time>2014-08-17T13:29:29Z</time>
      </trkpt>
      <trkpt lat="42.692697" lon="-0.034503">
        <ele>2706.5</ele>
        <time>2014-08-17T13:29:39Z</time>
      </trkpt>
      <trkpt lat="42.692721" lon="-0.034382">
        <ele>2705.9</ele>
        <time>2014-08-17T13:29:51Z</time>
      </trkpt>
      <trkpt lat="42.692802" lon="-0.034305">
        <ele>2704.8</ele>
        <time>2014-08-17T13:30:02Z</time>
      </trkpt>
      <trkpt lat="42.692884" lon="-0.034233">
        <ele>2703.2</ele>
        <time>2014-08-17T13:30:13Z</time>
      </trkpt>
      <trkpt lat="42.692934" lon="-0.034130">
        <ele>2700.9</ele>
        <time>2014-08-17T13:30:26Z</time>
      </trkpt>
      <trkpt lat="42.693010" lon="-0.034133">
        <ele>2700.2</ele>
        <time>2014-08-17T13:30:50Z</time>
      </trkpt>
      <trkpt lat="42.693049" lon="-0.034208">
        <ele>2701.0</ele>
        <time>2014-08-17T13:31:13Z</time>
      </trkpt>
      <trkpt lat="42.693139" lon="-0.034175">
        <ele>2696.0</ele>
        <time>2014-08-17T13:32:15Z</time>
      </trkpt>
      <trkpt lat="42.693213" lon="-0.034174">
        <ele>2691.0</ele>
        <time>2014-08-17T13:32:59Z</time>
      </trkpt>
      <trkpt lat="42.693290" lon="-0.034283">
        <ele>2689.1</ele>
        <time>2014-08-17T13:33:33Z</time>
      </trkpt>
      <trkpt lat="42.693349" lon="-0.034358">
        <ele>2685.9</ele>
        <time>2014-08-17T13:33:48Z</time>
      </trkpt>
      <trkpt lat="42.693410" lon="-0.034432">
        <ele>2683.1</ele>
        <time>2014-08-17T13:34:01Z</time>
      </trkpt>
      <trkpt lat="42.693468" lon="-0.034518">
        <ele>2678.3</ele>
        <time>2014-08-17T13:34:21Z</time>
      </trkpt>
      <trkpt lat="42.693529" lon="-0.034628">
        <ele>2674.3</ele>
        <time>2014-08-17T13:34:39Z</time>
      </trkpt>
      <trkpt lat="42.693597" lon="-0.034712">
        <ele>2670.8</ele>
        <time>2014-08-17T13:34:53Z</time>
      </trkpt>
      <trkpt lat="42.693669" lon="-0.034781">
        <ele>2665.7</ele>
        <time>2014-08-17T13:35:17Z</time>
      </trkpt>
      <trkpt lat="42.693755" lon="-0.034850">
        <ele>2661.4</ele>
        <time>2014-08-17T13:35:37Z</time>
      </trkpt>
      <trkpt lat="42.693817" lon="-0.034851">
        <ele>2658.6</ele>
        <time>2014-08-17T13:35:57Z</time>
      </trkpt>
      <trkpt lat="42.693856" lon="-0.034748">
        <ele>2655.3</ele>
        <time>2014-08-17T13:36:16Z</time>
      </trkpt>
      <trkpt lat="42.693899" lon="-0.034640">
        <ele>2651.7</ele>
        <time>2014-08-17T13:36:33Z</time>
      </trkpt>
      <trkpt lat="42.693944" lon="-0.034616">
        <ele>2646.9</ele>
        <time>2014-08-17T13:40:26Z</time>
      </trkpt>
      <trkpt lat="42.694007" lon="-0.034571">
        <ele>2641.3</ele>
        <time>2014-08-17T13:41:08Z</time>
      </trkpt>
      <trkpt lat="42.694076" lon="-0.034518">
        <ele>2637.7</ele>
        <time>2014-08-17T13:41:45Z</time>
      </trkpt>
      <trkpt lat="42.694159" lon="-0.034506">
        <ele>2633.8</ele>
        <time>2014-08-17T13:42:11Z</time>
      </trkpt>
      <trkpt lat="42.694250" lon="-0.034449">
        <ele>2628.2</ele>
        <time>2014-08-17T13:42:39Z</time>
      </trkpt>
      <trkpt lat="42.694331" lon="-0.034411">
        <ele>2623.7</ele>
        <time>2014-08-17T13:43:00Z</time>
      </trkpt>
      <trkpt lat="42.694380" lon="-0.034313">
        <ele>2619.3</ele>
        <time>2014-08-17T13:43:19Z</time>
      </trkpt>
      <trkpt lat="42.694459" lon="-0.034253">
        <ele>2617.3</ele>
        <time>2014-08-17T13:43:26Z</time>
      </trkpt>
      <trkpt lat="42.694541" lon="-0.034224">
        <ele>2610.6</ele>
        <time>2014-08-17T13:43:59Z</time>
      </trkpt>
      <trkpt lat="42.694663" lon="-0.034190">
        <ele>2609.8</ele>
        <time>2014-08-17T13:44:40Z</time>
      </trkpt>
      <trkpt lat="42.694767" lon="-0.034178">
        <ele>2607.8</ele>
        <time>2014-08-17T13:44:43Z</time>
      </trkpt>
      <trkpt lat="42.694858" lon="-0.034135">
        <ele>2604.3</ele>
        <time>2014-08-17T13:44:46Z</time>
      </trkpt>
      <trkpt lat="42.694932" lon="-0.034147">
        <ele>2593.4</ele>
        <time>2014-08-17T13:44:58Z</time>
      </trkpt>
      <trkpt lat="42.695011" lon="-0.034111">
        <ele>2592.2</ele>
        <time>2014-08-17T13:45:34Z</time>
      </trkpt>
      <trkpt lat="42.695098" lon="-0.034073">
        <ele>2590.2</ele>
        <time>2014-08-17T13:45:44Z</time>
      </trkpt>
      <trkpt lat="42.695215" lon="-0.034014">
        <ele>2587.5</ele>
        <time>2014-08-17T13:45:55Z</time>
      </trkpt>
      <trkpt lat="42.695309" lon="-0.033975">
        <ele>2584.7</ele>
        <time>2014-08-17T13:46:04Z</time>
      </trkpt>
      <trkpt lat="42.695399" lon="-0.033938">
        <ele>2582.2</ele>
        <time>2014-08-17T13:46:14Z</time>
      </trkpt>
      <trkpt lat="42.695487" lon="-0.033878">
        <ele>2579.4</ele>
        <time>2014-08-17T13:46:24Z</time>
      </trkpt>
      <trkpt lat="42.695565" lon="-0.033812">
        <ele>2576.6</ele>
        <time>2014-08-17T13:46:35Z</time>
      </trkpt>
      <trkpt lat="42.695649" lon="-0.033754">
        <ele>2574.3</ele>
        <time>2014-08-17T13:46:46Z</time>
      </trkpt>
      <trkpt lat="42.695721" lon="-0.033675">
        <ele>2572.0</ele>
        <time>2014-08-17T13:46:56Z</time>
      </trkpt>
      <trkpt lat="42.695875" lon="-0.033404">
        <ele>2567.1</ele>
        <time>2014-08-17T14:20:07Z</time>
      </trkpt>
      <trkpt lat="42.695933" lon="-0.033431">
        <ele>2566.9</ele>
        <time>2014-08-17T14:20:18Z</time>
      </trkpt>
      <trkpt lat="42.695947" lon="-0.033450">
        <ele>2566.0</ele>
        <time>2014-08-17T14:24:16Z</time>
      </trkpt>
      <trkpt lat="42.696039" lon="-0.033490">
        <ele>2565.0</ele>
        <time>2014-08-17T14:24:30Z</time>
      </trkpt>
      <trkpt lat="42.696119" lon="-0.033537">
        <ele>2563.7</ele>
        <time>2014-08-17T14:24:40Z</time>
      </trkpt>
      <trkpt lat="42.696216" lon="-0.033592">
        <ele>2562.3</ele>
        <time>2014-08-17T14:24:55Z</time>
      </trkpt>
      <trkpt lat="42.696280" lon="-0.033655">
        <ele>2562.3</ele>
        <time>2014-08-17T14:25:10Z</time>
      </trkpt>
      <trkpt lat="42.696359" lon="-0.033710">
        <ele>2560.9</ele>
        <time>2014-08-17T14:25:28Z</time>
      </trkpt>
      <trkpt lat="42.696440" lon="-0.033762">
        <ele>2559.7</ele>
        <time>2014-08-17T14:25:46Z</time>
      </trkpt>
      <trkpt lat="42.696522" lon="-0.033848">
        <ele>2558.6</ele>
        <time>2014-08-17T14:26:01Z</time>
      </trkpt>
      <trkpt lat="42.696625" lon="-0.033907">
        <ele>2557.5</ele>
        <time>2014-08-17T14:26:15Z</time>
      </trkpt>
      <trkpt lat="42.696669" lon="-0.034017">
        <ele>2556.9</ele>
        <time>2014-08-17T14:26:36Z</time>
      </trkpt>
      <trkpt lat="42.696661" lon="-0.034178">
        <ele>2557.9</ele>
        <time>2014-08-17T14:26:51Z</time>
      </trkpt>
      <trkpt lat="42.696678" lon="-0.034276">
        <ele>2560.2</ele>
        <time>2014-08-17T14:27:12Z</time>
      </trkpt>
      <trkpt lat="42.696707" lon="-0.034383">
        <ele>2563.9</ele>
        <time>2014-08-17T14:27:33Z</time>
      </trkpt>
      <trkpt lat="42.696757" lon="-0.034506">
        <ele>2566.0</ele>
        <time>2014-08-17T14:27:50Z</time>
      </trkpt>
      <trkpt lat="42.696783" lon="-0.034632">
        <ele>2568.0</ele>
        <time>2014-08-17T14:28:05Z</time>
      </trkpt>
      <trkpt lat="42.696823" lon="-0.034752">
        <ele>2569.0</ele>
        <time>2014-08-17T14:28:18Z</time>
      </trkpt>
      <trkpt lat="42.696936" lon="-0.034817">
        <ele>2570.6</ele>
        <time>2014-08-17T14:28:34Z</time>
      </trkpt>
      <trkpt lat="42.697051" lon="-0.034830">
        <ele>2570.6</ele>
        <time>2014-08-17T14:28:46Z</time>
      </trkpt>
      <trkpt lat="42.697084" lon="-0.034826">
        <ele>2569.9</ele>
        <time>2014-08-17T14:29:21Z</time>
      </trkpt>
      <trkpt lat="42.697127" lon="-0.034882">
        <ele>2568.9</ele>
        <time>2014-08-17T14:30:00Z</time>
      </trkpt>
      <trkpt lat="42.697223" lon="-0.034882">
        <ele>2569.7</ele>
        <time>2014-08-17T14:30:09Z</time>
      </trkpt>
      <trkpt lat="42.697329" lon="-0.034895">
        <ele>2569.5</ele>
        <time>2014-08-17T14:30:20Z</time>
      </trkpt>
      <trkpt lat="42.697405" lon="-0.034954">
        <ele>2566.7</ele>
        <time>2014-08-17T14:30:38Z</time>
      </trkpt>
      <trkpt lat="42.697471" lon="-0.035026">
        <ele>2563.6</ele>
        <time>2014-08-17T14:30:52Z</time>
      </trkpt>
      <trkpt lat="42.697495" lon="-0.035102">
        <ele>2559.6</ele>
        <time>2014-08-17T14:31:10Z</time>
      </trkpt>
      <trkpt lat="42.697540" lon="-0.035199">
        <ele>2557.3</ele>
        <time>2014-08-17T14:31:25Z</time>
      </trkpt>
      <trkpt lat="42.697544" lon="-0.035264">
        <ele>2554.9</ele>
        <time>2014-08-17T14:32:16Z</time>
      </trkpt>
      <trkpt lat="42.697535" lon="-0.035447">
        <ele>2548.4</ele>
        <time>2014-08-17T14:34:52Z</time>
      </trkpt>
      <trkpt lat="42.697515" lon="-0.035490">
        <ele>2545.3</ele>
        <time>2014-08-17T14:35:23Z</time>
      </trkpt>
      <trkpt lat="42.697483" lon="-0.035581">
        <ele>2543.8</ele>
        <time>2014-08-17T14:35:36Z</time>
      </trkpt>
      <trkpt lat="42.697556" lon="-0.035635">
        <ele>2540.5</ele>
        <time>2014-08-17T14:35:54Z</time>
      </trkpt>
      <trkpt lat="42.697634" lon="-0.035708">
        <ele>2537.9</ele>
        <time>2014-08-17T14:36:10Z</time>
      </trkpt>
      <trkpt lat="42.697696" lon="-0.035732">
        <ele>2534.4</ele>
        <time>2014-08-17T14:36:31Z</time>
      </trkpt>
      <trkpt lat="42.697728" lon="-0.035797">
        <ele>2532.4</ele>
        <time>2014-08-17T14:37:00Z</time>
      </trkpt>
      <trkpt lat="42.697737" lon="-0.035875">
        <ele>2532.5</ele>
        <time>2014-08-17T14:37:28Z</time>
      </trkpt>
      <trkpt lat="42.697827" lon="-0.035868">
        <ele>2530.6</ele>
        <time>2014-08-17T14:37:44Z</time>
      </trkpt>
      <trkpt lat="42.697861" lon="-0.035910">
        <ele>2527.7</ele>
        <time>2014-08-17T14:38:04Z</time>
      </trkpt>
      <trkpt lat="42.697930" lon="-0.035961">
        <ele>2526.1</ele>
        <time>2014-08-17T14:38:14Z</time>
      </trkpt>
      <trkpt lat="42.698014" lon="-0.035895">
        <ele>2523.3</ele>
        <time>2014-08-17T14:38:31Z</time>
      </trkpt>
      <trkpt lat="42.698107" lon="-0.035899">
        <ele>2521.2</ele>
        <time>2014-08-17T14:38:45Z</time>
      </trkpt>
      <trkpt lat="42.698206" lon="-0.035881">
        <ele>2519.8</ele>
        <time>2014-08-17T14:39:02Z</time>
      </trkpt>
      <trkpt lat="42.698274" lon="-0.035983">
        <ele>2517.8</ele>
        <time>2014-08-17T14:39:20Z</time>
      </trkpt>
      <trkpt lat="42.698361" lon="-0.036007">
        <ele>2514.4</ele>
        <time>2014-08-17T14:39:40Z</time>
      </trkpt>
      <trkpt lat="42.698420" lon="-0.036088">
        <ele>2510.8</ele>
        <time>2014-08-17T14:39:58Z</time>
      </trkpt>
      <trkpt lat="42.698512" lon="-0.035991">
        <ele>2508.7</ele>
        <time>2014-08-17T14:40:14Z</time>
      </trkpt>
      <trkpt lat="42.698614" lon="-0.035935">
        <ele>2507.4</ele>
        <time>2014-08-17T14:40:28Z</time>
      </trkpt>
      <trkpt lat="42.698704" lon="-0.035946">
        <ele>2505.3</ele>
        <time>2014-08-17T14:40:41Z</time>
      </trkpt>
      <trkpt lat="42.698771" lon="-0.035946">
        <ele>2501.9</ele>
        <time>2014-08-17T14:40:58Z</time>
      </trkpt>
      <trkpt lat="42.698710" lon="-0.036047">
        <ele>2499.7</ele>
        <time>2014-08-17T14:41:14Z</time>
      </trkpt>
      <trkpt lat="42.698761" lon="-0.036062">
        <ele>2497.8</ele>
        <time>2014-08-17T14:41:29Z</time>
      </trkpt>
      <trkpt lat="42.698849" lon="-0.036034">
        <ele>2494.8</ele>
        <time>2014-08-17T14:41:47Z</time>
      </trkpt>
      <trkpt lat="42.698857" lon="-0.036157">
        <ele>2491.0</ele>
        <time>2014-08-17T14:42:12Z</time>
      </trkpt>
      <trkpt lat="42.698886" lon="-0.036244">
        <ele>2486.2</ele>
        <time>2014-08-17T14:42:44Z</time>
      </trkpt>
      <trkpt lat="42.698947" lon="-0.036277">
        <ele>2482.3</ele>
        <time>2014-08-17T14:43:05Z</time>
      </trkpt>
      <trkpt lat="42.698976" lon="-0.036349">
        <ele>2478.0</ele>
        <time>2014-08-17T14:43:27Z</time>
      </trkpt>
      <trkpt lat="42.698977" lon="-0.036473">
        <ele>2474.6</ele>
        <time>2014-08-17T14:43:46Z</time>
      </trkpt>
      <trkpt lat="42.698996" lon="-0.036580">
        <ele>2470.8</ele>
        <time>2014-08-17T14:44:08Z</time>
      </trkpt>
      <trkpt lat="42.699077" lon="-0.036518">
        <ele>2468.8</ele>
        <time>2014-08-17T14:44:24Z</time>
      </trkpt>
      <trkpt lat="42.699110" lon="-0.036563">
        <ele>2465.3</ele>
        <time>2014-08-17T14:44:58Z</time>
      </trkpt>
      <trkpt lat="42.699151" lon="-0.036587">
        <ele>2462.5</ele>
        <time>2014-08-17T14:45:21Z</time>
      </trkpt>
      <trkpt lat="42.699170" lon="-0.036690">
        <ele>2458.3</ele>
        <time>2014-08-17T14:45:53Z</time>
      </trkpt>
      <trkpt lat="42.699187" lon="-0.036714">
        <ele>2456.1</ele>
        <time>2014-08-17T14:46:17Z</time>
      </trkpt>
      <trkpt lat="42.699262" lon="-0.036707">
        <ele>2453.9</ele>
        <time>2014-08-17T14:46:40Z</time>
      </trkpt>
      <trkpt lat="42.699314" lon="-0.036767">
        <ele>2450.1</ele>
        <time>2014-08-17T14:47:04Z</time>
      </trkpt>
      <trkpt lat="42.699305" lon="-0.036871">
        <ele>2446.9</ele>
        <time>2014-08-17T14:47:38Z</time>
      </trkpt>
      <trkpt lat="42.699290" lon="-0.037011">
        <ele>2447.0</ele>
        <time>2014-08-17T14:47:55Z</time>
      </trkpt>
      <trkpt lat="42.699330" lon="-0.037102">
        <ele>2445.3</ele>
        <time>2014-08-17T14:48:19Z</time>
      </trkpt>
      <trkpt lat="42.699405" lon="-0.037163">
        <ele>2443.3</ele>
        <time>2014-08-17T14:48:35Z</time>
      </trkpt>
      <trkpt lat="42.699356" lon="-0.037226">
        <ele>2441.2</ele>
        <time>2014-08-17T14:49:20Z</time>
      </trkpt>
      <trkpt lat="42.699262" lon="-0.037191">
        <ele>2445.0</ele>
        <time>2014-08-17T14:50:27Z</time>
      </trkpt>
      <trkpt lat="42.699248" lon="-0.037210">
        <ele>2444.6</ele>
        <time>2014-08-17T14:52:43Z</time>
      </trkpt>
      <trkpt lat="42.699279" lon="-0.037317">
        <ele>2444.1</ele>
        <time>2014-08-17T14:53:29Z</time>
      </trkpt>
      <trkpt lat="42.699340" lon="-0.037424">
        <ele>2441.3</ele>
        <time>2014-08-17T14:54:02Z</time>
      </trkpt>
      <trkpt lat="42.699393" lon="-0.037461">
        <ele>2437.4</ele>
        <time>2014-08-17T14:55:19Z</time>
      </trkpt>
      <trkpt lat="42.699405" lon="-0.037603">
        <ele>2435.0</ele>
        <time>2014-08-17T14:55:39Z</time>
      </trkpt>
      <trkpt lat="42.699437" lon="-0.037694">
        <ele>2432.7</ele>
        <time>2014-08-17T14:55:58Z</time>
      </trkpt>
      <trkpt lat="42.699496" lon="-0.037790">
        <ele>2431.5</ele>
        <time>2014-08-17T14:56:11Z</time>
      </trkpt>
      <trkpt lat="42.699592" lon="-0.037851">
        <ele>2430.0</ele>
        <time>2014-08-17T14:56:25Z</time>
      </trkpt>
      <trkpt lat="42.699653" lon="-0.037904">
        <ele>2427.1</ele>
        <time>2014-08-17T14:56:40Z</time>
      </trkpt>
      <trkpt lat="42.699744" lon="-0.037893">
        <ele>2425.0</ele>
        <time>2014-08-17T14:56:57Z</time>
      </trkpt>
      <trkpt lat="42.699849" lon="-0.037870">
        <ele>2421.9</ele>
        <time>2014-08-17T14:57:16Z</time>
      </trkpt>
      <trkpt lat="42.699937" lon="-0.037926">
        <ele>2419.2</ele>
        <time>2014-08-17T14:57:31Z</time>
      </trkpt>
      <trkpt lat="42.700002" lon="-0.037852">
        <ele>2416.1</ele>
        <time>2014-08-17T14:57:48Z</time>
      </trkpt>
      <trkpt lat="42.700055" lon="-0.037876">
        <ele>2412.6</ele>
        <time>2014-08-17T14:58:15Z</time>
      </trkpt>
      <trkpt lat="42.700126" lon="-0.037936">
        <ele>2411.2</ele>
        <time>2014-08-17T14:58:33Z</time>
      </trkpt>
      <trkpt lat="42.700208" lon="-0.038010">
        <ele>2409.0</ele>
        <time>2014-08-17T14:58:47Z</time>
      </trkpt>
      <trkpt lat="42.700277" lon="-0.038113">
        <ele>2407.3</ele>
        <time>2014-08-17T14:58:58Z</time>
      </trkpt>
      <trkpt lat="42.700360" lon="-0.038180">
        <ele>2405.3</ele>
        <time>2014-08-17T14:59:11Z</time>
      </trkpt>
      <trkpt lat="42.700420" lon="-0.038144">
        <ele>2402.5</ele>
        <time>2014-08-17T14:59:27Z</time>
      </trkpt>
      <trkpt lat="42.700470" lon="-0.038164">
        <ele>2400.2</ele>
        <time>2014-08-17T14:59:42Z</time>
      </trkpt>
      <trkpt lat="42.700496" lon="-0.038285">
        <ele>2397.8</ele>
        <time>2014-08-17T14:59:58Z</time>
      </trkpt>
      <trkpt lat="42.700498" lon="-0.038416">
        <ele>2394.9</ele>
        <time>2014-08-17T15:00:12Z</time>
      </trkpt>
      <trkpt lat="42.700513" lon="-0.038537">
        <ele>2392.1</ele>
        <time>2014-08-17T15:00:24Z</time>
      </trkpt>
      <trkpt lat="42.700502" lon="-0.038653">
        <ele>2389.4</ele>
        <time>2014-08-17T15:00:38Z</time>
      </trkpt>
      <trkpt lat="42.700527" lon="-0.038780">
        <ele>2386.4</ele>
        <time>2014-08-17T15:00:53Z</time>
      </trkpt>
      <trkpt lat="42.700528" lon="-0.038910">
        <ele>2383.4</ele>
        <time>2014-08-17T15:01:08Z</time>
      </trkpt>
      <trkpt lat="42.700501" lon="-0.039037">
        <ele>2380.6</ele>
        <time>2014-08-17T15:01:21Z</time>
      </trkpt>
      <trkpt lat="42.700520" lon="-0.039150">
        <ele>2377.4</ele>
        <time>2014-08-17T15:01:32Z</time>
      </trkpt>
      <trkpt lat="42.700574" lon="-0.039279">
        <ele>2376.3</ele>
        <time>2014-08-17T15:01:46Z</time>
      </trkpt>
      <trkpt lat="42.700579" lon="-0.039419">
        <ele>2376.7</ele>
        <time>2014-08-17T15:02:00Z</time>
      </trkpt>
      <trkpt lat="42.700608" lon="-0.039541">
        <ele>2376.4</ele>
        <time>2014-08-17T15:02:12Z</time>
      </trkpt>
      <trkpt lat="42.700631" lon="-0.039671">
        <ele>2375.4</ele>
        <time>2014-08-17T15:02:25Z</time>
      </trkpt>
      <trkpt lat="42.700654" lon="-0.039798">
        <ele>2375.0</ele>
        <time>2014-08-17T15:02:36Z</time>
      </trkpt>
      <trkpt lat="42.700690" lon="-0.039921">
        <ele>2375.5</ele>
        <time>2014-08-17T15:02:49Z</time>
      </trkpt>
      <trkpt lat="42.700723" lon="-0.040044">
        <ele>2375.1</ele>
        <time>2014-08-17T15:03:09Z</time>
      </trkpt>
      <trkpt lat="42.700737" lon="-0.040181">
        <ele>2374.9</ele>
        <time>2014-08-17T15:03:22Z</time>
      </trkpt>
      <trkpt lat="42.700773" lon="-0.040303">
        <ele>2373.8</ele>
        <time>2014-08-17T15:03:35Z</time>
      </trkpt>
      <trkpt lat="42.700804" lon="-0.040429">
        <ele>2372.6</ele>
        <time>2014-08-17T15:03:47Z</time>
      </trkpt>
      <trkpt lat="42.700796" lon="-0.040571">
        <ele>2371.6</ele>
        <time>2014-08-17T15:04:01Z</time>
      </trkpt>
      <trkpt lat="42.700792" lon="-0.040705">
        <ele>2371.5</ele>
        <time>2014-08-17T15:04:16Z</time>
      </trkpt>
      <trkpt lat="42.700780" lon="-0.040854">
        <ele>2371.6</ele>
        <time>2014-08-17T15:04:30Z</time>
      </trkpt>
      <trkpt lat="42.700769" lon="-0.041006">
        <ele>2370.8</ele>
        <time>2014-08-17T15:04:45Z</time>
      </trkpt>
      <trkpt lat="42.700731" lon="-0.041151">
        <ele>2371.0</ele>
        <time>2014-08-17T15:05:00Z</time>
      </trkpt>
      <trkpt lat="42.700707" lon="-0.041271">
        <ele>2371.6</ele>
        <time>2014-08-17T15:05:13Z</time>
      </trkpt>
      <trkpt lat="42.700670" lon="-0.041407">
        <ele>2371.3</ele>
        <time>2014-08-17T15:05:27Z</time>
      </trkpt>
      <trkpt lat="42.700647" lon="-0.041556">
        <ele>2370.8</ele>
        <time>2014-08-17T15:05:39Z</time>
      </trkpt>
      <trkpt lat="42.700596" lon="-0.041703">
        <ele>2370.6</ele>
        <time>2014-08-17T15:05:53Z</time>
      </trkpt>
      <trkpt lat="42.700622" lon="-0.041836">
        <ele>2370.9</ele>
        <time>2014-08-17T15:06:04Z</time>
      </trkpt>
      <trkpt lat="42.700654" lon="-0.041960">
        <ele>2371.2</ele>
        <time>2014-08-17T15:06:16Z</time>
      </trkpt>
      <trkpt lat="42.700674" lon="-0.042081">
        <ele>2371.1</ele>
        <time>2014-08-17T15:06:28Z</time>
      </trkpt>
      <trkpt lat="42.700672" lon="-0.042210">
        <ele>2371.2</ele>
        <time>2014-08-17T15:06:41Z</time>
      </trkpt>
      <trkpt lat="42.700698" lon="-0.042348">
        <ele>2370.8</ele>
        <time>2014-08-17T15:06:50Z</time>
      </trkpt>
      <trkpt lat="42.700700" lon="-0.042472">
        <ele>2371.1</ele>
        <time>2014-08-17T15:07:01Z</time>
      </trkpt>
      <trkpt lat="42.700772" lon="-0.042586">
        <ele>2371.6</ele>
        <time>2014-08-17T15:07:12Z</time>
      </trkpt>
      <trkpt lat="42.700832" lon="-0.042687">
        <ele>2371.6</ele>
        <time>2014-08-17T15:07:23Z</time>
      </trkpt>
      <trkpt lat="42.700872" lon="-0.042808">
        <ele>2372.2</ele>
        <time>2014-08-17T15:07:36Z</time>
      </trkpt>
      <trkpt lat="42.700895" lon="-0.042931">
        <ele>2373.4</ele>
        <time>2014-08-17T15:07:49Z</time>
      </trkpt>
      <trkpt lat="42.700923" lon="-0.043058">
        <ele>2374.2</ele>
        <time>2014-08-17T15:08:01Z</time>
      </trkpt>
      <trkpt lat="42.700962" lon="-0.043182">
        <ele>2374.1</ele>
        <time>2014-08-17T15:08:11Z</time>
      </trkpt>
      <trkpt lat="42.700989" lon="-0.043310">
        <ele>2374.0</ele>
        <time>2014-08-17T15:08:23Z</time>
      </trkpt>
      <trkpt lat="42.701020" lon="-0.043432">
        <ele>2374.1</ele>
        <time>2014-08-17T15:08:35Z</time>
      </trkpt>
      <trkpt lat="42.701007" lon="-0.043564">
        <ele>2374.8</ele>
        <time>2014-08-17T15:08:47Z</time>
      </trkpt>
      <trkpt lat="42.701034" lon="-0.043695">
        <ele>2374.8</ele>
        <time>2014-08-17T15:08:57Z</time>
      </trkpt>
      <trkpt lat="42.701084" lon="-0.043816">
        <ele>2374.8</ele>
        <time>2014-08-17T15:09:07Z</time>
      </trkpt>
      <trkpt lat="42.701131" lon="-0.043927">
        <ele>2374.6</ele>
        <time>2014-08-17T15:09:15Z</time>
      </trkpt>
      <trkpt lat="42.701167" lon="-0.044038">
        <ele>2374.2</ele>
        <time>2014-08-17T15:09:23Z</time>
      </trkpt>
      <trkpt lat="42.701202" lon="-0.044154">
        <ele>2374.0</ele>
        <time>2014-08-17T15:09:32Z</time>
      </trkpt>
      <trkpt lat="42.701253" lon="-0.044262">
        <ele>2374.3</ele>
        <time>2014-08-17T15:09:41Z</time>
      </trkpt>
      <trkpt lat="42.701265" lon="-0.044391">
        <ele>2374.0</ele>
        <time>2014-08-17T15:09:51Z</time>
      </trkpt>
      <trkpt lat="42.701301" lon="-0.044528">
        <ele>2373.6</ele>
        <time>2014-08-17T15:10:01Z</time>
      </trkpt>
      <trkpt lat="42.701322" lon="-0.044651">
        <ele>2372.7</ele>
        <time>2014-08-17T15:10:11Z</time>
      </trkpt>
      <trkpt lat="42.701326" lon="-0.044776">
        <ele>2371.7</ele>
        <time>2014-08-17T15:10:23Z</time>
      </trkpt>
      <trkpt lat="42.701315" lon="-0.044905">
        <ele>2370.7</ele>
        <time>2014-08-17T15:10:35Z</time>
      </trkpt>
      <trkpt lat="42.701315" lon="-0.045044">
        <ele>2369.8</ele>
        <time>2014-08-17T15:10:46Z</time>
      </trkpt>
      <trkpt lat="42.701322" lon="-0.045159">
        <ele>2369.0</ele>
        <time>2014-08-17T15:10:56Z</time>
      </trkpt>
      <trkpt lat="42.701335" lon="-0.045289">
        <ele>2368.5</ele>
        <time>2014-08-17T15:11:11Z</time>
      </trkpt>
      <trkpt lat="42.701359" lon="-0.045424">
        <ele>2367.4</ele>
        <time>2014-08-17T15:11:26Z</time>
      </trkpt>
      <trkpt lat="42.701370" lon="-0.045549">
        <ele>2366.4</ele>
        <time>2014-08-17T15:11:42Z</time>
      </trkpt>
      <trkpt lat="42.701418" lon="-0.045662">
        <ele>2365.9</ele>
        <time>2014-08-17T15:11:58Z</time>
      </trkpt>
      <trkpt lat="42.701468" lon="-0.045777">
        <ele>2365.6</ele>
        <time>2014-08-17T15:12:11Z</time>
      </trkpt>
      <trkpt lat="42.701443" lon="-0.045905">
        <ele>2365.7</ele>
        <time>2014-08-17T15:12:21Z</time>
      </trkpt>
      <trkpt lat="42.701423" lon="-0.046037">
        <ele>2364.7</ele>
        <time>2014-08-17T15:12:36Z</time>
      </trkpt>
      <trkpt lat="42.701406" lon="-0.046180">
        <ele>2364.1</ele>
        <time>2014-08-17T15:12:50Z</time>
      </trkpt>
      <trkpt lat="42.701430" lon="-0.046300">
        <ele>2363.0</ele>
        <time>2014-08-17T15:13:04Z</time>
      </trkpt>
      <trkpt lat="42.701439" lon="-0.046423">
        <ele>2362.2</ele>
        <time>2014-08-17T15:13:16Z</time>
      </trkpt>
      <trkpt lat="42.701461" lon="-0.046555">
        <ele>2360.2</ele>
        <time>2014-08-17T15:13:35Z</time>
      </trkpt>
      <trkpt lat="42.701476" lon="-0.046680">
        <ele>2358.2</ele>
        <time>2014-08-17T15:13:52Z</time>
      </trkpt>
      <trkpt lat="42.701516" lon="-0.046801">
        <ele>2357.3</ele>
        <time>2014-08-17T15:14:04Z</time>
      </trkpt>
      <trkpt lat="42.701568" lon="-0.046911">
        <ele>2355.6</ele>
        <time>2014-08-17T15:14:16Z</time>
      </trkpt>
      <trkpt lat="42.701591" lon="-0.047046">
        <ele>2354.1</ele>
        <time>2014-08-17T15:14:26Z</time>
      </trkpt>
      <trkpt lat="42.701609" lon="-0.047168">
        <ele>2354.1</ele>
        <time>2014-08-17T15:14:38Z</time>
      </trkpt>
      <trkpt lat="42.701661" lon="-0.047275">
        <ele>2353.1</ele>
        <time>2014-08-17T15:14:54Z</time>
      </trkpt>
      <trkpt lat="42.701722" lon="-0.047389">
        <ele>2351.4</ele>
        <time>2014-08-17T15:15:05Z</time>
      </trkpt>
      <trkpt lat="42.701768" lon="-0.047501">
        <ele>2350.3</ele>
        <time>2014-08-17T15:15:16Z</time>
      </trkpt>
      <trkpt lat="42.701838" lon="-0.047597">
        <ele>2350.1</ele>
        <time>2014-08-17T15:15:27Z</time>
      </trkpt>
      <trkpt lat="42.701930" lon="-0.047642">
        <ele>2349.2</ele>
        <time>2014-08-17T15:15:38Z</time>
      </trkpt>
      <trkpt lat="42.702020" lon="-0.047694">
        <ele>2348.3</ele>
        <time>2014-08-17T15:15:50Z</time>
      </trkpt>
      <trkpt lat="42.702063" lon="-0.047747">
        <ele>2347.9</ele>
        <time>2014-08-17T15:17:46Z</time>
      </trkpt>
      <trkpt lat="42.702038" lon="-0.047867">
        <ele>2346.8</ele>
        <time>2014-08-17T15:17:56Z</time>
      </trkpt>
      <trkpt lat="42.702040" lon="-0.048000">
        <ele>2345.2</ele>
        <time>2014-08-17T15:18:06Z</time>
      </trkpt>
      <trkpt lat="42.702030" lon="-0.048132">
        <ele>2344.6</ele>
        <time>2014-08-17T15:18:16Z</time>
      </trkpt>
      <trkpt lat="42.702000" lon="-0.048259">
        <ele>2344.5</ele>
        <time>2014-08-17T15:18:26Z</time>
      </trkpt>
      <trkpt lat="42.701956" lon="-0.048375">
        <ele>2344.0</ele>
        <time>2014-08-17T15:18:35Z</time>
      </trkpt>
      <trkpt lat="42.701914" lon="-0.048488">
        <ele>2343.6</ele>
        <time>2014-08-17T15:18:44Z</time>
      </trkpt>
      <trkpt lat="42.701981" lon="-0.048594">
        <ele>2343.9</ele>
        <time>2014-08-17T15:18:53Z</time>
      </trkpt>
      <trkpt lat="42.702045" lon="-0.048689">
        <ele>2344.3</ele>
        <time>2014-08-17T15:19:04Z</time>
      </trkpt>
      <trkpt lat="42.702028" lon="-0.048798">
        <ele>2344.1</ele>
        <time>2014-08-17T15:19:15Z</time>
      </trkpt>
      <trkpt lat="42.701982" lon="-0.048924">
        <ele>2343.2</ele>
        <time>2014-08-17T15:19:26Z</time>
      </trkpt>
      <trkpt lat="42.702000" lon="-0.049058">
        <ele>2341.9</ele>
        <time>2014-08-17T15:19:39Z</time>
      </trkpt>
      <trkpt lat="42.701999" lon="-0.049180">
        <ele>2340.3</ele>
        <time>2014-08-17T15:19:57Z</time>
      </trkpt>
      <trkpt lat="42.701978" lon="-0.049322">
        <ele>2337.2</ele>
        <time>2014-08-17T15:20:12Z</time>
      </trkpt>
      <trkpt lat="42.701985" lon="-0.049445">
        <ele>2334.9</ele>
        <time>2014-08-17T15:20:25Z</time>
      </trkpt>
      <trkpt lat="42.702002" lon="-0.049585">
        <ele>2333.2</ele>
        <time>2014-08-17T15:20:38Z</time>
      </trkpt>
      <trkpt lat="42.702008" lon="-0.049727">
        <ele>2331.8</ele>
        <time>2014-08-17T15:20:54Z</time>
      </trkpt>
      <trkpt lat="42.702041" lon="-0.049855">
        <ele>2328.7</ele>
        <time>2014-08-17T15:21:07Z</time>
      </trkpt>
      <trkpt lat="42.702020" lon="-0.049979">
        <ele>2326.6</ele>
        <time>2014-08-17T15:21:23Z</time>
      </trkpt>
      <trkpt lat="42.702024" lon="-0.050108">
        <ele>2325.8</ele>
        <time>2014-08-17T15:21:39Z</time>
      </trkpt>
      <trkpt lat="42.702063" lon="-0.050230">
        <ele>2324.4</ele>
        <time>2014-08-17T15:21:50Z</time>
      </trkpt>
      <trkpt lat="42.702129" lon="-0.050315">
        <ele>2322.7</ele>
        <time>2014-08-17T15:22:00Z</time>
      </trkpt>
      <trkpt lat="42.702147" lon="-0.050449">
        <ele>2320.4</ele>
        <time>2014-08-17T15:22:11Z</time>
      </trkpt>
      <trkpt lat="42.702178" lon="-0.050564">
        <ele>2319.2</ele>
        <time>2014-08-17T15:22:20Z</time>
      </trkpt>
      <trkpt lat="42.702226" lon="-0.050682">
        <ele>2317.8</ele>
        <time>2014-08-17T15:22:30Z</time>
      </trkpt>
      <trkpt lat="42.702244" lon="-0.050810">
        <ele>2316.2</ele>
        <time>2014-08-17T15:22:41Z</time>
      </trkpt>
      <trkpt lat="42.702189" lon="-0.050921">
        <ele>2315.5</ele>
        <time>2014-08-17T15:22:55Z</time>
      </trkpt>
      <trkpt lat="42.702182" lon="-0.051049">
        <ele>2315.9</ele>
        <time>2014-08-17T15:23:05Z</time>
      </trkpt>
      <trkpt lat="42.702204" lon="-0.051188">
        <ele>2315.9</ele>
        <time>2014-08-17T15:23:16Z</time>
      </trkpt>
      <trkpt lat="42.702226" lon="-0.051330">
        <ele>2314.8</ele>
        <time>2014-08-17T15:23:28Z</time>
      </trkpt>
      <trkpt lat="42.702235" lon="-0.051471">
        <ele>2313.4</ele>
        <time>2014-08-17T15:23:41Z</time>
      </trkpt>
      <trkpt lat="42.702295" lon="-0.051594">
        <ele>2312.0</ele>
        <time>2014-08-17T15:23:55Z</time>
      </trkpt>
      <trkpt lat="42.702359" lon="-0.051716">
        <ele>2310.8</ele>
        <time>2014-08-17T15:24:05Z</time>
      </trkpt>
      <trkpt lat="42.702407" lon="-0.051829">
        <ele>2310.5</ele>
        <time>2014-08-17T15:24:14Z</time>
      </trkpt>
      <trkpt lat="42.702408" lon="-0.051965">
        <ele>2310.1</ele>
        <time>2014-08-17T15:24:23Z</time>
      </trkpt>
      <trkpt lat="42.702402" lon="-0.052090">
        <ele>2309.7</ele>
        <time>2014-08-17T15:24:32Z</time>
      </trkpt>
      <trkpt lat="42.702387" lon="-0.052208">
        <ele>2309.1</ele>
        <time>2014-08-17T15:24:40Z</time>
      </trkpt>
      <trkpt lat="42.702382" lon="-0.052344">
        <ele>2307.6</ele>
        <time>2014-08-17T15:24:49Z</time>
      </trkpt>
      <trkpt lat="42.702381" lon="-0.052477">
        <ele>2307.0</ele>
        <time>2014-08-17T15:24:59Z</time>
      </trkpt>
      <trkpt lat="42.702377" lon="-0.052607">
        <ele>2306.8</ele>
        <time>2014-08-17T15:25:09Z</time>
      </trkpt>
      <trkpt lat="42.702373" lon="-0.052738">
        <ele>2306.8</ele>
        <time>2014-08-17T15:25:19Z</time>
      </trkpt>
      <trkpt lat="42.702378" lon="-0.052870">
        <ele>2306.5</ele>
        <time>2014-08-17T15:25:30Z</time>
      </trkpt>
      <trkpt lat="42.702351" lon="-0.052995">
        <ele>2307.2</ele>
        <time>2014-08-17T15:25:41Z</time>
      </trkpt>
      <trkpt lat="42.702330" lon="-0.053129">
        <ele>2308.0</ele>
        <time>2014-08-17T15:25:51Z</time>
      </trkpt>
      <trkpt lat="42.702329" lon="-0.053278">
        <ele>2307.7</ele>
        <time>2014-08-17T15:26:02Z</time>
      </trkpt>
      <trkpt lat="42.702344" lon="-0.053407">
        <ele>2308.3</ele>
        <time>2014-08-17T15:26:11Z</time>
      </trkpt>
      <trkpt lat="42.702371" lon="-0.053537">
        <ele>2309.5</ele>
        <time>2014-08-17T15:26:21Z</time>
      </trkpt>
      <trkpt lat="42.702326" lon="-0.053658">
        <ele>2310.7</ele>
        <time>2014-08-17T15:26:31Z</time>
      </trkpt>
      <trkpt lat="42.702334" lon="-0.053782">
        <ele>2311.1</ele>
        <time>2014-08-17T15:26:40Z</time>
      </trkpt>
      <trkpt lat="42.702330" lon="-0.053916">
        <ele>2310.4</ele>
        <time>2014-08-17T15:26:49Z</time>
      </trkpt>
      <trkpt lat="42.702328" lon="-0.054032">
        <ele>2309.9</ele>
        <time>2014-08-17T15:26:57Z</time>
      </trkpt>
      <trkpt lat="42.702309" lon="-0.054154">
        <ele>2309.5</ele>
        <time>2014-08-17T15:27:07Z</time>
      </trkpt>
      <trkpt lat="42.702263" lon="-0.054272">
        <ele>2309.2</ele>
        <time>2014-08-17T15:27:18Z</time>
      </trkpt>
      <trkpt lat="42.702229" lon="-0.054372">
        <ele>2308.8</ele>
        <time>2014-08-17T15:27:29Z</time>
      </trkpt>
      <trkpt lat="42.702202" lon="-0.054495">
        <ele>2308.6</ele>
        <time>2014-08-17T15:27:40Z</time>
      </trkpt>
      <trkpt lat="42.702135" lon="-0.054583">
        <ele>2308.2</ele>
        <time>2014-08-17T15:27:50Z</time>
      </trkpt>
      <trkpt lat="42.702148" lon="-0.054699">
        <ele>2308.1</ele>
        <time>2014-08-17T15:28:00Z</time>
      </trkpt>
      <trkpt lat="42.702206" lon="-0.054818">
        <ele>2308.6</ele>
        <time>2014-08-17T15:28:12Z</time>
      </trkpt>
      <trkpt lat="42.702239" lon="-0.054931">
        <ele>2308.6</ele>
        <time>2014-08-17T15:28:24Z</time>
      </trkpt>
      <trkpt lat="42.702242" lon="-0.055062">
        <ele>2307.9</ele>
        <time>2014-08-17T15:28:34Z</time>
      </trkpt>
      <trkpt lat="42.702243" lon="-0.055203">
        <ele>2308.2</ele>
        <time>2014-08-17T15:28:45Z</time>
      </trkpt>
      <trkpt lat="42.702218" lon="-0.055330">
        <ele>2308.3</ele>
        <time>2014-08-17T15:28:56Z</time>
      </trkpt>
      <trkpt lat="42.702191" lon="-0.055456">
        <ele>2308.5</ele>
        <time>2014-08-17T15:29:09Z</time>
      </trkpt>
      <trkpt lat="42.702183" lon="-0.055597">
        <ele>2309.1</ele>
        <time>2014-08-17T15:29:23Z</time>
      </trkpt>
      <trkpt lat="42.702197" lon="-0.055724">
        <ele>2308.9</ele>
        <time>2014-08-17T15:29:34Z</time>
      </trkpt>
      <trkpt lat="42.702249" lon="-0.055838">
        <ele>2309.1</ele>
        <time>2014-08-17T15:29:44Z</time>
      </trkpt>
      <trkpt lat="42.702298" lon="-0.055946">
        <ele>2308.5</ele>
        <time>2014-08-17T15:29:53Z</time>
      </trkpt>
      <trkpt lat="42.702358" lon="-0.056034">
        <ele>2308.5</ele>
        <time>2014-08-17T15:30:02Z</time>
      </trkpt>
      <trkpt lat="42.702424" lon="-0.056123">
        <ele>2308.5</ele>
        <time>2014-08-17T15:30:11Z</time>
      </trkpt>
      <trkpt lat="42.702507" lon="-0.056220">
        <ele>2308.9</ele>
        <time>2014-08-17T15:30:21Z</time>
      </trkpt>
      <trkpt lat="42.702549" lon="-0.056319">
        <ele>2309.8</ele>
        <time>2014-08-17T15:30:32Z</time>
      </trkpt>
      <trkpt lat="42.702547" lon="-0.056440">
        <ele>2310.2</ele>
        <time>2014-08-17T15:30:43Z</time>
      </trkpt>
      <trkpt lat="42.702516" lon="-0.056573">
        <ele>2310.7</ele>
        <time>2014-08-17T15:30:53Z</time>
      </trkpt>
      <trkpt lat="42.702521" lon="-0.056707">
        <ele>2309.6</ele>
        <time>2014-08-17T15:31:03Z</time>
      </trkpt>
      <trkpt lat="42.702558" lon="-0.056823">
        <ele>2309.8</ele>
        <time>2014-08-17T15:31:13Z</time>
      </trkpt>
      <trkpt lat="42.702604" lon="-0.056943">
        <ele>2310.3</ele>
        <time>2014-08-17T15:31:25Z</time>
      </trkpt>
      <trkpt lat="42.702656" lon="-0.057051">
        <ele>2311.1</ele>
        <time>2014-08-17T15:31:35Z</time>
      </trkpt>
      <trkpt lat="42.702629" lon="-0.057178">
        <ele>2311.1</ele>
        <time>2014-08-17T15:31:46Z</time>
      </trkpt>
      <trkpt lat="42.702629" lon="-0.057296">
        <ele>2310.5</ele>
        <time>2014-08-17T15:31:57Z</time>
      </trkpt>
      <trkpt lat="42.702667" lon="-0.057403">
        <ele>2310.2</ele>
        <time>2014-08-17T15:32:07Z</time>
      </trkpt>
      <trkpt lat="42.702685" lon="-0.057523">
        <ele>2310.7</ele>
        <time>2014-08-17T15:32:18Z</time>
      </trkpt>
      <trkpt lat="42.702728" lon="-0.057642">
        <ele>2311.2</ele>
        <time>2014-08-17T15:32:29Z</time>
      </trkpt>
      <trkpt lat="42.702744" lon="-0.057767">
        <ele>2312.1</ele>
        <time>2014-08-17T15:32:40Z</time>
      </trkpt>
      <trkpt lat="42.702760" lon="-0.057908">
        <ele>2313.1</ele>
        <time>2014-08-17T15:32:53Z</time>
      </trkpt>
      <trkpt lat="42.702759" lon="-0.058058">
        <ele>2314.4</ele>
        <time>2014-08-17T15:33:06Z</time>
      </trkpt>
      <trkpt lat="42.702775" lon="-0.058182">
        <ele>2314.3</ele>
        <time>2014-08-17T15:33:16Z</time>
      </trkpt>
      <trkpt lat="42.702800" lon="-0.058310">
        <ele>2314.5</ele>
        <time>2014-08-17T15:33:26Z</time>
      </trkpt>
      <trkpt lat="42.702819" lon="-0.058435">
        <ele>2314.9</ele>
        <time>2014-08-17T15:33:35Z</time>
      </trkpt>
      <trkpt lat="42.702824" lon="-0.058565">
        <ele>2315.4</ele>
        <time>2014-08-17T15:33:44Z</time>
      </trkpt>
      <trkpt lat="42.702830" lon="-0.058693">
        <ele>2315.4</ele>
        <time>2014-08-17T15:33:51Z</time>
      </trkpt>
      <trkpt lat="42.702901" lon="-0.058789">
        <ele>2315.3</ele>
        <time>2014-08-17T15:33:59Z</time>
      </trkpt>
      <trkpt lat="42.702952" lon="-0.058899">
        <ele>2315.6</ele>
        <time>2014-08-17T15:34:07Z</time>
      </trkpt>
      <trkpt lat="42.702951" lon="-0.059017">
        <ele>2316.6</ele>
        <time>2014-08-17T15:34:16Z</time>
      </trkpt>
      <trkpt lat="42.702959" lon="-0.059136">
        <ele>2317.8</ele>
        <time>2014-08-17T15:34:25Z</time>
      </trkpt>
      <trkpt lat="42.702978" lon="-0.059272">
        <ele>2317.6</ele>
        <time>2014-08-17T15:34:34Z</time>
      </trkpt>
      <trkpt lat="42.703013" lon="-0.059389">
        <ele>2317.8</ele>
        <time>2014-08-17T15:34:43Z</time>
      </trkpt>
      <trkpt lat="42.703047" lon="-0.059521">
        <ele>2318.4</ele>
        <time>2014-08-17T15:34:53Z</time>
      </trkpt>
      <trkpt lat="42.703071" lon="-0.059662">
        <ele>2318.2</ele>
        <time>2014-08-17T15:35:03Z</time>
      </trkpt>
      <trkpt lat="42.703103" lon="-0.059792">
        <ele>2318.6</ele>
        <time>2014-08-17T15:35:12Z</time>
      </trkpt>
      <trkpt lat="42.703135" lon="-0.059919">
        <ele>2319.4</ele>
        <time>2014-08-17T15:35:20Z</time>
      </trkpt>
      <trkpt lat="42.703158" lon="-0.060046">
        <ele>2319.4</ele>
        <time>2014-08-17T15:35:29Z</time>
      </trkpt>
      <trkpt lat="42.703160" lon="-0.060161">
        <ele>2319.8</ele>
        <time>2014-08-17T15:35:37Z</time>
      </trkpt>
      <trkpt lat="42.703158" lon="-0.060282">
        <ele>2320.3</ele>
        <time>2014-08-17T15:35:47Z</time>
      </trkpt>
      <trkpt lat="42.703150" lon="-0.060417">
        <ele>2319.3</ele>
        <time>2014-08-17T15:35:57Z</time>
      </trkpt>
      <trkpt lat="42.703194" lon="-0.060556">
        <ele>2318.0</ele>
        <time>2014-08-17T15:36:07Z</time>
      </trkpt>
      <trkpt lat="42.703209" lon="-0.060678">
        <ele>2317.1</ele>
        <time>2014-08-17T15:36:15Z</time>
      </trkpt>
      <trkpt lat="42.703212" lon="-0.060797">
        <ele>2317.2</ele>
        <time>2014-08-17T15:36:24Z</time>
      </trkpt>
      <trkpt lat="42.703239" lon="-0.060916">
        <ele>2316.9</ele>
        <time>2014-08-17T15:36:33Z</time>
      </trkpt>
      <trkpt lat="42.703220" lon="-0.061070">
        <ele>2316.6</ele>
        <time>2014-08-17T15:36:44Z</time>
      </trkpt>
      <trkpt lat="42.703215" lon="-0.061207">
        <ele>2315.4</ele>
        <time>2014-08-17T15:36:53Z</time>
      </trkpt>
      <trkpt lat="42.703220" lon="-0.061342">
        <ele>2313.9</ele>
        <time>2014-08-17T15:37:03Z</time>
      </trkpt>
      <trkpt lat="42.703223" lon="-0.061481">
        <ele>2312.4</ele>
        <time>2014-08-17T15:37:13Z</time>
      </trkpt>
      <trkpt lat="42.703256" lon="-0.061601">
        <ele>2310.8</ele>
        <time>2014-08-17T15:37:22Z</time>
      </trkpt>
      <trkpt lat="42.703264" lon="-0.061730">
        <ele>2308.9</ele>
        <time>2014-08-17T15:37:32Z</time>
      </trkpt>
      <trkpt lat="42.703287" lon="-0.061856">
        <ele>2307.2</ele>
        <time>2014-08-17T15:37:42Z</time>
      </trkpt>
      <trkpt lat="42.703377" lon="-0.061921">
        <ele>2305.2</ele>
        <time>2014-08-17T15:37:53Z</time>
      </trkpt>
      <trkpt lat="42.703414" lon="-0.062030">
        <ele>2303.4</ele>
        <time>2014-08-17T15:38:03Z</time>
      </trkpt>
      <trkpt lat="42.703442" lon="-0.062164">
        <ele>2302.8</ele>
        <time>2014-08-17T15:38:12Z</time>
      </trkpt>
      <trkpt lat="42.703461" lon="-0.062285">
        <ele>2302.3</ele>
        <time>2014-08-17T15:38:21Z</time>
      </trkpt>
      <trkpt lat="42.703471" lon="-0.062407">
        <ele>2301.6</ele>
        <time>2014-08-17T15:38:31Z</time>
      </trkpt>
      <trkpt lat="42.703476" lon="-0.062545">
        <ele>2299.5</ele>
        <time>2014-08-17T15:38:42Z</time>
      </trkpt>
      <trkpt lat="42.703482" lon="-0.062675">
        <ele>2297.4</ele>
        <time>2014-08-17T15:38:52Z</time>
      </trkpt>
      <trkpt lat="42.703491" lon="-0.062798">
        <ele>2295.5</ele>
        <time>2014-08-17T15:39:03Z</time>
      </trkpt>
      <trkpt lat="42.703493" lon="-0.062942">
        <ele>2292.7</ele>
        <time>2014-08-17T15:39:15Z</time>
      </trkpt>
      <trkpt lat="42.703481" lon="-0.063078">
        <ele>2290.9</ele>
        <time>2014-08-17T15:39:25Z</time>
      </trkpt>
      <trkpt lat="42.703495" lon="-0.063217">
        <ele>2288.2</ele>
        <time>2014-08-17T15:39:34Z</time>
      </trkpt>
      <trkpt lat="42.703505" lon="-0.063352">
        <ele>2286.7</ele>
        <time>2014-08-17T15:39:43Z</time>
      </trkpt>
      <trkpt lat="42.703533" lon="-0.063477">
        <ele>2285.2</ele>
        <time>2014-08-17T15:39:52Z</time>
      </trkpt>
      <trkpt lat="42.703560" lon="-0.063605">
        <ele>2283.0</ele>
        <time>2014-08-17T15:40:02Z</time>
      </trkpt>
      <trkpt lat="42.703589" lon="-0.063727">
        <ele>2281.2</ele>
        <time>2014-08-17T15:40:12Z</time>
      </trkpt>
      <trkpt lat="42.703630" lon="-0.063846">
        <ele>2279.4</ele>
        <time>2014-08-17T15:40:23Z</time>
      </trkpt>
      <trkpt lat="42.703671" lon="-0.063958">
        <ele>2276.2</ele>
        <time>2014-08-17T15:40:35Z</time>
      </trkpt>
      <trkpt lat="42.703762" lon="-0.064004">
        <ele>2273.6</ele>
        <time>2014-08-17T15:40:45Z</time>
      </trkpt>
      <trkpt lat="42.703847" lon="-0.064040">
        <ele>2272.1</ele>
        <time>2014-08-17T15:40:55Z</time>
      </trkpt>
      <trkpt lat="42.703884" lon="-0.063993">
        <ele>2271.9</ele>
        <time>2014-08-17T15:45:38Z</time>
      </trkpt>
      <trkpt lat="42.703934" lon="-0.063889">
        <ele>2270.3</ele>
        <time>2014-08-17T15:45:51Z</time>
      </trkpt>
      <trkpt lat="42.703989" lon="-0.063770">
        <ele>2268.6</ele>
        <time>2014-08-17T15:46:02Z</time>
      </trkpt>
      <trkpt lat="42.704052" lon="-0.063676">
        <ele>2267.2</ele>
        <time>2014-08-17T15:46:12Z</time>
      </trkpt>
      <trkpt lat="42.704106" lon="-0.063621">
        <ele>2265.4</ele>
        <time>2014-08-17T15:46:29Z</time>
      </trkpt>
      <trkpt lat="42.704156" lon="-0.063670">
        <ele>2265.2</ele>
        <time>2014-08-17T15:47:16Z</time>
      </trkpt>
      <trkpt lat="42.704243" lon="-0.063595">
        <ele>2264.8</ele>
        <time>2014-08-17T15:47:25Z</time>
      </trkpt>
      <trkpt lat="42.704331" lon="-0.063573">
        <ele>2264.2</ele>
        <time>2014-08-17T15:47:33Z</time>
      </trkpt>
      <trkpt lat="42.704416" lon="-0.063557">
        <ele>2263.5</ele>
        <time>2014-08-17T15:47:40Z</time>
      </trkpt>
      <trkpt lat="42.704508" lon="-0.063534">
        <ele>2262.5</ele>
        <time>2014-08-17T15:47:51Z</time>
      </trkpt>
      <trkpt lat="42.704620" lon="-0.063481">
        <ele>2261.8</ele>
        <time>2014-08-17T15:48:01Z</time>
      </trkpt>
      <trkpt lat="42.704723" lon="-0.063440">
        <ele>2260.8</ele>
        <time>2014-08-17T15:48:10Z</time>
      </trkpt>
      <trkpt lat="42.704821" lon="-0.063423">
        <ele>2259.8</ele>
        <time>2014-08-17T15:48:19Z</time>
      </trkpt>
      <trkpt lat="42.704913" lon="-0.063389">
        <ele>2259.2</ele>
        <time>2014-08-17T15:48:27Z</time>
      </trkpt>
      <trkpt lat="42.705010" lon="-0.063343">
        <ele>2258.4</ele>
        <time>2014-08-17T15:48:35Z</time>
      </trkpt>
      <trkpt lat="42.705102" lon="-0.063315">
        <ele>2257.4</ele>
        <time>2014-08-17T15:48:43Z</time>
      </trkpt>
      <trkpt lat="42.705185" lon="-0.063310">
        <ele>2256.8</ele>
        <time>2014-08-17T15:48:50Z</time>
      </trkpt>
      <trkpt lat="42.705270" lon="-0.063282">
        <ele>2255.9</ele>
        <time>2014-08-17T15:48:58Z</time>
      </trkpt>
      <trkpt lat="42.705353" lon="-0.063253">
        <ele>2254.8</ele>
        <time>2014-08-17T15:49:07Z</time>
      </trkpt>
      <trkpt lat="42.705456" lon="-0.063199">
        <ele>2253.9</ele>
        <time>2014-08-17T15:49:16Z</time>
      </trkpt>
      <trkpt lat="42.705555" lon="-0.063163">
        <ele>2253.5</ele>
        <time>2014-08-17T15:49:24Z</time>
      </trkpt>
      <trkpt lat="42.705642" lon="-0.063119">
        <ele>2252.7</ele>
        <time>2014-08-17T15:49:32Z</time>
      </trkpt>
      <trkpt lat="42.705723" lon="-0.063043">
        <ele>2251.7</ele>
        <time>2014-08-17T15:49:40Z</time>
      </trkpt>
      <trkpt lat="42.705810" lon="-0.062986">
        <ele>2250.9</ele>
        <time>2014-08-17T15:49:48Z</time>
      </trkpt>
      <trkpt lat="42.705898" lon="-0.062925">
        <ele>2249.9</ele>
        <time>2014-08-17T15:49:57Z</time>
      </trkpt>
      <trkpt lat="42.705975" lon="-0.062858">
        <ele>2248.9</ele>
        <time>2014-08-17T15:50:05Z</time>
      </trkpt>
      <trkpt lat="42.706070" lon="-0.062785">
        <ele>2248.0</ele>
        <time>2014-08-17T15:50:13Z</time>
      </trkpt>
      <trkpt lat="42.706146" lon="-0.062721">
        <ele>2247.3</ele>
        <time>2014-08-17T15:50:20Z</time>
      </trkpt>
      <trkpt lat="42.706221" lon="-0.062637">
        <ele>2246.1</ele>
        <time>2014-08-17T15:50:29Z</time>
      </trkpt>
      <trkpt lat="42.706313" lon="-0.062577">
        <ele>2245.1</ele>
        <time>2014-08-17T15:50:38Z</time>
      </trkpt>
      <trkpt lat="42.706387" lon="-0.062516">
        <ele>2244.3</ele>
        <time>2014-08-17T15:50:46Z</time>
      </trkpt>
      <trkpt lat="42.706483" lon="-0.062462">
        <ele>2243.1</ele>
        <time>2014-08-17T15:50:55Z</time>
      </trkpt>
      <trkpt lat="42.706562" lon="-0.062396">
        <ele>2242.6</ele>
        <time>2014-08-17T15:51:02Z</time>
      </trkpt>
      <trkpt lat="42.706634" lon="-0.062306">
        <ele>2242.0</ele>
        <time>2014-08-17T15:51:09Z</time>
      </trkpt>
      <trkpt lat="42.706728" lon="-0.062240">
        <ele>2241.1</ele>
        <time>2014-08-17T15:51:17Z</time>
      </trkpt>
      <trkpt lat="42.706801" lon="-0.062157">
        <ele>2239.8</ele>
        <time>2014-08-17T15:51:23Z</time>
      </trkpt>
      <trkpt lat="42.706885" lon="-0.062100">
        <ele>2238.8</ele>
        <time>2014-08-17T15:51:30Z</time>
      </trkpt>
      <trkpt lat="42.706956" lon="-0.062027">
        <ele>2238.0</ele>
        <time>2014-08-17T15:51:38Z</time>
      </trkpt>
      <trkpt lat="42.707033" lon="-0.061987">
        <ele>2236.7</ele>
        <time>2014-08-17T15:51:47Z</time>
      </trkpt>
      <trkpt lat="42.707079" lon="-0.061866">
        <ele>2236.1</ele>
        <time>2014-08-17T15:51:55Z</time>
      </trkpt>
      <trkpt lat="42.707122" lon="-0.061735">
        <ele>2235.5</ele>
        <time>2014-08-17T15:52:02Z</time>
      </trkpt>
      <trkpt lat="42.707167" lon="-0.061628">
        <ele>2235.0</ele>
        <time>2014-08-17T15:52:10Z</time>
      </trkpt>
      <trkpt lat="42.707210" lon="-0.061503">
        <ele>2234.5</ele>
        <time>2014-08-17T15:52:19Z</time>
      </trkpt>
      <trkpt lat="42.707233" lon="-0.061379">
        <ele>2233.9</ele>
        <time>2014-08-17T15:52:28Z</time>
      </trkpt>
      <trkpt lat="42.707263" lon="-0.061264">
        <ele>2233.1</ele>
        <time>2014-08-17T15:52:36Z</time>
      </trkpt>
      <trkpt lat="42.707319" lon="-0.061169">
        <ele>2232.6</ele>
        <time>2014-08-17T15:52:44Z</time>
      </trkpt>
      <trkpt lat="42.707366" lon="-0.061053">
        <ele>2232.3</ele>
        <time>2014-08-17T15:52:54Z</time>
      </trkpt>
      <trkpt lat="42.707429" lon="-0.060971">
        <ele>2230.9</ele>
        <time>2014-08-17T15:53:02Z</time>
      </trkpt>
      <trkpt lat="42.707500" lon="-0.060900">
        <ele>2229.4</ele>
        <time>2014-08-17T15:53:11Z</time>
      </trkpt>
      <trkpt lat="42.707571" lon="-0.060810">
        <ele>2227.7</ele>
        <time>2014-08-17T15:53:20Z</time>
      </trkpt>
      <trkpt lat="42.707648" lon="-0.060750">
        <ele>2226.5</ele>
        <time>2014-08-17T15:53:29Z</time>
      </trkpt>
      <trkpt lat="42.707721" lon="-0.060683">
        <ele>2225.6</ele>
        <time>2014-08-17T15:53:38Z</time>
      </trkpt>
      <trkpt lat="42.707798" lon="-0.060611">
        <ele>2224.8</ele>
        <time>2014-08-17T15:53:47Z</time>
      </trkpt>
      <trkpt lat="42.707899" lon="-0.060547">
        <ele>2223.9</ele>
        <time>2014-08-17T15:53:57Z</time>
      </trkpt>
      <trkpt lat="42.707960" lon="-0.060434">
        <ele>2222.4</ele>
        <time>2014-08-17T15:54:08Z</time>
      </trkpt>
      <trkpt lat="42.708022" lon="-0.060327">
        <ele>2221.5</ele>
        <time>2014-08-17T15:54:17Z</time>
      </trkpt>
      <trkpt lat="42.708089" lon="-0.060263">
        <ele>2220.6</ele>
        <time>2014-08-17T15:54:26Z</time>
      </trkpt>
      <trkpt lat="42.708169" lon="-0.060190">
        <ele>2219.6</ele>
        <time>2014-08-17T15:54:36Z</time>
      </trkpt>
      <trkpt lat="42.708247" lon="-0.060134">
        <ele>2218.9</ele>
        <time>2014-08-17T15:54:45Z</time>
      </trkpt>
      <trkpt lat="42.708333" lon="-0.060039">
        <ele>2218.1</ele>
        <time>2014-08-17T15:54:55Z</time>
      </trkpt>
      <trkpt lat="42.708415" lon="-0.059978">
        <ele>2216.8</ele>
        <time>2014-08-17T15:55:03Z</time>
      </trkpt>
      <trkpt lat="42.708503" lon="-0.059899">
        <ele>2215.8</ele>
        <time>2014-08-17T15:55:12Z</time>
      </trkpt>
      <trkpt lat="42.708594" lon="-0.059833">
        <ele>2214.9</ele>
        <time>2014-08-17T15:55:20Z</time>
      </trkpt>
      <trkpt lat="42.708671" lon="-0.059770">
        <ele>2214.1</ele>
        <time>2014-08-17T15:55:29Z</time>
      </trkpt>
      <trkpt lat="42.708755" lon="-0.059659">
        <ele>2213.4</ele>
        <time>2014-08-17T15:55:38Z</time>
      </trkpt>
      <trkpt lat="42.708831" lon="-0.059559">
        <ele>2212.9</ele>
        <time>2014-08-17T15:55:47Z</time>
      </trkpt>
      <trkpt lat="42.708907" lon="-0.059466">
        <ele>2212.5</ele>
        <time>2014-08-17T15:55:56Z</time>
      </trkpt>
      <trkpt lat="42.708971" lon="-0.059364">
        <ele>2211.9</ele>
        <time>2014-08-17T15:56:04Z</time>
      </trkpt>
      <trkpt lat="42.709049" lon="-0.059288">
        <ele>2211.2</ele>
        <time>2014-08-17T15:56:13Z</time>
      </trkpt>
      <trkpt lat="42.709125" lon="-0.059278">
        <ele>2210.9</ele>
        <time>2014-08-17T15:56:22Z</time>
      </trkpt>
      <trkpt lat="42.709207" lon="-0.059208">
        <ele>2210.4</ele>
        <time>2014-08-17T15:56:32Z</time>
      </trkpt>
      <trkpt lat="42.709284" lon="-0.059159">
        <ele>2209.7</ele>
        <time>2014-08-17T15:56:40Z</time>
      </trkpt>
      <trkpt lat="42.709361" lon="-0.059114">
        <ele>2209.3</ele>
        <time>2014-08-17T15:56:48Z</time>
      </trkpt>
      <trkpt lat="42.709439" lon="-0.059031">
        <ele>2209.0</ele>
        <time>2014-08-17T15:56:57Z</time>
      </trkpt>
      <trkpt lat="42.709520" lon="-0.058949">
        <ele>2209.1</ele>
        <time>2014-08-17T15:57:05Z</time>
      </trkpt>
      <trkpt lat="42.709592" lon="-0.058875">
        <ele>2209.1</ele>
        <time>2014-08-17T15:57:13Z</time>
      </trkpt>
      <trkpt lat="42.709682" lon="-0.058816">
        <ele>2208.8</ele>
        <time>2014-08-17T15:57:22Z</time>
      </trkpt>
      <trkpt lat="42.709759" lon="-0.058746">
        <ele>2208.7</ele>
        <time>2014-08-17T15:57:30Z</time>
      </trkpt>
      <trkpt lat="42.709833" lon="-0.058659">
        <ele>2208.7</ele>
        <time>2014-08-17T15:57:38Z</time>
      </trkpt>
      <trkpt lat="42.709905" lon="-0.058572">
        <ele>2208.8</ele>
        <time>2014-08-17T15:57:45Z</time>
      </trkpt>
      <trkpt lat="42.709975" lon="-0.058472">
        <ele>2208.5</ele>
        <time>2014-08-17T15:57:54Z</time>
      </trkpt>
      <trkpt lat="42.710029" lon="-0.058372">
        <ele>2208.6</ele>
        <time>2014-08-17T15:58:03Z</time>
      </trkpt>
      <trkpt lat="42.710087" lon="-0.058272">
        <ele>2209.3</ele>
        <time>2014-08-17T15:58:12Z</time>
      </trkpt>
      <trkpt lat="42.710153" lon="-0.058156">
        <ele>2209.4</ele>
        <time>2014-08-17T15:58:22Z</time>
      </trkpt>
      <trkpt lat="42.710216" lon="-0.058043">
        <ele>2209.2</ele>
        <time>2014-08-17T15:58:31Z</time>
      </trkpt>
      <trkpt lat="42.710284" lon="-0.057929">
        <ele>2209.2</ele>
        <time>2014-08-17T15:58:40Z</time>
      </trkpt>
      <trkpt lat="42.710338" lon="-0.057819">
        <ele>2209.5</ele>
        <time>2014-08-17T15:58:49Z</time>
      </trkpt>
      <trkpt lat="42.710397" lon="-0.057691">
        <ele>2209.5</ele>
        <time>2014-08-17T15:58:58Z</time>
      </trkpt>
      <trkpt lat="42.710465" lon="-0.057572">
        <ele>2209.3</ele>
        <time>2014-08-17T15:59:07Z</time>
      </trkpt>
      <trkpt lat="42.710523" lon="-0.057475">
        <ele>2209.3</ele>
        <time>2014-08-17T15:59:15Z</time>
      </trkpt>
      <trkpt lat="42.710585" lon="-0.057385">
        <ele>2209.4</ele>
        <time>2014-08-17T15:59:24Z</time>
      </trkpt>
      <trkpt lat="42.710642" lon="-0.057295">
        <ele>2209.5</ele>
        <time>2014-08-17T15:59:32Z</time>
      </trkpt>
      <trkpt lat="42.710705" lon="-0.057213">
        <ele>2209.4</ele>
        <time>2014-08-17T15:59:40Z</time>
      </trkpt>
      <trkpt lat="42.710772" lon="-0.057130">
        <ele>2209.1</ele>
        <time>2014-08-17T15:59:48Z</time>
      </trkpt>
      <trkpt lat="42.710833" lon="-0.057043">
        <ele>2208.9</ele>
        <time>2014-08-17T15:59:56Z</time>
      </trkpt>
      <trkpt lat="42.710907" lon="-0.056952">
        <ele>2208.8</ele>
        <time>2014-08-17T16:00:05Z</time>
      </trkpt>
      <trkpt lat="42.710986" lon="-0.056878">
        <ele>2209.1</ele>
        <time>2014-08-17T16:00:14Z</time>
      </trkpt>
      <trkpt lat="42.711062" lon="-0.056788">
        <ele>2209.1</ele>
        <time>2014-08-17T16:00:23Z</time>
      </trkpt>
      <trkpt lat="42.711144" lon="-0.056720">
        <ele>2209.0</ele>
        <time>2014-08-17T16:00:32Z</time>
      </trkpt>
      <trkpt lat="42.711237" lon="-0.056664">
        <ele>2209.1</ele>
        <time>2014-08-17T16:00:41Z</time>
      </trkpt>
      <trkpt lat="42.711328" lon="-0.056617">
        <ele>2208.9</ele>
        <time>2014-08-17T16:00:52Z</time>
      </trkpt>
      <trkpt lat="42.711433" lon="-0.056565">
        <ele>2209.0</ele>
        <time>2014-08-17T16:01:02Z</time>
      </trkpt>
      <trkpt lat="42.711510" lon="-0.056484">
        <ele>2208.9</ele>
        <time>2014-08-17T16:01:11Z</time>
      </trkpt>
      <trkpt lat="42.711583" lon="-0.056409">
        <ele>2208.9</ele>
        <time>2014-08-17T16:01:19Z</time>
      </trkpt>
      <trkpt lat="42.711661" lon="-0.056314">
        <ele>2208.8</ele>
        <time>2014-08-17T16:01:28Z</time>
      </trkpt>
      <trkpt lat="42.711731" lon="-0.056215">
        <ele>2208.8</ele>
        <time>2014-08-17T16:01:37Z</time>
      </trkpt>
      <trkpt lat="42.711793" lon="-0.056117">
        <ele>2208.9</ele>
        <time>2014-08-17T16:01:45Z</time>
      </trkpt>
      <trkpt lat="42.711860" lon="-0.056031">
        <ele>2208.9</ele>
        <time>2014-08-17T16:01:52Z</time>
      </trkpt>
      <trkpt lat="42.711913" lon="-0.055939">
        <ele>2208.9</ele>
        <time>2014-08-17T16:02:00Z</time>
      </trkpt>
      <trkpt lat="42.711967" lon="-0.055850">
        <ele>2208.8</ele>
        <time>2014-08-17T16:02:08Z</time>
      </trkpt>
      <trkpt lat="42.712019" lon="-0.055752">
        <ele>2209.2</ele>
        <time>2014-08-17T16:02:16Z</time>
      </trkpt>
      <trkpt lat="42.712049" lon="-0.055637">
        <ele>2209.1</ele>
        <time>2014-08-17T16:02:24Z</time>
      </trkpt>
      <trkpt lat="42.712097" lon="-0.055521">
        <ele>2208.9</ele>
        <time>2014-08-17T16:02:33Z</time>
      </trkpt>
      <trkpt lat="42.712135" lon="-0.055402">
        <ele>2208.4</ele>
        <time>2014-08-17T16:02:41Z</time>
      </trkpt>
      <trkpt lat="42.712163" lon="-0.055285">
        <ele>2208.2</ele>
        <time>2014-08-17T16:02:49Z</time>
      </trkpt>
      <trkpt lat="42.712194" lon="-0.055160">
        <ele>2208.2</ele>
        <time>2014-08-17T16:02:57Z</time>
      </trkpt>
      <trkpt lat="42.712224" lon="-0.055037">
        <ele>2208.3</ele>
        <time>2014-08-17T16:03:05Z</time>
      </trkpt>
      <trkpt lat="42.712244" lon="-0.054906">
        <ele>2208.2</ele>
        <time>2014-08-17T16:03:13Z</time>
      </trkpt>
      <trkpt lat="42.712255" lon="-0.054781">
        <ele>2208.2</ele>
        <time>2014-08-17T16:03:21Z</time>
      </trkpt>
      <trkpt lat="42.712267" lon="-0.054656">
        <ele>2208.4</ele>
        <time>2014-08-17T16:03:29Z</time>
      </trkpt>
      <trkpt lat="42.712285" lon="-0.054533">
        <ele>2208.4</ele>
        <time>2014-08-17T16:03:37Z</time>
      </trkpt>
      <trkpt lat="42.712310" lon="-0.054408">
        <ele>2208.4</ele>
        <time>2014-08-17T16:03:45Z</time>
      </trkpt>
      <trkpt lat="42.712350" lon="-0.054291">
        <ele>2208.2</ele>
        <time>2014-08-17T16:03:53Z</time>
      </trkpt>
      <trkpt lat="42.712384" lon="-0.054166">
        <ele>2208.5</ele>
        <time>2014-08-17T16:04:01Z</time>
      </trkpt>
      <trkpt lat="42.712406" lon="-0.054043">
        <ele>2209.0</ele>
        <time>2014-08-17T16:04:09Z</time>
      </trkpt>
      <trkpt lat="42.712439" lon="-0.053917">
        <ele>2209.1</ele>
        <time>2014-08-17T16:04:18Z</time>
      </trkpt>
      <trkpt lat="42.712477" lon="-0.053812">
        <ele>2209.3</ele>
        <time>2014-08-17T16:04:26Z</time>
      </trkpt>
      <trkpt lat="42.712518" lon="-0.053702">
        <ele>2209.3</ele>
        <time>2014-08-17T16:04:34Z</time>
      </trkpt>
      <trkpt lat="42.712558" lon="-0.053586">
        <ele>2209.4</ele>
        <time>2014-08-17T16:04:42Z</time>
      </trkpt>
      <trkpt lat="42.712606" lon="-0.053476">
        <ele>2209.4</ele>
        <time>2014-08-17T16:04:50Z</time>
      </trkpt>
      <trkpt lat="42.712641" lon="-0.053364">
        <ele>2209.3</ele>
        <time>2014-08-17T16:04:57Z</time>
      </trkpt>
      <trkpt lat="42.712670" lon="-0.053233">
        <ele>2209.4</ele>
        <time>2014-08-17T16:05:05Z</time>
      </trkpt>
      <trkpt lat="42.712697" lon="-0.053119">
        <ele>2209.3</ele>
        <time>2014-08-17T16:05:12Z</time>
      </trkpt>
      <trkpt lat="42.712733" lon="-0.052999">
        <ele>2209.6</ele>
        <time>2014-08-17T16:05:20Z</time>
      </trkpt>
      <trkpt lat="42.712748" lon="-0.052874">
        <ele>2209.9</ele>
        <time>2014-08-17T16:05:28Z</time>
      </trkpt>
      <trkpt lat="42.712763" lon="-0.052751">
        <ele>2210.0</ele>
        <time>2014-08-17T16:05:36Z</time>
      </trkpt>
      <trkpt lat="42.712785" lon="-0.052633">
        <ele>2210.0</ele>
        <time>2014-08-17T16:05:44Z</time>
      </trkpt>
      <trkpt lat="42.712816" lon="-0.052509">
        <ele>2210.0</ele>
        <time>2014-08-17T16:05:52Z</time>
      </trkpt>
      <trkpt lat="42.712833" lon="-0.052385">
        <ele>2210.1</ele>
        <time>2014-08-17T16:06:00Z</time>
      </trkpt>
      <trkpt lat="42.712851" lon="-0.052263">
        <ele>2210.2</ele>
        <time>2014-08-17T16:06:08Z</time>
      </trkpt>
      <trkpt lat="42.712872" lon="-0.052137">
        <ele>2210.9</ele>
        <time>2014-08-17T16:06:16Z</time>
      </trkpt>
      <trkpt lat="42.712905" lon="-0.052029">
        <ele>2211.1</ele>
        <time>2014-08-17T16:06:24Z</time>
      </trkpt>
      <trkpt lat="42.712936" lon="-0.051908">
        <ele>2210.7</ele>
        <time>2014-08-17T16:06:32Z</time>
      </trkpt>
      <trkpt lat="42.712972" lon="-0.051807">
        <ele>2210.7</ele>
        <time>2014-08-17T16:06:40Z</time>
      </trkpt>
      <trkpt lat="42.713014" lon="-0.051689">
        <ele>2210.6</ele>
        <time>2014-08-17T16:06:49Z</time>
      </trkpt>
      <trkpt lat="42.713060" lon="-0.051581">
        <ele>2210.6</ele>
        <time>2014-08-17T16:06:57Z</time>
      </trkpt>
      <trkpt lat="42.713103" lon="-0.051471">
        <ele>2210.7</ele>
        <time>2014-08-17T16:07:05Z</time>
      </trkpt>
      <trkpt lat="42.713156" lon="-0.051360">
        <ele>2210.7</ele>
        <time>2014-08-17T16:07:14Z</time>
      </trkpt>
      <trkpt lat="42.713191" lon="-0.051248">
        <ele>2210.4</ele>
        <time>2014-08-17T16:07:23Z</time>
      </trkpt>
      <trkpt lat="42.713255" lon="-0.051148">
        <ele>2210.2</ele>
        <time>2014-08-17T16:07:33Z</time>
      </trkpt>
      <trkpt lat="42.713323" lon="-0.051063">
        <ele>2209.8</ele>
        <time>2014-08-17T16:07:42Z</time>
      </trkpt>
      <trkpt lat="42.713402" lon="-0.051004">
        <ele>2209.7</ele>
        <time>2014-08-17T16:07:51Z</time>
      </trkpt>
      <trkpt lat="42.713501" lon="-0.051032">
        <ele>2209.6</ele>
        <time>2014-08-17T16:08:01Z</time>
      </trkpt>
      <trkpt lat="42.713574" lon="-0.051131">
        <ele>2209.8</ele>
        <time>2014-08-17T16:08:11Z</time>
      </trkpt>
      <trkpt lat="42.713633" lon="-0.051249">
        <ele>2210.4</ele>
        <time>2014-08-17T16:08:21Z</time>
      </trkpt>
      <trkpt lat="42.713699" lon="-0.051337">
        <ele>2210.3</ele>
        <time>2014-08-17T16:08:30Z</time>
      </trkpt>
      <trkpt lat="42.713766" lon="-0.051429">
        <ele>2210.5</ele>
        <time>2014-08-17T16:08:39Z</time>
      </trkpt>
      <trkpt lat="42.713827" lon="-0.051425">
        <ele>2209.5</ele>
        <time>2014-08-17T16:09:07Z</time>
      </trkpt>
    </trkseg>
  </trk>
</gpx>

